<?xml version="1.0" encoding="UTF-8" standalone="no" ?>
<gpx xmlns="http://www.topografix.com/GPX/1/1" xmlns:xsi="http://www.w3.org/2001/XMLSchema-instance" xsi:schemaLocation="http://www.topografix.com/GPX/1/1 http://www.topografix.com/GPX/1/1/gpx.xsd" version="1.1" creator="VisuGPX - https://www.visugpx.com">
  <metadata>
    <name>Saint-Ambroix - Dieusse</name>
    <desc><![CDATA[Une boucle en lisière urbaine avec quand même pas mal de cailloux et de beaux panoramas.]]></desc>
  </metadata>
  <trk>
    <name><![CDATA[2020-05-21 17:00:35]]></name>
    <trkseg>
      <trkpt lat="44.2624" lon="4.19781">
        <ele>92.42</ele>
        <time>2020-05-21T11:40:21Z</time>
      </trkpt>
      <trkpt lat="44.26231" lon="4.1979">
        <ele>99.15</ele>
        <time>2020-05-21T11:40:34Z</time>
      </trkpt>
      <trkpt lat="44.2623" lon="4.19791">
        <ele>103</ele>
        <time>2020-05-21T11:40:36Z</time>
      </trkpt>
      <trkpt lat="44.26231" lon="4.19791">
        <ele>107.32</ele>
        <time>2020-05-21T11:40:39Z</time>
      </trkpt>
      <trkpt lat="44.26231" lon="4.19791">
        <ele>110.69</ele>
        <time>2020-05-21T11:40:41Z</time>
      </trkpt>
      <trkpt lat="44.2623" lon="4.1979">
        <ele>115.01</ele>
        <time>2020-05-21T11:40:43Z</time>
      </trkpt>
      <trkpt lat="44.26229" lon="4.19789">
        <ele>117.9</ele>
        <time>2020-05-21T11:40:45Z</time>
      </trkpt>
      <trkpt lat="44.26228" lon="4.19789">
        <ele>122.22</ele>
        <time>2020-05-21T11:40:48Z</time>
      </trkpt>
      <trkpt lat="44.26228" lon="4.19789">
        <ele>121.74</ele>
        <time>2020-05-21T11:40:49Z</time>
      </trkpt>
      <trkpt lat="44.26228" lon="4.1979">
        <ele>125.11</ele>
        <time>2020-05-21T11:40:50Z</time>
      </trkpt>
      <trkpt lat="44.26228" lon="4.1979">
        <ele>124.15</ele>
        <time>2020-05-21T11:40:51Z</time>
      </trkpt>
      <trkpt lat="44.26229" lon="4.19792">
        <ele>127.99</ele>
        <time>2020-05-21T11:40:53Z</time>
      </trkpt>
      <trkpt lat="44.26228" lon="4.19797">
        <ele>132.8</ele>
        <time>2020-05-21T11:40:57Z</time>
      </trkpt>
      <trkpt lat="44.26227" lon="4.19799">
        <ele>131.36</ele>
        <time>2020-05-21T11:40:58Z</time>
      </trkpt>
      <trkpt lat="44.26226" lon="4.19801">
        <ele>135.2</ele>
        <time>2020-05-21T11:41:00Z</time>
      </trkpt>
      <trkpt lat="44.26226" lon="4.19802">
        <ele>134.24</ele>
        <time>2020-05-21T11:41:01Z</time>
      </trkpt>
      <trkpt lat="44.26225" lon="4.19803">
        <ele>138.09</ele>
        <time>2020-05-21T11:41:03Z</time>
      </trkpt>
      <trkpt lat="44.26224" lon="4.19803">
        <ele>137.61</ele>
        <time>2020-05-21T11:41:04Z</time>
      </trkpt>
      <trkpt lat="44.26222" lon="4.19802">
        <ele>140.97</ele>
        <time>2020-05-21T11:41:08Z</time>
      </trkpt>
      <trkpt lat="44.26222" lon="4.19805">
        <ele>144.34</ele>
        <time>2020-05-21T11:41:15Z</time>
      </trkpt>
      <trkpt lat="44.26221" lon="4.19812">
        <ele>147.7</ele>
        <time>2020-05-21T11:41:21Z</time>
      </trkpt>
      <trkpt lat="44.2622" lon="4.19815">
        <ele>144.82</ele>
        <time>2020-05-21T11:41:26Z</time>
      </trkpt>
      <trkpt lat="44.2622" lon="4.19815">
        <ele>151.54</ele>
        <time>2020-05-21T11:41:27Z</time>
      </trkpt>
      <trkpt lat="44.2622" lon="4.19815">
        <ele>150.1</ele>
        <time>2020-05-21T11:41:28Z</time>
      </trkpt>
      <trkpt lat="44.26228" lon="4.19789">
        <ele>152.99</ele>
        <time>2020-05-21T11:41:44Z</time>
      </trkpt>
      <trkpt lat="44.26232" lon="4.19782">
        <ele>155.39</ele>
        <time>2020-05-21T11:41:49Z</time>
      </trkpt>
      <trkpt lat="44.26221" lon="4.19801">
        <ele>155.39</ele>
        <time>2020-05-21T11:42:09Z</time>
      </trkpt>
      <trkpt lat="44.26215" lon="4.1983">
        <ele>154.43</ele>
        <time>2020-05-21T11:42:30Z</time>
      </trkpt>
      <trkpt lat="44.26214" lon="4.19854">
        <ele>155.39</ele>
        <time>2020-05-21T11:42:44Z</time>
      </trkpt>
      <trkpt lat="44.26212" lon="4.19858">
        <ele>153.95</ele>
        <time>2020-05-21T11:42:46Z</time>
      </trkpt>
      <trkpt lat="44.26179" lon="4.19872">
        <ele>154.91</ele>
        <time>2020-05-21T11:43:03Z</time>
      </trkpt>
      <trkpt lat="44.26178" lon="4.19886">
        <ele>154.43</ele>
        <time>2020-05-21T11:43:21Z</time>
      </trkpt>
      <trkpt lat="44.26179" lon="4.19887">
        <ele>154.43</ele>
        <time>2020-05-21T11:43:22Z</time>
      </trkpt>
      <trkpt lat="44.2618" lon="4.19888">
        <ele>152.51</ele>
        <time>2020-05-21T11:43:24Z</time>
      </trkpt>
      <trkpt lat="44.262" lon="4.19931">
        <ele>153.47</ele>
        <time>2020-05-21T11:43:40Z</time>
      </trkpt>
      <trkpt lat="44.26202" lon="4.19941">
        <ele>154.43</ele>
        <time>2020-05-21T11:43:46Z</time>
      </trkpt>
      <trkpt lat="44.26202" lon="4.19943">
        <ele>152.99</ele>
        <time>2020-05-21T11:43:47Z</time>
      </trkpt>
      <trkpt lat="44.26203" lon="4.19951">
        <ele>153.95</ele>
        <time>2020-05-21T11:43:51Z</time>
      </trkpt>
      <trkpt lat="44.26203" lon="4.19957">
        <ele>152.51</ele>
        <time>2020-05-21T11:43:54Z</time>
      </trkpt>
      <trkpt lat="44.26201" lon="4.19974">
        <ele>154.43</ele>
        <time>2020-05-21T11:44:02Z</time>
      </trkpt>
      <trkpt lat="44.26201" lon="4.19977">
        <ele>153.47</ele>
        <time>2020-05-21T11:44:04Z</time>
      </trkpt>
      <trkpt lat="44.26211" lon="4.1998">
        <ele>154.91</ele>
        <time>2020-05-21T11:44:11Z</time>
      </trkpt>
      <trkpt lat="44.26213" lon="4.1998">
        <ele>152.51</ele>
        <time>2020-05-21T11:44:13Z</time>
      </trkpt>
      <trkpt lat="44.26213" lon="4.19981">
        <ele>156.83</ele>
        <time>2020-05-21T11:44:14Z</time>
      </trkpt>
      <trkpt lat="44.26213" lon="4.19981">
        <ele>156.83</ele>
        <time>2020-05-21T11:44:15Z</time>
      </trkpt>
      <trkpt lat="44.26214" lon="4.19982">
        <ele>154.43</ele>
        <time>2020-05-21T11:44:16Z</time>
      </trkpt>
      <trkpt lat="44.26213" lon="4.19984">
        <ele>158.27</ele>
        <time>2020-05-21T11:44:22Z</time>
      </trkpt>
      <trkpt lat="44.26212" lon="4.19987">
        <ele>156.83</ele>
        <time>2020-05-21T11:44:26Z</time>
      </trkpt>
      <trkpt lat="44.26212" lon="4.19988">
        <ele>159.72</ele>
        <time>2020-05-21T11:44:27Z</time>
      </trkpt>
      <trkpt lat="44.26213" lon="4.19988">
        <ele>156.83</ele>
        <time>2020-05-21T11:44:28Z</time>
      </trkpt>
      <trkpt lat="44.26225" lon="4.19989">
        <ele>159.24</ele>
        <time>2020-05-21T11:44:36Z</time>
      </trkpt>
      <trkpt lat="44.26229" lon="4.19991">
        <ele>157.79</ele>
        <time>2020-05-21T11:44:38Z</time>
      </trkpt>
      <trkpt lat="44.2625" lon="4.19996">
        <ele>159.72</ele>
        <time>2020-05-21T11:44:52Z</time>
      </trkpt>
      <trkpt lat="44.26257" lon="4.19992">
        <ele>158.27</ele>
        <time>2020-05-21T11:45:15Z</time>
      </trkpt>
      <trkpt lat="44.2625" lon="4.1999">
        <ele>157.79</ele>
        <time>2020-05-21T11:45:47Z</time>
      </trkpt>
      <trkpt lat="44.26256" lon="4.19993">
        <ele>159.24</ele>
        <time>2020-05-21T11:46:04Z</time>
      </trkpt>
      <trkpt lat="44.26256" lon="4.19994">
        <ele>157.79</ele>
        <time>2020-05-21T11:46:06Z</time>
      </trkpt>
      <trkpt lat="44.26264" lon="4.19997">
        <ele>157.79</ele>
        <time>2020-05-21T11:46:16Z</time>
      </trkpt>
      <trkpt lat="44.2627" lon="4.2">
        <ele>159.24</ele>
        <time>2020-05-21T11:46:20Z</time>
      </trkpt>
      <trkpt lat="44.26289" lon="4.20007">
        <ele>157.79</ele>
        <time>2020-05-21T11:46:38Z</time>
      </trkpt>
      <trkpt lat="44.26307" lon="4.20011">
        <ele>157.31</ele>
        <time>2020-05-21T11:46:54Z</time>
      </trkpt>
      <trkpt lat="44.26322" lon="4.20017">
        <ele>156.35</ele>
        <time>2020-05-21T11:47:14Z</time>
      </trkpt>
      <trkpt lat="44.26349" lon="4.20027">
        <ele>155.87</ele>
        <time>2020-05-21T11:47:38Z</time>
      </trkpt>
      <trkpt lat="44.26363" lon="4.20031">
        <ele>155.87</ele>
        <time>2020-05-21T11:47:58Z</time>
      </trkpt>
      <trkpt lat="44.26374" lon="4.20033">
        <ele>154.43</ele>
        <time>2020-05-21T11:48:15Z</time>
      </trkpt>
      <trkpt lat="44.26406" lon="4.2006">
        <ele>154.91</ele>
        <time>2020-05-21T11:48:28Z</time>
      </trkpt>
      <trkpt lat="44.26419" lon="4.20052">
        <ele>153.95</ele>
        <time>2020-05-21T11:48:47Z</time>
      </trkpt>
      <trkpt lat="44.26419" lon="4.2005">
        <ele>150.58</ele>
        <time>2020-05-21T11:48:57Z</time>
      </trkpt>
      <trkpt lat="44.26419" lon="4.20051">
        <ele>157.31</ele>
        <time>2020-05-21T11:48:58Z</time>
      </trkpt>
      <trkpt lat="44.26422" lon="4.20053">
        <ele>153.95</ele>
        <time>2020-05-21T11:49:02Z</time>
      </trkpt>
      <trkpt lat="44.26436" lon="4.20058">
        <ele>155.39</ele>
        <time>2020-05-21T11:49:11Z</time>
      </trkpt>
      <trkpt lat="44.26441" lon="4.20057">
        <ele>153.95</ele>
        <time>2020-05-21T11:49:15Z</time>
      </trkpt>
      <trkpt lat="44.26445" lon="4.20057">
        <ele>155.39</ele>
        <time>2020-05-21T11:49:19Z</time>
      </trkpt>
      <trkpt lat="44.26468" lon="4.2006">
        <ele>154.43</ele>
        <time>2020-05-21T11:49:34Z</time>
      </trkpt>
      <trkpt lat="44.2648" lon="4.2007">
        <ele>154.91</ele>
        <time>2020-05-21T11:49:46Z</time>
      </trkpt>
      <trkpt lat="44.265" lon="4.20092">
        <ele>153.95</ele>
        <time>2020-05-21T11:50:02Z</time>
      </trkpt>
      <trkpt lat="44.26503" lon="4.20094">
        <ele>155.39</ele>
        <time>2020-05-21T11:50:05Z</time>
      </trkpt>
      <trkpt lat="44.26505" lon="4.20101">
        <ele>155.87</ele>
        <time>2020-05-21T11:50:10Z</time>
      </trkpt>
      <trkpt lat="44.26507" lon="4.20103">
        <ele>154.43</ele>
        <time>2020-05-21T11:50:13Z</time>
      </trkpt>
      <trkpt lat="44.26508" lon="4.20103">
        <ele>156.35</ele>
        <time>2020-05-21T11:50:15Z</time>
      </trkpt>
      <trkpt lat="44.2651" lon="4.20106">
        <ele>154.91</ele>
        <time>2020-05-21T11:50:20Z</time>
      </trkpt>
      <trkpt lat="44.26512" lon="4.20107">
        <ele>156.35</ele>
        <time>2020-05-21T11:50:22Z</time>
      </trkpt>
      <trkpt lat="44.26513" lon="4.20109">
        <ele>154.91</ele>
        <time>2020-05-21T11:50:24Z</time>
      </trkpt>
      <trkpt lat="44.26514" lon="4.20111">
        <ele>156.83</ele>
        <time>2020-05-21T11:50:27Z</time>
      </trkpt>
      <trkpt lat="44.26515" lon="4.20112">
        <ele>155.39</ele>
        <time>2020-05-21T11:50:29Z</time>
      </trkpt>
      <trkpt lat="44.26523" lon="4.20118">
        <ele>157.31</ele>
        <time>2020-05-21T11:50:37Z</time>
      </trkpt>
      <trkpt lat="44.2653" lon="4.20124">
        <ele>156.83</ele>
        <time>2020-05-21T11:50:43Z</time>
      </trkpt>
      <trkpt lat="44.26533" lon="4.20128">
        <ele>155.39</ele>
        <time>2020-05-21T11:50:46Z</time>
      </trkpt>
      <trkpt lat="44.26537" lon="4.20131">
        <ele>155.39</ele>
        <time>2020-05-21T11:50:50Z</time>
      </trkpt>
      <trkpt lat="44.2654" lon="4.20134">
        <ele>157.31</ele>
        <time>2020-05-21T11:50:53Z</time>
      </trkpt>
      <trkpt lat="44.26545" lon="4.20139">
        <ele>157.79</ele>
        <time>2020-05-21T11:50:59Z</time>
      </trkpt>
      <trkpt lat="44.26548" lon="4.20142">
        <ele>156.35</ele>
        <time>2020-05-21T11:51:02Z</time>
      </trkpt>
      <trkpt lat="44.26561" lon="4.20155">
        <ele>158.75</ele>
        <time>2020-05-21T11:51:16Z</time>
      </trkpt>
      <trkpt lat="44.26565" lon="4.20159">
        <ele>157.79</ele>
        <time>2020-05-21T11:51:22Z</time>
      </trkpt>
      <trkpt lat="44.2657" lon="4.20166">
        <ele>158.75</ele>
        <time>2020-05-21T11:51:28Z</time>
      </trkpt>
      <trkpt lat="44.26593" lon="4.20184">
        <ele>160.68</ele>
        <time>2020-05-21T11:51:51Z</time>
      </trkpt>
      <trkpt lat="44.26595" lon="4.20185">
        <ele>159.24</ele>
        <time>2020-05-21T11:51:53Z</time>
      </trkpt>
      <trkpt lat="44.26602" lon="4.20191">
        <ele>159.72</ele>
        <time>2020-05-21T11:52:14Z</time>
      </trkpt>
      <trkpt lat="44.26604" lon="4.20192">
        <ele>159.72</ele>
        <time>2020-05-21T11:52:15Z</time>
      </trkpt>
      <trkpt lat="44.26619" lon="4.20203">
        <ele>162.6</ele>
        <time>2020-05-21T11:52:27Z</time>
      </trkpt>
      <trkpt lat="44.2662" lon="4.20203">
        <ele>162.6</ele>
        <time>2020-05-21T11:52:28Z</time>
      </trkpt>
      <trkpt lat="44.26622" lon="4.20205">
        <ele>161.16</ele>
        <time>2020-05-21T11:52:30Z</time>
      </trkpt>
      <trkpt lat="44.26626" lon="4.20209">
        <ele>163.08</ele>
        <time>2020-05-21T11:52:34Z</time>
      </trkpt>
      <trkpt lat="44.26628" lon="4.20212">
        <ele>161.16</ele>
        <time>2020-05-21T11:52:36Z</time>
      </trkpt>
      <trkpt lat="44.26636" lon="4.20218">
        <ele>163.56</ele>
        <time>2020-05-21T11:52:45Z</time>
      </trkpt>
      <trkpt lat="44.2664" lon="4.20222">
        <ele>164.04</ele>
        <time>2020-05-21T11:52:50Z</time>
      </trkpt>
      <trkpt lat="44.26641" lon="4.20224">
        <ele>162.12</ele>
        <time>2020-05-21T11:52:52Z</time>
      </trkpt>
      <trkpt lat="44.26643" lon="4.20224">
        <ele>163.08</ele>
        <time>2020-05-21T11:52:55Z</time>
      </trkpt>
      <trkpt lat="44.26644" lon="4.20224">
        <ele>162.6</ele>
        <time>2020-05-21T11:52:57Z</time>
      </trkpt>
      <trkpt lat="44.2665" lon="4.20225">
        <ele>165.48</ele>
        <time>2020-05-21T11:53:03Z</time>
      </trkpt>
      <trkpt lat="44.26657" lon="4.20228">
        <ele>165.48</ele>
        <time>2020-05-21T11:53:09Z</time>
      </trkpt>
      <trkpt lat="44.26659" lon="4.20231">
        <ele>163.08</ele>
        <time>2020-05-21T11:53:12Z</time>
      </trkpt>
      <trkpt lat="44.2666" lon="4.20232">
        <ele>167.41</ele>
        <time>2020-05-21T11:53:13Z</time>
      </trkpt>
      <trkpt lat="44.26661" lon="4.20233">
        <ele>165</ele>
        <time>2020-05-21T11:53:14Z</time>
      </trkpt>
      <trkpt lat="44.26662" lon="4.20235">
        <ele>164.52</ele>
        <time>2020-05-21T11:53:16Z</time>
      </trkpt>
      <trkpt lat="44.26663" lon="4.20237">
        <ele>165.96</ele>
        <time>2020-05-21T11:53:18Z</time>
      </trkpt>
      <trkpt lat="44.26665" lon="4.20237">
        <ele>164.52</ele>
        <time>2020-05-21T11:53:21Z</time>
      </trkpt>
      <trkpt lat="44.26666" lon="4.20238">
        <ele>167.89</ele>
        <time>2020-05-21T11:53:22Z</time>
      </trkpt>
      <trkpt lat="44.26669" lon="4.2024">
        <ele>164.52</ele>
        <time>2020-05-21T11:53:25Z</time>
      </trkpt>
      <trkpt lat="44.2667" lon="4.2024">
        <ele>167.89</ele>
        <time>2020-05-21T11:53:26Z</time>
      </trkpt>
      <trkpt lat="44.26673" lon="4.20242">
        <ele>164.52</ele>
        <time>2020-05-21T11:53:29Z</time>
      </trkpt>
      <trkpt lat="44.26674" lon="4.20244">
        <ele>167.41</ele>
        <time>2020-05-21T11:53:31Z</time>
      </trkpt>
      <trkpt lat="44.26675" lon="4.20246">
        <ele>165.48</ele>
        <time>2020-05-21T11:53:33Z</time>
      </trkpt>
      <trkpt lat="44.26679" lon="4.20253">
        <ele>165.48</ele>
        <time>2020-05-21T11:53:38Z</time>
      </trkpt>
      <trkpt lat="44.2668" lon="4.20253">
        <ele>169.81</ele>
        <time>2020-05-21T11:53:39Z</time>
      </trkpt>
      <trkpt lat="44.2668" lon="4.20254">
        <ele>166.45</ele>
        <time>2020-05-21T11:53:40Z</time>
      </trkpt>
      <trkpt lat="44.26687" lon="4.20259">
        <ele>171.25</ele>
        <time>2020-05-21T11:53:47Z</time>
      </trkpt>
      <trkpt lat="44.26687" lon="4.2026">
        <ele>166.45</ele>
        <time>2020-05-21T11:53:48Z</time>
      </trkpt>
      <trkpt lat="44.26688" lon="4.20263">
        <ele>171.25</ele>
        <time>2020-05-21T11:53:50Z</time>
      </trkpt>
      <trkpt lat="44.26688" lon="4.20264">
        <ele>168.37</ele>
        <time>2020-05-21T11:53:51Z</time>
      </trkpt>
      <trkpt lat="44.26692" lon="4.20267">
        <ele>172.21</ele>
        <time>2020-05-21T11:53:57Z</time>
      </trkpt>
      <trkpt lat="44.26693" lon="4.20267">
        <ele>168.85</ele>
        <time>2020-05-21T11:53:59Z</time>
      </trkpt>
      <trkpt lat="44.26694" lon="4.20268">
        <ele>173.17</ele>
        <time>2020-05-21T11:54:01Z</time>
      </trkpt>
      <trkpt lat="44.26694" lon="4.20268">
        <ele>169.33</ele>
        <time>2020-05-21T11:54:02Z</time>
      </trkpt>
      <trkpt lat="44.26696" lon="4.20267">
        <ele>172.69</ele>
        <time>2020-05-21T11:54:05Z</time>
      </trkpt>
      <trkpt lat="44.26697" lon="4.20267">
        <ele>169.81</ele>
        <time>2020-05-21T11:54:07Z</time>
      </trkpt>
      <trkpt lat="44.26701" lon="4.20263">
        <ele>173.17</ele>
        <time>2020-05-21T11:54:12Z</time>
      </trkpt>
      <trkpt lat="44.26701" lon="4.20262">
        <ele>173.17</ele>
        <time>2020-05-21T11:54:13Z</time>
      </trkpt>
      <trkpt lat="44.26702" lon="4.20259">
        <ele>171.25</ele>
        <time>2020-05-21T11:54:15Z</time>
      </trkpt>
      <trkpt lat="44.26703" lon="4.20257">
        <ele>173.66</ele>
        <time>2020-05-21T11:54:17Z</time>
      </trkpt>
      <trkpt lat="44.26706" lon="4.20255">
        <ele>172.21</ele>
        <time>2020-05-21T11:54:19Z</time>
      </trkpt>
      <trkpt lat="44.26709" lon="4.20254">
        <ele>175.1</ele>
        <time>2020-05-21T11:54:21Z</time>
      </trkpt>
      <trkpt lat="44.26715" lon="4.20252">
        <ele>171.73</ele>
        <time>2020-05-21T11:54:24Z</time>
      </trkpt>
      <trkpt lat="44.26716" lon="4.20251">
        <ele>174.62</ele>
        <time>2020-05-21T11:54:25Z</time>
      </trkpt>
      <trkpt lat="44.26718" lon="4.20248">
        <ele>171.73</ele>
        <time>2020-05-21T11:54:28Z</time>
      </trkpt>
      <trkpt lat="44.2672" lon="4.2024">
        <ele>175.1</ele>
        <time>2020-05-21T11:54:33Z</time>
      </trkpt>
      <trkpt lat="44.26725" lon="4.20235">
        <ele>174.14</ele>
        <time>2020-05-21T11:54:38Z</time>
      </trkpt>
      <trkpt lat="44.26731" lon="4.20231">
        <ele>170.29</ele>
        <time>2020-05-21T11:54:46Z</time>
      </trkpt>
      <trkpt lat="44.26732" lon="4.20231">
        <ele>177.98</ele>
        <time>2020-05-21T11:54:47Z</time>
      </trkpt>
      <trkpt lat="44.26732" lon="4.20231">
        <ele>174.62</ele>
        <time>2020-05-21T11:54:48Z</time>
      </trkpt>
      <trkpt lat="44.26735" lon="4.20231">
        <ele>176.06</ele>
        <time>2020-05-21T11:54:54Z</time>
      </trkpt>
      <trkpt lat="44.26735" lon="4.2023">
        <ele>172.69</ele>
        <time>2020-05-21T11:54:55Z</time>
      </trkpt>
      <trkpt lat="44.26736" lon="4.20229">
        <ele>177.5</ele>
        <time>2020-05-21T11:54:56Z</time>
      </trkpt>
      <trkpt lat="44.26736" lon="4.20229">
        <ele>174.14</ele>
        <time>2020-05-21T11:54:57Z</time>
      </trkpt>
      <trkpt lat="44.2674" lon="4.20227">
        <ele>175.58</ele>
        <time>2020-05-21T11:55:00Z</time>
      </trkpt>
      <trkpt lat="44.26741" lon="4.20225">
        <ele>172.69</ele>
        <time>2020-05-21T11:55:01Z</time>
      </trkpt>
      <trkpt lat="44.26742" lon="4.20224">
        <ele>176.54</ele>
        <time>2020-05-21T11:55:02Z</time>
      </trkpt>
      <trkpt lat="44.26745" lon="4.20221">
        <ele>174.62</ele>
        <time>2020-05-21T11:55:05Z</time>
      </trkpt>
      <trkpt lat="44.2675" lon="4.20219">
        <ele>177.5</ele>
        <time>2020-05-21T11:55:19Z</time>
      </trkpt>
      <trkpt lat="44.26759" lon="4.20213">
        <ele>174.62</ele>
        <time>2020-05-21T11:55:31Z</time>
      </trkpt>
      <trkpt lat="44.2676" lon="4.20213">
        <ele>179.42</ele>
        <time>2020-05-21T11:55:32Z</time>
      </trkpt>
      <trkpt lat="44.2676" lon="4.20213">
        <ele>175.58</ele>
        <time>2020-05-21T11:55:34Z</time>
      </trkpt>
      <trkpt lat="44.26761" lon="4.20214">
        <ele>180.38</ele>
        <time>2020-05-21T11:55:35Z</time>
      </trkpt>
      <trkpt lat="44.26761" lon="4.20213">
        <ele>177.02</ele>
        <time>2020-05-21T11:55:36Z</time>
      </trkpt>
      <trkpt lat="44.26762" lon="4.20214">
        <ele>172.69</ele>
        <time>2020-05-21T11:55:39Z</time>
      </trkpt>
      <trkpt lat="44.26763" lon="4.20214">
        <ele>183.75</ele>
        <time>2020-05-21T11:55:40Z</time>
      </trkpt>
      <trkpt lat="44.26763" lon="4.20213">
        <ele>177.98</ele>
        <time>2020-05-21T11:55:41Z</time>
      </trkpt>
      <trkpt lat="44.26764" lon="4.20212">
        <ele>182.79</ele>
        <time>2020-05-21T11:55:45Z</time>
      </trkpt>
      <trkpt lat="44.26764" lon="4.20212">
        <ele>177.98</ele>
        <time>2020-05-21T11:55:46Z</time>
      </trkpt>
      <trkpt lat="44.26768" lon="4.20211">
        <ele>181.83</ele>
        <time>2020-05-21T11:55:50Z</time>
      </trkpt>
      <trkpt lat="44.26768" lon="4.20212">
        <ele>177.98</ele>
        <time>2020-05-21T11:55:51Z</time>
      </trkpt>
      <trkpt lat="44.2677" lon="4.20213">
        <ele>181.83</ele>
        <time>2020-05-21T11:55:52Z</time>
      </trkpt>
      <trkpt lat="44.26773" lon="4.20217">
        <ele>179.9</ele>
        <time>2020-05-21T11:55:55Z</time>
      </trkpt>
      <trkpt lat="44.26775" lon="4.20225">
        <ele>182.79</ele>
        <time>2020-05-21T11:56:05Z</time>
      </trkpt>
      <trkpt lat="44.26775" lon="4.20225">
        <ele>181.35</ele>
        <time>2020-05-21T11:56:06Z</time>
      </trkpt>
      <trkpt lat="44.26779" lon="4.2023">
        <ele>186.15</ele>
        <time>2020-05-21T11:56:18Z</time>
      </trkpt>
      <trkpt lat="44.26778" lon="4.20231">
        <ele>180.87</ele>
        <time>2020-05-21T11:56:19Z</time>
      </trkpt>
      <trkpt lat="44.26778" lon="4.20232">
        <ele>185.67</ele>
        <time>2020-05-21T11:56:20Z</time>
      </trkpt>
      <trkpt lat="44.26778" lon="4.20233">
        <ele>181.35</ele>
        <time>2020-05-21T11:56:21Z</time>
      </trkpt>
      <trkpt lat="44.26777" lon="4.20235">
        <ele>184.23</ele>
        <time>2020-05-21T11:56:23Z</time>
      </trkpt>
      <trkpt lat="44.26774" lon="4.20247">
        <ele>187.59</ele>
        <time>2020-05-21T11:56:38Z</time>
      </trkpt>
      <trkpt lat="44.26775" lon="4.20253">
        <ele>184.23</ele>
        <time>2020-05-21T11:56:44Z</time>
      </trkpt>
      <trkpt lat="44.26774" lon="4.20255">
        <ele>189.04</ele>
        <time>2020-05-21T11:56:47Z</time>
      </trkpt>
      <trkpt lat="44.26774" lon="4.20256">
        <ele>183.27</ele>
        <time>2020-05-21T11:56:48Z</time>
      </trkpt>
      <trkpt lat="44.26773" lon="4.20257">
        <ele>189.52</ele>
        <time>2020-05-21T11:56:49Z</time>
      </trkpt>
      <trkpt lat="44.26773" lon="4.20258">
        <ele>184.23</ele>
        <time>2020-05-21T11:56:50Z</time>
      </trkpt>
      <trkpt lat="44.26772" lon="4.2026">
        <ele>189.04</ele>
        <time>2020-05-21T11:56:52Z</time>
      </trkpt>
      <trkpt lat="44.26772" lon="4.20261">
        <ele>185.67</ele>
        <time>2020-05-21T11:56:53Z</time>
      </trkpt>
      <trkpt lat="44.2677" lon="4.20262">
        <ele>189.04</ele>
        <time>2020-05-21T11:56:56Z</time>
      </trkpt>
      <trkpt lat="44.2677" lon="4.20265">
        <ele>185.67</ele>
        <time>2020-05-21T11:57:00Z</time>
      </trkpt>
      <trkpt lat="44.2677" lon="4.20266">
        <ele>190.48</ele>
        <time>2020-05-21T11:57:01Z</time>
      </trkpt>
      <trkpt lat="44.2677" lon="4.20267">
        <ele>186.63</ele>
        <time>2020-05-21T11:57:02Z</time>
      </trkpt>
      <trkpt lat="44.2677" lon="4.2027">
        <ele>190.48</ele>
        <time>2020-05-21T11:57:04Z</time>
      </trkpt>
      <trkpt lat="44.2677" lon="4.20271">
        <ele>186.15</ele>
        <time>2020-05-21T11:57:05Z</time>
      </trkpt>
      <trkpt lat="44.26769" lon="4.20273">
        <ele>189.52</ele>
        <time>2020-05-21T11:57:07Z</time>
      </trkpt>
      <trkpt lat="44.26774" lon="4.20287">
        <ele>192.4</ele>
        <time>2020-05-21T11:57:21Z</time>
      </trkpt>
      <trkpt lat="44.26774" lon="4.20288">
        <ele>189.04</ele>
        <time>2020-05-21T11:57:22Z</time>
      </trkpt>
      <trkpt lat="44.26774" lon="4.20288">
        <ele>192.4</ele>
        <time>2020-05-21T11:57:23Z</time>
      </trkpt>
      <trkpt lat="44.26774" lon="4.20289">
        <ele>189.04</ele>
        <time>2020-05-21T11:57:24Z</time>
      </trkpt>
      <trkpt lat="44.26775" lon="4.20291">
        <ele>192.88</ele>
        <time>2020-05-21T11:57:26Z</time>
      </trkpt>
      <trkpt lat="44.26775" lon="4.20291">
        <ele>189.52</ele>
        <time>2020-05-21T11:57:27Z</time>
      </trkpt>
      <trkpt lat="44.26775" lon="4.20295">
        <ele>193.36</ele>
        <time>2020-05-21T11:57:33Z</time>
      </trkpt>
      <trkpt lat="44.26776" lon="4.20297">
        <ele>190.48</ele>
        <time>2020-05-21T11:57:34Z</time>
      </trkpt>
      <trkpt lat="44.26775" lon="4.20299">
        <ele>194.32</ele>
        <time>2020-05-21T11:57:36Z</time>
      </trkpt>
      <trkpt lat="44.26775" lon="4.20302">
        <ele>190.96</ele>
        <time>2020-05-21T11:57:38Z</time>
      </trkpt>
      <trkpt lat="44.26775" lon="4.20303">
        <ele>194.8</ele>
        <time>2020-05-21T11:57:39Z</time>
      </trkpt>
      <trkpt lat="44.26776" lon="4.20307">
        <ele>190.96</ele>
        <time>2020-05-21T11:57:43Z</time>
      </trkpt>
      <trkpt lat="44.26777" lon="4.20308">
        <ele>195.28</ele>
        <time>2020-05-21T11:57:44Z</time>
      </trkpt>
      <trkpt lat="44.26777" lon="4.2031">
        <ele>190.48</ele>
        <time>2020-05-21T11:57:46Z</time>
      </trkpt>
      <trkpt lat="44.26777" lon="4.20311">
        <ele>196.73</ele>
        <time>2020-05-21T11:57:47Z</time>
      </trkpt>
      <trkpt lat="44.26777" lon="4.20312">
        <ele>193.36</ele>
        <time>2020-05-21T11:57:48Z</time>
      </trkpt>
      <trkpt lat="44.26777" lon="4.20314">
        <ele>197.21</ele>
        <time>2020-05-21T11:57:50Z</time>
      </trkpt>
      <trkpt lat="44.26777" lon="4.20315">
        <ele>192.88</ele>
        <time>2020-05-21T11:57:51Z</time>
      </trkpt>
      <trkpt lat="44.26778" lon="4.20319">
        <ele>197.21</ele>
        <time>2020-05-21T11:57:55Z</time>
      </trkpt>
      <trkpt lat="44.26779" lon="4.20321">
        <ele>194.32</ele>
        <time>2020-05-21T11:58:01Z</time>
      </trkpt>
      <trkpt lat="44.26779" lon="4.20322">
        <ele>190.96</ele>
        <time>2020-05-21T11:58:02Z</time>
      </trkpt>
      <trkpt lat="44.2678" lon="4.20323">
        <ele>197.69</ele>
        <time>2020-05-21T11:58:03Z</time>
      </trkpt>
      <trkpt lat="44.2678" lon="4.20324">
        <ele>196.25</ele>
        <time>2020-05-21T11:58:04Z</time>
      </trkpt>
      <trkpt lat="44.26781" lon="4.20332">
        <ele>190.96</ele>
        <time>2020-05-21T11:58:12Z</time>
      </trkpt>
      <trkpt lat="44.26781" lon="4.20333">
        <ele>198.17</ele>
        <time>2020-05-21T11:58:13Z</time>
      </trkpt>
      <trkpt lat="44.26781" lon="4.20335">
        <ele>194.8</ele>
        <time>2020-05-21T11:58:14Z</time>
      </trkpt>
      <trkpt lat="44.26783" lon="4.20341">
        <ele>199.13</ele>
        <time>2020-05-21T11:58:21Z</time>
      </trkpt>
      <trkpt lat="44.26783" lon="4.20342">
        <ele>195.28</ele>
        <time>2020-05-21T11:58:23Z</time>
      </trkpt>
      <trkpt lat="44.26783" lon="4.20343">
        <ele>200.09</ele>
        <time>2020-05-21T11:58:24Z</time>
      </trkpt>
      <trkpt lat="44.26783" lon="4.20345">
        <ele>195.77</ele>
        <time>2020-05-21T11:58:26Z</time>
      </trkpt>
      <trkpt lat="44.26783" lon="4.20346">
        <ele>198.65</ele>
        <time>2020-05-21T11:58:27Z</time>
      </trkpt>
      <trkpt lat="44.26786" lon="4.2036">
        <ele>194.8</ele>
        <time>2020-05-21T11:58:40Z</time>
      </trkpt>
      <trkpt lat="44.26785" lon="4.20361">
        <ele>202.01</ele>
        <time>2020-05-21T11:58:41Z</time>
      </trkpt>
      <trkpt lat="44.26785" lon="4.20363">
        <ele>198.65</ele>
        <time>2020-05-21T11:58:43Z</time>
      </trkpt>
      <trkpt lat="44.26786" lon="4.20371">
        <ele>202.98</ele>
        <time>2020-05-21T11:58:52Z</time>
      </trkpt>
      <trkpt lat="44.26786" lon="4.20372">
        <ele>198.17</ele>
        <time>2020-05-21T11:58:53Z</time>
      </trkpt>
      <trkpt lat="44.26786" lon="4.20373">
        <ele>201.05</ele>
        <time>2020-05-21T11:58:54Z</time>
      </trkpt>
      <trkpt lat="44.26787" lon="4.20375">
        <ele>198.17</ele>
        <time>2020-05-21T11:58:57Z</time>
      </trkpt>
      <trkpt lat="44.26787" lon="4.20376">
        <ele>202.01</ele>
        <time>2020-05-21T11:58:58Z</time>
      </trkpt>
      <trkpt lat="44.26787" lon="4.20377">
        <ele>200.57</ele>
        <time>2020-05-21T11:58:59Z</time>
      </trkpt>
      <trkpt lat="44.26788" lon="4.20382">
        <ele>199.61</ele>
        <time>2020-05-21T11:59:04Z</time>
      </trkpt>
      <trkpt lat="44.26789" lon="4.20388">
        <ele>200.57</ele>
        <time>2020-05-21T11:59:10Z</time>
      </trkpt>
      <trkpt lat="44.2679" lon="4.20389">
        <ele>202.01</ele>
        <time>2020-05-21T11:59:12Z</time>
      </trkpt>
      <trkpt lat="44.26793" lon="4.20403">
        <ele>202.01</ele>
        <time>2020-05-21T11:59:25Z</time>
      </trkpt>
      <trkpt lat="44.26794" lon="4.20407">
        <ele>206.82</ele>
        <time>2020-05-21T11:59:29Z</time>
      </trkpt>
      <trkpt lat="44.26794" lon="4.20407">
        <ele>202.01</ele>
        <time>2020-05-21T11:59:30Z</time>
      </trkpt>
      <trkpt lat="44.26795" lon="4.20408">
        <ele>204.9</ele>
        <time>2020-05-21T11:59:32Z</time>
      </trkpt>
      <trkpt lat="44.26795" lon="4.20409">
        <ele>201.53</ele>
        <time>2020-05-21T11:59:33Z</time>
      </trkpt>
      <trkpt lat="44.26795" lon="4.20411">
        <ele>204.9</ele>
        <time>2020-05-21T11:59:35Z</time>
      </trkpt>
      <trkpt lat="44.26797" lon="4.20416">
        <ele>201.53</ele>
        <time>2020-05-21T11:59:39Z</time>
      </trkpt>
      <trkpt lat="44.26797" lon="4.20417">
        <ele>204.9</ele>
        <time>2020-05-21T11:59:40Z</time>
      </trkpt>
      <trkpt lat="44.26798" lon="4.20424">
        <ele>205.86</ele>
        <time>2020-05-21T11:59:58Z</time>
      </trkpt>
      <trkpt lat="44.26798" lon="4.20433">
        <ele>203.94</ele>
        <time>2020-05-21T12:00:21Z</time>
      </trkpt>
      <trkpt lat="44.26799" lon="4.20434">
        <ele>207.3</ele>
        <time>2020-05-21T12:00:22Z</time>
      </trkpt>
      <trkpt lat="44.268" lon="4.20435">
        <ele>207.3</ele>
        <time>2020-05-21T12:00:23Z</time>
      </trkpt>
      <trkpt lat="44.268" lon="4.20436">
        <ele>203.46</ele>
        <time>2020-05-21T12:00:24Z</time>
      </trkpt>
      <trkpt lat="44.268" lon="4.20438">
        <ele>206.34</ele>
        <time>2020-05-21T12:00:25Z</time>
      </trkpt>
      <trkpt lat="44.26801" lon="4.20441">
        <ele>206.34</ele>
        <time>2020-05-21T12:00:29Z</time>
      </trkpt>
      <trkpt lat="44.26802" lon="4.20449">
        <ele>204.9</ele>
        <time>2020-05-21T12:00:36Z</time>
      </trkpt>
      <trkpt lat="44.26803" lon="4.2045">
        <ele>210.67</ele>
        <time>2020-05-21T12:00:37Z</time>
      </trkpt>
      <trkpt lat="44.26803" lon="4.20451">
        <ele>207.78</ele>
        <time>2020-05-21T12:00:38Z</time>
      </trkpt>
      <trkpt lat="44.26806" lon="4.20457">
        <ele>210.67</ele>
        <time>2020-05-21T12:00:43Z</time>
      </trkpt>
      <trkpt lat="44.26806" lon="4.20457">
        <ele>207.78</ele>
        <time>2020-05-21T12:00:44Z</time>
      </trkpt>
      <trkpt lat="44.26806" lon="4.20459">
        <ele>211.15</ele>
        <time>2020-05-21T12:00:46Z</time>
      </trkpt>
      <trkpt lat="44.26806" lon="4.20461">
        <ele>207.3</ele>
        <time>2020-05-21T12:00:48Z</time>
      </trkpt>
      <trkpt lat="44.26808" lon="4.20468">
        <ele>209.22</ele>
        <time>2020-05-21T12:00:54Z</time>
      </trkpt>
      <trkpt lat="44.26808" lon="4.20471">
        <ele>207.78</ele>
        <time>2020-05-21T12:00:58Z</time>
      </trkpt>
      <trkpt lat="44.26808" lon="4.20472">
        <ele>211.15</ele>
        <time>2020-05-21T12:00:59Z</time>
      </trkpt>
      <trkpt lat="44.26809" lon="4.20473">
        <ele>209.7</ele>
        <time>2020-05-21T12:01:00Z</time>
      </trkpt>
      <trkpt lat="44.26809" lon="4.20474">
        <ele>206.34</ele>
        <time>2020-05-21T12:01:01Z</time>
      </trkpt>
      <trkpt lat="44.2681" lon="4.20474">
        <ele>211.63</ele>
        <time>2020-05-21T12:01:02Z</time>
      </trkpt>
      <trkpt lat="44.26811" lon="4.20476">
        <ele>204.42</ele>
        <time>2020-05-21T12:01:04Z</time>
      </trkpt>
      <trkpt lat="44.26811" lon="4.20477">
        <ele>214.03</ele>
        <time>2020-05-21T12:01:05Z</time>
      </trkpt>
      <trkpt lat="44.26812" lon="4.20477">
        <ele>210.67</ele>
        <time>2020-05-21T12:01:06Z</time>
      </trkpt>
      <trkpt lat="44.26812" lon="4.20479">
        <ele>209.22</ele>
        <time>2020-05-21T12:01:08Z</time>
      </trkpt>
      <trkpt lat="44.26814" lon="4.20485">
        <ele>213.55</ele>
        <time>2020-05-21T12:01:19Z</time>
      </trkpt>
      <trkpt lat="44.26814" lon="4.20488">
        <ele>206.34</ele>
        <time>2020-05-21T12:01:21Z</time>
      </trkpt>
      <trkpt lat="44.26814" lon="4.20489">
        <ele>215.95</ele>
        <time>2020-05-21T12:01:22Z</time>
      </trkpt>
      <trkpt lat="44.26814" lon="4.2049">
        <ele>211.63</ele>
        <time>2020-05-21T12:01:23Z</time>
      </trkpt>
      <trkpt lat="44.26814" lon="4.20495">
        <ele>212.59</ele>
        <time>2020-05-21T12:01:27Z</time>
      </trkpt>
      <trkpt lat="44.26811" lon="4.20501">
        <ele>211.15</ele>
        <time>2020-05-21T12:01:55Z</time>
      </trkpt>
      <trkpt lat="44.26811" lon="4.20502">
        <ele>211.15</ele>
        <time>2020-05-21T12:01:56Z</time>
      </trkpt>
      <trkpt lat="44.26813" lon="4.20506">
        <ele>207.3</ele>
        <time>2020-05-21T12:02:04Z</time>
      </trkpt>
      <trkpt lat="44.26813" lon="4.20506">
        <ele>216.43</ele>
        <time>2020-05-21T12:02:05Z</time>
      </trkpt>
      <trkpt lat="44.26814" lon="4.20508">
        <ele>211.63</ele>
        <time>2020-05-21T12:02:07Z</time>
      </trkpt>
      <trkpt lat="44.26814" lon="4.20508">
        <ele>211.63</ele>
        <time>2020-05-21T12:02:08Z</time>
      </trkpt>
      <trkpt lat="44.26814" lon="4.20513">
        <ele>215.95</ele>
        <time>2020-05-21T12:02:12Z</time>
      </trkpt>
      <trkpt lat="44.26814" lon="4.20514">
        <ele>213.55</ele>
        <time>2020-05-21T12:02:13Z</time>
      </trkpt>
      <trkpt lat="44.26814" lon="4.20517">
        <ele>212.11</ele>
        <time>2020-05-21T12:02:15Z</time>
      </trkpt>
      <trkpt lat="44.26815" lon="4.2052">
        <ele>213.55</ele>
        <time>2020-05-21T12:02:17Z</time>
      </trkpt>
      <trkpt lat="44.26814" lon="4.20524">
        <ele>214.03</ele>
        <time>2020-05-21T12:02:21Z</time>
      </trkpt>
      <trkpt lat="44.26815" lon="4.20546">
        <ele>216.43</ele>
        <time>2020-05-21T12:02:40Z</time>
      </trkpt>
      <trkpt lat="44.26815" lon="4.20548">
        <ele>214.99</ele>
        <time>2020-05-21T12:02:42Z</time>
      </trkpt>
      <trkpt lat="44.26819" lon="4.20557">
        <ele>217.4</ele>
        <time>2020-05-21T12:02:53Z</time>
      </trkpt>
      <trkpt lat="44.2682" lon="4.20575">
        <ele>218.36</ele>
        <time>2020-05-21T12:03:10Z</time>
      </trkpt>
      <trkpt lat="44.2682" lon="4.20578">
        <ele>216.91</ele>
        <time>2020-05-21T12:03:12Z</time>
      </trkpt>
      <trkpt lat="44.2682" lon="4.20579">
        <ele>211.63</ele>
        <time>2020-05-21T12:03:14Z</time>
      </trkpt>
      <trkpt lat="44.2682" lon="4.2058">
        <ele>219.32</ele>
        <time>2020-05-21T12:03:15Z</time>
      </trkpt>
      <trkpt lat="44.26821" lon="4.20586">
        <ele>215.95</ele>
        <time>2020-05-21T12:03:23Z</time>
      </trkpt>
      <trkpt lat="44.26821" lon="4.20588">
        <ele>219.32</ele>
        <time>2020-05-21T12:03:25Z</time>
      </trkpt>
      <trkpt lat="44.26821" lon="4.20601">
        <ele>219.8</ele>
        <time>2020-05-21T12:03:35Z</time>
      </trkpt>
      <trkpt lat="44.26822" lon="4.20605">
        <ele>219.8</ele>
        <time>2020-05-21T12:03:40Z</time>
      </trkpt>
      <trkpt lat="44.26822" lon="4.20611">
        <ele>217.88</ele>
        <time>2020-05-21T12:03:45Z</time>
      </trkpt>
      <trkpt lat="44.26822" lon="4.20613">
        <ele>221.24</ele>
        <time>2020-05-21T12:03:46Z</time>
      </trkpt>
      <trkpt lat="44.26822" lon="4.20614">
        <ele>219.8</ele>
        <time>2020-05-21T12:03:47Z</time>
      </trkpt>
      <trkpt lat="44.26822" lon="4.20615">
        <ele>216.43</ele>
        <time>2020-05-21T12:03:48Z</time>
      </trkpt>
      <trkpt lat="44.26822" lon="4.20616">
        <ele>223.16</ele>
        <time>2020-05-21T12:03:49Z</time>
      </trkpt>
      <trkpt lat="44.26822" lon="4.20617">
        <ele>218.36</ele>
        <time>2020-05-21T12:03:50Z</time>
      </trkpt>
      <trkpt lat="44.26822" lon="4.20621">
        <ele>222.68</ele>
        <time>2020-05-21T12:03:52Z</time>
      </trkpt>
      <trkpt lat="44.26822" lon="4.20622">
        <ele>219.8</ele>
        <time>2020-05-21T12:03:53Z</time>
      </trkpt>
      <trkpt lat="44.2682" lon="4.20627">
        <ele>223.16</ele>
        <time>2020-05-21T12:03:59Z</time>
      </trkpt>
      <trkpt lat="44.2682" lon="4.20628">
        <ele>219.32</ele>
        <time>2020-05-21T12:04:00Z</time>
      </trkpt>
      <trkpt lat="44.26819" lon="4.20631">
        <ele>223.16</ele>
        <time>2020-05-21T12:04:04Z</time>
      </trkpt>
      <trkpt lat="44.26818" lon="4.20632">
        <ele>223.16</ele>
        <time>2020-05-21T12:04:05Z</time>
      </trkpt>
      <trkpt lat="44.2682" lon="4.20637">
        <ele>220.76</ele>
        <time>2020-05-21T12:04:10Z</time>
      </trkpt>
      <trkpt lat="44.26821" lon="4.20642">
        <ele>225.57</ele>
        <time>2020-05-21T12:04:14Z</time>
      </trkpt>
      <trkpt lat="44.2682" lon="4.20644">
        <ele>223.16</ele>
        <time>2020-05-21T12:04:15Z</time>
      </trkpt>
      <trkpt lat="44.26818" lon="4.20655">
        <ele>226.53</ele>
        <time>2020-05-21T12:04:30Z</time>
      </trkpt>
      <trkpt lat="44.26817" lon="4.20656">
        <ele>223.16</ele>
        <time>2020-05-21T12:04:31Z</time>
      </trkpt>
      <trkpt lat="44.26815" lon="4.20664">
        <ele>219.32</ele>
        <time>2020-05-21T12:04:38Z</time>
      </trkpt>
      <trkpt lat="44.26814" lon="4.20665">
        <ele>227.01</ele>
        <time>2020-05-21T12:04:39Z</time>
      </trkpt>
      <trkpt lat="44.26815" lon="4.20666">
        <ele>227.01</ele>
        <time>2020-05-21T12:04:40Z</time>
      </trkpt>
      <trkpt lat="44.26815" lon="4.20667">
        <ele>223.64</ele>
        <time>2020-05-21T12:04:42Z</time>
      </trkpt>
      <trkpt lat="44.26814" lon="4.20669">
        <ele>227.01</ele>
        <time>2020-05-21T12:04:46Z</time>
      </trkpt>
      <trkpt lat="44.2681" lon="4.20691">
        <ele>227.97</ele>
        <time>2020-05-21T12:05:06Z</time>
      </trkpt>
      <trkpt lat="44.2681" lon="4.20693">
        <ele>226.53</ele>
        <time>2020-05-21T12:05:08Z</time>
      </trkpt>
      <trkpt lat="44.2681" lon="4.20693">
        <ele>230.37</ele>
        <time>2020-05-21T12:05:09Z</time>
      </trkpt>
      <trkpt lat="44.2681" lon="4.20694">
        <ele>223.64</ele>
        <time>2020-05-21T12:05:10Z</time>
      </trkpt>
      <trkpt lat="44.2681" lon="4.20695">
        <ele>231.33</ele>
        <time>2020-05-21T12:05:11Z</time>
      </trkpt>
      <trkpt lat="44.26809" lon="4.20699">
        <ele>227.97</ele>
        <time>2020-05-21T12:05:13Z</time>
      </trkpt>
      <trkpt lat="44.26808" lon="4.207">
        <ele>227.97</ele>
        <time>2020-05-21T12:05:14Z</time>
      </trkpt>
      <trkpt lat="44.26807" lon="4.20705">
        <ele>230.37</ele>
        <time>2020-05-21T12:05:18Z</time>
      </trkpt>
      <trkpt lat="44.26807" lon="4.20707">
        <ele>227.49</ele>
        <time>2020-05-21T12:05:20Z</time>
      </trkpt>
      <trkpt lat="44.26807" lon="4.2071">
        <ele>228.93</ele>
        <time>2020-05-21T12:05:22Z</time>
      </trkpt>
      <trkpt lat="44.26808" lon="4.20714">
        <ele>231.81</ele>
        <time>2020-05-21T12:05:27Z</time>
      </trkpt>
      <trkpt lat="44.26808" lon="4.20715">
        <ele>228.93</ele>
        <time>2020-05-21T12:05:29Z</time>
      </trkpt>
      <trkpt lat="44.26809" lon="4.2072">
        <ele>231.81</ele>
        <time>2020-05-21T12:05:37Z</time>
      </trkpt>
      <trkpt lat="44.26809" lon="4.20724">
        <ele>228.45</ele>
        <time>2020-05-21T12:05:42Z</time>
      </trkpt>
      <trkpt lat="44.26809" lon="4.20725">
        <ele>232.78</ele>
        <time>2020-05-21T12:05:43Z</time>
      </trkpt>
      <trkpt lat="44.26809" lon="4.20726">
        <ele>228.45</ele>
        <time>2020-05-21T12:05:44Z</time>
      </trkpt>
      <trkpt lat="44.26809" lon="4.2073">
        <ele>230.37</ele>
        <time>2020-05-21T12:05:47Z</time>
      </trkpt>
      <trkpt lat="44.26808" lon="4.20735">
        <ele>233.74</ele>
        <time>2020-05-21T12:05:51Z</time>
      </trkpt>
      <trkpt lat="44.26809" lon="4.20743">
        <ele>232.78</ele>
        <time>2020-05-21T12:05:58Z</time>
      </trkpt>
      <trkpt lat="44.26809" lon="4.20744">
        <ele>229.41</ele>
        <time>2020-05-21T12:05:59Z</time>
      </trkpt>
      <trkpt lat="44.26808" lon="4.20745">
        <ele>234.7</ele>
        <time>2020-05-21T12:06:00Z</time>
      </trkpt>
      <trkpt lat="44.26808" lon="4.20746">
        <ele>231.33</ele>
        <time>2020-05-21T12:06:01Z</time>
      </trkpt>
      <trkpt lat="44.26808" lon="4.20748">
        <ele>234.7</ele>
        <time>2020-05-21T12:06:03Z</time>
      </trkpt>
      <trkpt lat="44.26808" lon="4.20748">
        <ele>229.89</ele>
        <time>2020-05-21T12:06:04Z</time>
      </trkpt>
      <trkpt lat="44.26808" lon="4.20748">
        <ele>235.18</ele>
        <time>2020-05-21T12:06:05Z</time>
      </trkpt>
      <trkpt lat="44.26808" lon="4.20749">
        <ele>230.85</ele>
        <time>2020-05-21T12:06:06Z</time>
      </trkpt>
      <trkpt lat="44.26808" lon="4.20749">
        <ele>233.74</ele>
        <time>2020-05-21T12:06:08Z</time>
      </trkpt>
      <trkpt lat="44.26804" lon="4.2077">
        <ele>237.1</ele>
        <time>2020-05-21T12:06:27Z</time>
      </trkpt>
      <trkpt lat="44.26804" lon="4.20774">
        <ele>233.74</ele>
        <time>2020-05-21T12:06:32Z</time>
      </trkpt>
      <trkpt lat="44.26804" lon="4.20776">
        <ele>238.06</ele>
        <time>2020-05-21T12:06:34Z</time>
      </trkpt>
      <trkpt lat="44.26803" lon="4.20776">
        <ele>234.22</ele>
        <time>2020-05-21T12:06:35Z</time>
      </trkpt>
      <trkpt lat="44.26803" lon="4.20778">
        <ele>237.58</ele>
        <time>2020-05-21T12:06:37Z</time>
      </trkpt>
      <trkpt lat="44.26804" lon="4.20778">
        <ele>235.66</ele>
        <time>2020-05-21T12:06:38Z</time>
      </trkpt>
      <trkpt lat="44.268" lon="4.20799">
        <ele>235.18</ele>
        <time>2020-05-21T12:06:59Z</time>
      </trkpt>
      <trkpt lat="44.26801" lon="4.20803">
        <ele>236.14</ele>
        <time>2020-05-21T12:07:03Z</time>
      </trkpt>
      <trkpt lat="44.26809" lon="4.20801">
        <ele>237.58</ele>
        <time>2020-05-21T12:07:26Z</time>
      </trkpt>
      <trkpt lat="44.26807" lon="4.20806">
        <ele>238.06</ele>
        <time>2020-05-21T12:07:38Z</time>
      </trkpt>
      <trkpt lat="44.26807" lon="4.20809">
        <ele>236.62</ele>
        <time>2020-05-21T12:07:41Z</time>
      </trkpt>
      <trkpt lat="44.26806" lon="4.20811">
        <ele>238.06</ele>
        <time>2020-05-21T12:07:44Z</time>
      </trkpt>
      <trkpt lat="44.26809" lon="4.2082">
        <ele>239.02</ele>
        <time>2020-05-21T12:07:52Z</time>
      </trkpt>
      <trkpt lat="44.26812" lon="4.20827">
        <ele>239.51</ele>
        <time>2020-05-21T12:07:59Z</time>
      </trkpt>
      <trkpt lat="44.26812" lon="4.20829">
        <ele>238.06</ele>
        <time>2020-05-21T12:08:01Z</time>
      </trkpt>
      <trkpt lat="44.26812" lon="4.20832">
        <ele>240.95</ele>
        <time>2020-05-21T12:08:04Z</time>
      </trkpt>
      <trkpt lat="44.26813" lon="4.20841">
        <ele>243.83</ele>
        <time>2020-05-21T12:08:13Z</time>
      </trkpt>
      <trkpt lat="44.26813" lon="4.20842">
        <ele>234.7</ele>
        <time>2020-05-21T12:08:14Z</time>
      </trkpt>
      <trkpt lat="44.26814" lon="4.20843">
        <ele>246.72</ele>
        <time>2020-05-21T12:08:15Z</time>
      </trkpt>
      <trkpt lat="44.26814" lon="4.20844">
        <ele>240.95</ele>
        <time>2020-05-21T12:08:16Z</time>
      </trkpt>
      <trkpt lat="44.26813" lon="4.2085">
        <ele>245.75</ele>
        <time>2020-05-21T12:08:25Z</time>
      </trkpt>
      <trkpt lat="44.26813" lon="4.20851">
        <ele>241.43</ele>
        <time>2020-05-21T12:08:26Z</time>
      </trkpt>
      <trkpt lat="44.26815" lon="4.20856">
        <ele>246.72</ele>
        <time>2020-05-21T12:08:33Z</time>
      </trkpt>
      <trkpt lat="44.26816" lon="4.20857">
        <ele>242.39</ele>
        <time>2020-05-21T12:08:34Z</time>
      </trkpt>
      <trkpt lat="44.26814" lon="4.20859">
        <ele>245.75</ele>
        <time>2020-05-21T12:08:38Z</time>
      </trkpt>
      <trkpt lat="44.26812" lon="4.20861">
        <ele>242.87</ele>
        <time>2020-05-21T12:08:40Z</time>
      </trkpt>
      <trkpt lat="44.26813" lon="4.20865">
        <ele>246.23</ele>
        <time>2020-05-21T12:08:43Z</time>
      </trkpt>
      <trkpt lat="44.26814" lon="4.20875">
        <ele>247.2</ele>
        <time>2020-05-21T12:08:51Z</time>
      </trkpt>
      <trkpt lat="44.26816" lon="4.20883">
        <ele>250.56</ele>
        <time>2020-05-21T12:09:05Z</time>
      </trkpt>
      <trkpt lat="44.26816" lon="4.20884">
        <ele>247.68</ele>
        <time>2020-05-21T12:09:06Z</time>
      </trkpt>
      <trkpt lat="44.26817" lon="4.20887">
        <ele>251.04</ele>
        <time>2020-05-21T12:09:10Z</time>
      </trkpt>
      <trkpt lat="44.26817" lon="4.20888">
        <ele>246.72</ele>
        <time>2020-05-21T12:09:11Z</time>
      </trkpt>
      <trkpt lat="44.26817" lon="4.20889">
        <ele>250.08</ele>
        <time>2020-05-21T12:09:12Z</time>
      </trkpt>
      <trkpt lat="44.26818" lon="4.20901">
        <ele>253.93</ele>
        <time>2020-05-21T12:09:28Z</time>
      </trkpt>
      <trkpt lat="44.26817" lon="4.20909">
        <ele>249.12</ele>
        <time>2020-05-21T12:09:43Z</time>
      </trkpt>
      <trkpt lat="44.26817" lon="4.20909">
        <ele>252.48</ele>
        <time>2020-05-21T12:09:44Z</time>
      </trkpt>
      <trkpt lat="44.26819" lon="4.20918">
        <ele>253.93</ele>
        <time>2020-05-21T12:09:53Z</time>
      </trkpt>
      <trkpt lat="44.26819" lon="4.2092">
        <ele>252.48</ele>
        <time>2020-05-21T12:09:55Z</time>
      </trkpt>
      <trkpt lat="44.26821" lon="4.20935">
        <ele>255.37</ele>
        <time>2020-05-21T12:10:08Z</time>
      </trkpt>
      <trkpt lat="44.26821" lon="4.20937">
        <ele>253.44</ele>
        <time>2020-05-21T12:10:10Z</time>
      </trkpt>
      <trkpt lat="44.26822" lon="4.20938">
        <ele>254.89</ele>
        <time>2020-05-21T12:10:12Z</time>
      </trkpt>
      <trkpt lat="44.26814" lon="4.20946">
        <ele>253.93</ele>
        <time>2020-05-21T12:10:29Z</time>
      </trkpt>
      <trkpt lat="44.26813" lon="4.20941">
        <ele>253.93</ele>
        <time>2020-05-21T12:10:50Z</time>
      </trkpt>
      <trkpt lat="44.26806" lon="4.2094">
        <ele>252.96</ele>
        <time>2020-05-21T12:11:01Z</time>
      </trkpt>
      <trkpt lat="44.26802" lon="4.20938">
        <ele>252.96</ele>
        <time>2020-05-21T12:11:07Z</time>
      </trkpt>
      <trkpt lat="44.268" lon="4.20938">
        <ele>253.93</ele>
        <time>2020-05-21T12:11:09Z</time>
      </trkpt>
      <trkpt lat="44.26795" lon="4.20943">
        <ele>253.93</ele>
        <time>2020-05-21T12:11:28Z</time>
      </trkpt>
      <trkpt lat="44.26794" lon="4.20944">
        <ele>252</ele>
        <time>2020-05-21T12:11:52Z</time>
      </trkpt>
      <trkpt lat="44.26795" lon="4.20944">
        <ele>248.64</ele>
        <time>2020-05-21T12:12:21Z</time>
      </trkpt>
      <trkpt lat="44.26795" lon="4.20943">
        <ele>252</ele>
        <time>2020-05-21T12:12:22Z</time>
      </trkpt>
      <trkpt lat="44.26795" lon="4.2094">
        <ele>253.93</ele>
        <time>2020-05-21T12:12:26Z</time>
      </trkpt>
      <trkpt lat="44.26796" lon="4.20939">
        <ele>252.48</ele>
        <time>2020-05-21T12:12:28Z</time>
      </trkpt>
      <trkpt lat="44.26794" lon="4.20939">
        <ele>253.44</ele>
        <time>2020-05-21T12:12:54Z</time>
      </trkpt>
      <trkpt lat="44.26794" lon="4.20939">
        <ele>250.08</ele>
        <time>2020-05-21T12:12:55Z</time>
      </trkpt>
      <trkpt lat="44.26794" lon="4.20939">
        <ele>255.37</ele>
        <time>2020-05-21T12:12:56Z</time>
      </trkpt>
      <trkpt lat="44.26793" lon="4.20939">
        <ele>253.93</ele>
        <time>2020-05-21T12:13:22Z</time>
      </trkpt>
      <trkpt lat="44.26793" lon="4.20938">
        <ele>252.48</ele>
        <time>2020-05-21T12:13:26Z</time>
      </trkpt>
      <trkpt lat="44.26793" lon="4.20939">
        <ele>253.93</ele>
        <time>2020-05-21T12:13:28Z</time>
      </trkpt>
      <trkpt lat="44.26792" lon="4.2094">
        <ele>255.37</ele>
        <time>2020-05-21T12:13:30Z</time>
      </trkpt>
      <trkpt lat="44.26792" lon="4.20942">
        <ele>253.93</ele>
        <time>2020-05-21T12:13:32Z</time>
      </trkpt>
      <trkpt lat="44.26793" lon="4.20942">
        <ele>253.93</ele>
        <time>2020-05-21T12:14:05Z</time>
      </trkpt>
      <trkpt lat="44.26793" lon="4.20946">
        <ele>253.93</ele>
        <time>2020-05-21T12:14:36Z</time>
      </trkpt>
      <trkpt lat="44.26795" lon="4.20946">
        <ele>253.93</ele>
        <time>2020-05-21T12:15:06Z</time>
      </trkpt>
      <trkpt lat="44.26795" lon="4.20943">
        <ele>253.93</ele>
        <time>2020-05-21T12:15:40Z</time>
      </trkpt>
      <trkpt lat="44.26795" lon="4.20946">
        <ele>248.16</ele>
        <time>2020-05-21T12:16:03Z</time>
      </trkpt>
      <trkpt lat="44.26794" lon="4.20946">
        <ele>257.77</ele>
        <time>2020-05-21T12:16:04Z</time>
      </trkpt>
      <trkpt lat="44.26794" lon="4.20946">
        <ele>254.41</ele>
        <time>2020-05-21T12:16:05Z</time>
      </trkpt>
      <trkpt lat="44.26799" lon="4.20949">
        <ele>253.44</ele>
        <time>2020-05-21T12:16:44Z</time>
      </trkpt>
      <trkpt lat="44.26797" lon="4.20949">
        <ele>253.44</ele>
        <time>2020-05-21T12:17:22Z</time>
      </trkpt>
      <trkpt lat="44.26798" lon="4.20949">
        <ele>245.75</ele>
        <time>2020-05-21T12:17:25Z</time>
      </trkpt>
      <trkpt lat="44.26797" lon="4.20949">
        <ele>245.75</ele>
        <time>2020-05-21T12:17:26Z</time>
      </trkpt>
      <trkpt lat="44.26797" lon="4.20949">
        <ele>264.5</ele>
        <time>2020-05-21T12:17:27Z</time>
      </trkpt>
      <trkpt lat="44.26796" lon="4.2095">
        <ele>256.33</ele>
        <time>2020-05-21T12:17:28Z</time>
      </trkpt>
      <trkpt lat="44.26796" lon="4.20948">
        <ele>252.96</ele>
        <time>2020-05-21T12:17:42Z</time>
      </trkpt>
      <trkpt lat="44.26799" lon="4.20944">
        <ele>253.93</ele>
        <time>2020-05-21T12:17:56Z</time>
      </trkpt>
      <trkpt lat="44.26803" lon="4.2094">
        <ele>254.89</ele>
        <time>2020-05-21T12:18:14Z</time>
      </trkpt>
      <trkpt lat="44.26803" lon="4.20941">
        <ele>253.93</ele>
        <time>2020-05-21T12:18:20Z</time>
      </trkpt>
      <trkpt lat="44.26803" lon="4.20937">
        <ele>247.68</ele>
        <time>2020-05-21T12:18:33Z</time>
      </trkpt>
      <trkpt lat="44.26804" lon="4.20937">
        <ele>259.21</ele>
        <time>2020-05-21T12:18:34Z</time>
      </trkpt>
      <trkpt lat="44.26804" lon="4.20937">
        <ele>253.93</ele>
        <time>2020-05-21T12:18:35Z</time>
      </trkpt>
      <trkpt lat="44.26817" lon="4.20943">
        <ele>256.81</ele>
        <time>2020-05-21T12:18:52Z</time>
      </trkpt>
      <trkpt lat="44.26821" lon="4.20942">
        <ele>252.48</ele>
        <time>2020-05-21T12:18:59Z</time>
      </trkpt>
      <trkpt lat="44.26821" lon="4.20942">
        <ele>256.33</ele>
        <time>2020-05-21T12:19:00Z</time>
      </trkpt>
      <trkpt lat="44.26828" lon="4.20941">
        <ele>255.85</ele>
        <time>2020-05-21T12:19:08Z</time>
      </trkpt>
      <trkpt lat="44.26828" lon="4.20941">
        <ele>253.93</ele>
        <time>2020-05-21T12:19:11Z</time>
      </trkpt>
      <trkpt lat="44.26835" lon="4.20941">
        <ele>257.77</ele>
        <time>2020-05-21T12:19:21Z</time>
      </trkpt>
      <trkpt lat="44.2684" lon="4.2094">
        <ele>256.81</ele>
        <time>2020-05-21T12:19:26Z</time>
      </trkpt>
      <trkpt lat="44.26841" lon="4.2094">
        <ele>255.37</ele>
        <time>2020-05-21T12:19:28Z</time>
      </trkpt>
      <trkpt lat="44.26843" lon="4.20941">
        <ele>256.33</ele>
        <time>2020-05-21T12:19:31Z</time>
      </trkpt>
      <trkpt lat="44.26848" lon="4.20941">
        <ele>256.81</ele>
        <time>2020-05-21T12:19:36Z</time>
      </trkpt>
      <trkpt lat="44.26853" lon="4.2094">
        <ele>257.29</ele>
        <time>2020-05-21T12:19:55Z</time>
      </trkpt>
      <trkpt lat="44.26854" lon="4.2094">
        <ele>257.77</ele>
        <time>2020-05-21T12:19:56Z</time>
      </trkpt>
      <trkpt lat="44.26867" lon="4.2094">
        <ele>256.81</ele>
        <time>2020-05-21T12:20:10Z</time>
      </trkpt>
      <trkpt lat="44.26869" lon="4.2094">
        <ele>255.85</ele>
        <time>2020-05-21T12:20:12Z</time>
      </trkpt>
      <trkpt lat="44.26872" lon="4.20941">
        <ele>257.29</ele>
        <time>2020-05-21T12:20:15Z</time>
      </trkpt>
      <trkpt lat="44.26874" lon="4.20941">
        <ele>255.85</ele>
        <time>2020-05-21T12:20:17Z</time>
      </trkpt>
      <trkpt lat="44.26893" lon="4.20941">
        <ele>257.77</ele>
        <time>2020-05-21T12:20:36Z</time>
      </trkpt>
      <trkpt lat="44.26896" lon="4.2094">
        <ele>254.89</ele>
        <time>2020-05-21T12:20:41Z</time>
      </trkpt>
      <trkpt lat="44.26898" lon="4.20939">
        <ele>257.77</ele>
        <time>2020-05-21T12:20:44Z</time>
      </trkpt>
      <trkpt lat="44.26902" lon="4.20939">
        <ele>256.33</ele>
        <time>2020-05-21T12:20:49Z</time>
      </trkpt>
      <trkpt lat="44.26916" lon="4.2094">
        <ele>258.73</ele>
        <time>2020-05-21T12:21:07Z</time>
      </trkpt>
      <trkpt lat="44.26917" lon="4.2094">
        <ele>258.73</ele>
        <time>2020-05-21T12:21:08Z</time>
      </trkpt>
      <trkpt lat="44.26923" lon="4.20939">
        <ele>256.33</ele>
        <time>2020-05-21T12:21:14Z</time>
      </trkpt>
      <trkpt lat="44.26925" lon="4.20939">
        <ele>258.73</ele>
        <time>2020-05-21T12:21:16Z</time>
      </trkpt>
      <trkpt lat="44.26927" lon="4.20939">
        <ele>256.81</ele>
        <time>2020-05-21T12:21:18Z</time>
      </trkpt>
      <trkpt lat="44.26937" lon="4.20939">
        <ele>259.21</ele>
        <time>2020-05-21T12:21:29Z</time>
      </trkpt>
      <trkpt lat="44.26939" lon="4.2094">
        <ele>257.77</ele>
        <time>2020-05-21T12:21:31Z</time>
      </trkpt>
      <trkpt lat="44.26952" lon="4.20936">
        <ele>260.17</ele>
        <time>2020-05-21T12:21:48Z</time>
      </trkpt>
      <trkpt lat="44.26954" lon="4.20935">
        <ele>258.25</ele>
        <time>2020-05-21T12:21:51Z</time>
      </trkpt>
      <trkpt lat="44.26965" lon="4.20935">
        <ele>261.14</ele>
        <time>2020-05-21T12:22:05Z</time>
      </trkpt>
      <trkpt lat="44.26969" lon="4.20935">
        <ele>260.65</ele>
        <time>2020-05-21T12:22:11Z</time>
      </trkpt>
      <trkpt lat="44.26977" lon="4.20933">
        <ele>259.21</ele>
        <time>2020-05-21T12:22:21Z</time>
      </trkpt>
      <trkpt lat="44.26978" lon="4.20933">
        <ele>261.14</ele>
        <time>2020-05-21T12:22:23Z</time>
      </trkpt>
      <trkpt lat="44.2698" lon="4.20934">
        <ele>258.73</ele>
        <time>2020-05-21T12:22:25Z</time>
      </trkpt>
      <trkpt lat="44.26981" lon="4.20934">
        <ele>263.06</ele>
        <time>2020-05-21T12:22:26Z</time>
      </trkpt>
      <trkpt lat="44.26982" lon="4.20934">
        <ele>261.14</ele>
        <time>2020-05-21T12:22:27Z</time>
      </trkpt>
      <trkpt lat="44.26984" lon="4.20934">
        <ele>260.17</ele>
        <time>2020-05-21T12:22:29Z</time>
      </trkpt>
      <trkpt lat="44.27" lon="4.20933">
        <ele>260.65</ele>
        <time>2020-05-21T12:22:47Z</time>
      </trkpt>
      <trkpt lat="44.27005" lon="4.20931">
        <ele>263.54</ele>
        <time>2020-05-21T12:22:54Z</time>
      </trkpt>
      <trkpt lat="44.2701" lon="4.20929">
        <ele>261.14</ele>
        <time>2020-05-21T12:23:00Z</time>
      </trkpt>
      <trkpt lat="44.2701" lon="4.20929">
        <ele>264.5</ele>
        <time>2020-05-21T12:23:01Z</time>
      </trkpt>
      <trkpt lat="44.27011" lon="4.20928">
        <ele>261.62</ele>
        <time>2020-05-21T12:23:02Z</time>
      </trkpt>
      <trkpt lat="44.27014" lon="4.20928">
        <ele>263.54</ele>
        <time>2020-05-21T12:23:05Z</time>
      </trkpt>
      <trkpt lat="44.27015" lon="4.20929">
        <ele>261.62</ele>
        <time>2020-05-21T12:23:07Z</time>
      </trkpt>
      <trkpt lat="44.27017" lon="4.20928">
        <ele>263.54</ele>
        <time>2020-05-21T12:23:09Z</time>
      </trkpt>
      <trkpt lat="44.27029" lon="4.20929">
        <ele>260.65</ele>
        <time>2020-05-21T12:23:30Z</time>
      </trkpt>
      <trkpt lat="44.2703" lon="4.20929">
        <ele>266.9</ele>
        <time>2020-05-21T12:23:31Z</time>
      </trkpt>
      <trkpt lat="44.27031" lon="4.20929">
        <ele>264.5</ele>
        <time>2020-05-21T12:23:32Z</time>
      </trkpt>
      <trkpt lat="44.27036" lon="4.20928">
        <ele>261.14</ele>
        <time>2020-05-21T12:23:37Z</time>
      </trkpt>
      <trkpt lat="44.27036" lon="4.20928">
        <ele>264.98</ele>
        <time>2020-05-21T12:23:38Z</time>
      </trkpt>
      <trkpt lat="44.2704" lon="4.20926">
        <ele>265.94</ele>
        <time>2020-05-21T12:23:42Z</time>
      </trkpt>
      <trkpt lat="44.27044" lon="4.20924">
        <ele>265.94</ele>
        <time>2020-05-21T12:23:50Z</time>
      </trkpt>
      <trkpt lat="44.27048" lon="4.20924">
        <ele>266.9</ele>
        <time>2020-05-21T12:23:56Z</time>
      </trkpt>
      <trkpt lat="44.27049" lon="4.20926">
        <ele>263.54</ele>
        <time>2020-05-21T12:24:04Z</time>
      </trkpt>
      <trkpt lat="44.2705" lon="4.20926">
        <ele>266.9</ele>
        <time>2020-05-21T12:24:07Z</time>
      </trkpt>
      <trkpt lat="44.27052" lon="4.20925">
        <ele>262.58</ele>
        <time>2020-05-21T12:24:09Z</time>
      </trkpt>
      <trkpt lat="44.27053" lon="4.20924">
        <ele>267.38</ele>
        <time>2020-05-21T12:24:10Z</time>
      </trkpt>
      <trkpt lat="44.27056" lon="4.20925">
        <ele>262.58</ele>
        <time>2020-05-21T12:24:16Z</time>
      </trkpt>
      <trkpt lat="44.27056" lon="4.20924">
        <ele>267.86</ele>
        <time>2020-05-21T12:24:17Z</time>
      </trkpt>
      <trkpt lat="44.27056" lon="4.20924">
        <ele>267.86</ele>
        <time>2020-05-21T12:24:18Z</time>
      </trkpt>
      <trkpt lat="44.27057" lon="4.20922">
        <ele>264.02</ele>
        <time>2020-05-21T12:24:28Z</time>
      </trkpt>
      <trkpt lat="44.27057" lon="4.20922">
        <ele>268.35</ele>
        <time>2020-05-21T12:24:29Z</time>
      </trkpt>
      <trkpt lat="44.27057" lon="4.20922">
        <ele>264.5</ele>
        <time>2020-05-21T12:24:30Z</time>
      </trkpt>
      <trkpt lat="44.2706" lon="4.2092">
        <ele>269.31</ele>
        <time>2020-05-21T12:24:37Z</time>
      </trkpt>
      <trkpt lat="44.27065" lon="4.20921">
        <ele>266.9</ele>
        <time>2020-05-21T12:24:55Z</time>
      </trkpt>
      <trkpt lat="44.27065" lon="4.20921">
        <ele>266.9</ele>
        <time>2020-05-21T12:24:56Z</time>
      </trkpt>
      <trkpt lat="44.27069" lon="4.2092">
        <ele>270.27</ele>
        <time>2020-05-21T12:25:06Z</time>
      </trkpt>
      <trkpt lat="44.2707" lon="4.2092">
        <ele>265.94</ele>
        <time>2020-05-21T12:25:07Z</time>
      </trkpt>
      <trkpt lat="44.27072" lon="4.20919">
        <ele>269.79</ele>
        <time>2020-05-21T12:25:10Z</time>
      </trkpt>
      <trkpt lat="44.27073" lon="4.2092">
        <ele>265.46</ele>
        <time>2020-05-21T12:25:12Z</time>
      </trkpt>
      <trkpt lat="44.27073" lon="4.2092">
        <ele>270.27</ele>
        <time>2020-05-21T12:25:13Z</time>
      </trkpt>
      <trkpt lat="44.27077" lon="4.20919">
        <ele>268.83</ele>
        <time>2020-05-21T12:25:17Z</time>
      </trkpt>
      <trkpt lat="44.27078" lon="4.20919">
        <ele>265.46</ele>
        <time>2020-05-21T12:25:18Z</time>
      </trkpt>
      <trkpt lat="44.27078" lon="4.20919">
        <ele>271.71</ele>
        <time>2020-05-21T12:25:19Z</time>
      </trkpt>
      <trkpt lat="44.27079" lon="4.20919">
        <ele>268.35</ele>
        <time>2020-05-21T12:25:20Z</time>
      </trkpt>
      <trkpt lat="44.27081" lon="4.20919">
        <ele>271.71</ele>
        <time>2020-05-21T12:25:22Z</time>
      </trkpt>
      <trkpt lat="44.27083" lon="4.20919">
        <ele>267.86</ele>
        <time>2020-05-21T12:25:23Z</time>
      </trkpt>
      <trkpt lat="44.27085" lon="4.20918">
        <ele>271.71</ele>
        <time>2020-05-21T12:25:27Z</time>
      </trkpt>
      <trkpt lat="44.27086" lon="4.20918">
        <ele>267.38</ele>
        <time>2020-05-21T12:25:29Z</time>
      </trkpt>
      <trkpt lat="44.27087" lon="4.20918">
        <ele>272.67</ele>
        <time>2020-05-21T12:25:30Z</time>
      </trkpt>
      <trkpt lat="44.27087" lon="4.20917">
        <ele>268.35</ele>
        <time>2020-05-21T12:25:31Z</time>
      </trkpt>
      <trkpt lat="44.2709" lon="4.20917">
        <ele>272.67</ele>
        <time>2020-05-21T12:25:35Z</time>
      </trkpt>
      <trkpt lat="44.2709" lon="4.20917">
        <ele>268.35</ele>
        <time>2020-05-21T12:25:36Z</time>
      </trkpt>
      <trkpt lat="44.27091" lon="4.20917">
        <ele>272.19</ele>
        <time>2020-05-21T12:25:37Z</time>
      </trkpt>
      <trkpt lat="44.27092" lon="4.20916">
        <ele>269.31</ele>
        <time>2020-05-21T12:25:39Z</time>
      </trkpt>
      <trkpt lat="44.27093" lon="4.20916">
        <ele>272.67</ele>
        <time>2020-05-21T12:25:40Z</time>
      </trkpt>
      <trkpt lat="44.27096" lon="4.20916">
        <ele>269.31</ele>
        <time>2020-05-21T12:25:44Z</time>
      </trkpt>
      <trkpt lat="44.27098" lon="4.20914">
        <ele>272.67</ele>
        <time>2020-05-21T12:25:48Z</time>
      </trkpt>
      <trkpt lat="44.2711" lon="4.20912">
        <ele>276.04</ele>
        <time>2020-05-21T12:26:05Z</time>
      </trkpt>
      <trkpt lat="44.27111" lon="4.20912">
        <ele>271.71</ele>
        <time>2020-05-21T12:26:07Z</time>
      </trkpt>
      <trkpt lat="44.27112" lon="4.20912">
        <ele>276.04</ele>
        <time>2020-05-21T12:26:08Z</time>
      </trkpt>
      <trkpt lat="44.27113" lon="4.20912">
        <ele>272.67</ele>
        <time>2020-05-21T12:26:10Z</time>
      </trkpt>
      <trkpt lat="44.27114" lon="4.20912">
        <ele>275.56</ele>
        <time>2020-05-21T12:26:11Z</time>
      </trkpt>
      <trkpt lat="44.27116" lon="4.20913">
        <ele>272.67</ele>
        <time>2020-05-21T12:26:13Z</time>
      </trkpt>
      <trkpt lat="44.27118" lon="4.20912">
        <ele>276.04</ele>
        <time>2020-05-21T12:26:17Z</time>
      </trkpt>
      <trkpt lat="44.27119" lon="4.20912">
        <ele>276.04</ele>
        <time>2020-05-21T12:26:18Z</time>
      </trkpt>
      <trkpt lat="44.27119" lon="4.20911">
        <ele>270.75</ele>
        <time>2020-05-21T12:26:19Z</time>
      </trkpt>
      <trkpt lat="44.2712" lon="4.20911">
        <ele>277.48</ele>
        <time>2020-05-21T12:26:20Z</time>
      </trkpt>
      <trkpt lat="44.27122" lon="4.20911">
        <ele>273.15</ele>
        <time>2020-05-21T12:26:22Z</time>
      </trkpt>
      <trkpt lat="44.27123" lon="4.20911">
        <ele>276.52</ele>
        <time>2020-05-21T12:26:23Z</time>
      </trkpt>
      <trkpt lat="44.27128" lon="4.2091">
        <ele>273.15</ele>
        <time>2020-05-21T12:26:30Z</time>
      </trkpt>
      <trkpt lat="44.27133" lon="4.20906">
        <ele>277</ele>
        <time>2020-05-21T12:26:39Z</time>
      </trkpt>
      <trkpt lat="44.27133" lon="4.20906">
        <ele>275.07</ele>
        <time>2020-05-21T12:26:43Z</time>
      </trkpt>
      <trkpt lat="44.27133" lon="4.20906">
        <ele>270.75</ele>
        <time>2020-05-21T12:26:44Z</time>
      </trkpt>
      <trkpt lat="44.27133" lon="4.20905">
        <ele>277.96</ele>
        <time>2020-05-21T12:26:45Z</time>
      </trkpt>
      <trkpt lat="44.27134" lon="4.20905">
        <ele>277.96</ele>
        <time>2020-05-21T12:26:46Z</time>
      </trkpt>
      <trkpt lat="44.27134" lon="4.20905">
        <ele>274.11</ele>
        <time>2020-05-21T12:26:47Z</time>
      </trkpt>
      <trkpt lat="44.27133" lon="4.20904">
        <ele>278.92</ele>
        <time>2020-05-21T12:26:48Z</time>
      </trkpt>
      <trkpt lat="44.27133" lon="4.20904">
        <ele>273.63</ele>
        <time>2020-05-21T12:26:50Z</time>
      </trkpt>
      <trkpt lat="44.27133" lon="4.20903">
        <ele>280.36</ele>
        <time>2020-05-21T12:26:51Z</time>
      </trkpt>
      <trkpt lat="44.27133" lon="4.20903">
        <ele>277.96</ele>
        <time>2020-05-21T12:26:52Z</time>
      </trkpt>
      <trkpt lat="44.27133" lon="4.20901">
        <ele>276.04</ele>
        <time>2020-05-21T12:26:55Z</time>
      </trkpt>
      <trkpt lat="44.27129" lon="4.20889">
        <ele>278.92</ele>
        <time>2020-05-21T12:27:07Z</time>
      </trkpt>
      <trkpt lat="44.27129" lon="4.20888">
        <ele>277</ele>
        <time>2020-05-21T12:27:09Z</time>
      </trkpt>
      <trkpt lat="44.27133" lon="4.2089">
        <ele>277.96</ele>
        <time>2020-05-21T12:27:31Z</time>
      </trkpt>
      <trkpt lat="44.27133" lon="4.2089">
        <ele>277.96</ele>
        <time>2020-05-21T12:27:32Z</time>
      </trkpt>
      <trkpt lat="44.27133" lon="4.20891">
        <ele>277.48</ele>
        <time>2020-05-21T12:27:45Z</time>
      </trkpt>
      <trkpt lat="44.27135" lon="4.20904">
        <ele>276.52</ele>
        <time>2020-05-21T12:28:00Z</time>
      </trkpt>
      <trkpt lat="44.27138" lon="4.20908">
        <ele>275.56</ele>
        <time>2020-05-21T12:28:07Z</time>
      </trkpt>
      <trkpt lat="44.27144" lon="4.2091">
        <ele>275.56</ele>
        <time>2020-05-21T12:28:15Z</time>
      </trkpt>
      <trkpt lat="44.27151" lon="4.20917">
        <ele>275.07</ele>
        <time>2020-05-21T12:28:30Z</time>
      </trkpt>
      <trkpt lat="44.2715" lon="4.20916">
        <ele>276.04</ele>
        <time>2020-05-21T12:28:50Z</time>
      </trkpt>
      <trkpt lat="44.2715" lon="4.20915">
        <ele>274.59</ele>
        <time>2020-05-21T12:28:56Z</time>
      </trkpt>
      <trkpt lat="44.2715" lon="4.20916">
        <ele>274.59</ele>
        <time>2020-05-21T12:29:05Z</time>
      </trkpt>
      <trkpt lat="44.27156" lon="4.2092">
        <ele>274.59</ele>
        <time>2020-05-21T12:29:29Z</time>
      </trkpt>
      <trkpt lat="44.27176" lon="4.20928">
        <ele>274.59</ele>
        <time>2020-05-21T12:29:49Z</time>
      </trkpt>
      <trkpt lat="44.27178" lon="4.20929">
        <ele>272.19</ele>
        <time>2020-05-21T12:29:51Z</time>
      </trkpt>
      <trkpt lat="44.2718" lon="4.2093">
        <ele>274.11</ele>
        <time>2020-05-21T12:29:53Z</time>
      </trkpt>
      <trkpt lat="44.27181" lon="4.20931">
        <ele>272.19</ele>
        <time>2020-05-21T12:29:55Z</time>
      </trkpt>
      <trkpt lat="44.27187" lon="4.20935">
        <ele>272.67</ele>
        <time>2020-05-21T12:30:05Z</time>
      </trkpt>
      <trkpt lat="44.27199" lon="4.20945">
        <ele>272.19</ele>
        <time>2020-05-21T12:30:16Z</time>
      </trkpt>
      <trkpt lat="44.27211" lon="4.20953">
        <ele>271.23</ele>
        <time>2020-05-21T12:30:32Z</time>
      </trkpt>
      <trkpt lat="44.27227" lon="4.20968">
        <ele>270.27</ele>
        <time>2020-05-21T12:30:51Z</time>
      </trkpt>
      <trkpt lat="44.2725" lon="4.2098">
        <ele>271.71</ele>
        <time>2020-05-21T12:31:11Z</time>
      </trkpt>
      <trkpt lat="44.27255" lon="4.20982">
        <ele>270.27</ele>
        <time>2020-05-21T12:31:15Z</time>
      </trkpt>
      <trkpt lat="44.27258" lon="4.20984">
        <ele>272.19</ele>
        <time>2020-05-21T12:31:18Z</time>
      </trkpt>
      <trkpt lat="44.27261" lon="4.20986">
        <ele>270.75</ele>
        <time>2020-05-21T12:31:21Z</time>
      </trkpt>
      <trkpt lat="44.27264" lon="4.20989">
        <ele>272.19</ele>
        <time>2020-05-21T12:31:25Z</time>
      </trkpt>
      <trkpt lat="44.27266" lon="4.2099">
        <ele>270.75</ele>
        <time>2020-05-21T12:31:27Z</time>
      </trkpt>
      <trkpt lat="44.2727" lon="4.20995">
        <ele>272.19</ele>
        <time>2020-05-21T12:31:32Z</time>
      </trkpt>
      <trkpt lat="44.27279" lon="4.21001">
        <ele>271.23</ele>
        <time>2020-05-21T12:31:40Z</time>
      </trkpt>
      <trkpt lat="44.27283" lon="4.21004">
        <ele>273.15</ele>
        <time>2020-05-21T12:31:44Z</time>
      </trkpt>
      <trkpt lat="44.27285" lon="4.21005">
        <ele>271.71</ele>
        <time>2020-05-21T12:31:46Z</time>
      </trkpt>
      <trkpt lat="44.27288" lon="4.21007">
        <ele>273.63</ele>
        <time>2020-05-21T12:31:49Z</time>
      </trkpt>
      <trkpt lat="44.27289" lon="4.21008">
        <ele>271.71</ele>
        <time>2020-05-21T12:31:51Z</time>
      </trkpt>
      <trkpt lat="44.27296" lon="4.21013">
        <ele>274.59</ele>
        <time>2020-05-21T12:31:59Z</time>
      </trkpt>
      <trkpt lat="44.27306" lon="4.21022">
        <ele>271.71</ele>
        <time>2020-05-21T12:32:16Z</time>
      </trkpt>
      <trkpt lat="44.27307" lon="4.21022">
        <ele>276.04</ele>
        <time>2020-05-21T12:32:17Z</time>
      </trkpt>
      <trkpt lat="44.27307" lon="4.21022">
        <ele>272.19</ele>
        <time>2020-05-21T12:32:23Z</time>
      </trkpt>
      <trkpt lat="44.27307" lon="4.21023">
        <ele>275.56</ele>
        <time>2020-05-21T12:32:26Z</time>
      </trkpt>
      <trkpt lat="44.27306" lon="4.21023">
        <ele>275.56</ele>
        <time>2020-05-21T12:32:27Z</time>
      </trkpt>
      <trkpt lat="44.27305" lon="4.21025">
        <ele>274.11</ele>
        <time>2020-05-21T12:32:33Z</time>
      </trkpt>
      <trkpt lat="44.2731" lon="4.2103">
        <ele>277.48</ele>
        <time>2020-05-21T12:32:59Z</time>
      </trkpt>
      <trkpt lat="44.27311" lon="4.2103">
        <ele>274.11</ele>
        <time>2020-05-21T12:33:00Z</time>
      </trkpt>
      <trkpt lat="44.27313" lon="4.2103">
        <ele>277.48</ele>
        <time>2020-05-21T12:33:04Z</time>
      </trkpt>
      <trkpt lat="44.27315" lon="4.21031">
        <ele>273.63</ele>
        <time>2020-05-21T12:33:07Z</time>
      </trkpt>
      <trkpt lat="44.27316" lon="4.21031">
        <ele>277.48</ele>
        <time>2020-05-21T12:33:08Z</time>
      </trkpt>
      <trkpt lat="44.27317" lon="4.21032">
        <ele>273.15</ele>
        <time>2020-05-21T12:33:10Z</time>
      </trkpt>
      <trkpt lat="44.27318" lon="4.21032">
        <ele>278.44</ele>
        <time>2020-05-21T12:33:11Z</time>
      </trkpt>
      <trkpt lat="44.27325" lon="4.21033">
        <ele>274.11</ele>
        <time>2020-05-21T12:33:23Z</time>
      </trkpt>
      <trkpt lat="44.27326" lon="4.21034">
        <ele>278.44</ele>
        <time>2020-05-21T12:33:24Z</time>
      </trkpt>
      <trkpt lat="44.27339" lon="4.21042">
        <ele>277.96</ele>
        <time>2020-05-21T12:33:48Z</time>
      </trkpt>
      <trkpt lat="44.27343" lon="4.21043">
        <ele>274.59</ele>
        <time>2020-05-21T12:33:53Z</time>
      </trkpt>
      <trkpt lat="44.27344" lon="4.21044">
        <ele>283.73</ele>
        <time>2020-05-21T12:33:54Z</time>
      </trkpt>
      <trkpt lat="44.27345" lon="4.21044">
        <ele>279.4</ele>
        <time>2020-05-21T12:33:55Z</time>
      </trkpt>
      <trkpt lat="44.27353" lon="4.21049">
        <ele>281.8</ele>
        <time>2020-05-21T12:34:06Z</time>
      </trkpt>
      <trkpt lat="44.27366" lon="4.21057">
        <ele>282.77</ele>
        <time>2020-05-21T12:34:28Z</time>
      </trkpt>
      <trkpt lat="44.27369" lon="4.21058">
        <ele>279.88</ele>
        <time>2020-05-21T12:34:31Z</time>
      </trkpt>
      <trkpt lat="44.2737" lon="4.21058">
        <ele>286.61</ele>
        <time>2020-05-21T12:34:32Z</time>
      </trkpt>
      <trkpt lat="44.2737" lon="4.21058">
        <ele>283.25</ele>
        <time>2020-05-21T12:34:33Z</time>
      </trkpt>
      <trkpt lat="44.27374" lon="4.2106">
        <ele>284.69</ele>
        <time>2020-05-21T12:34:39Z</time>
      </trkpt>
      <trkpt lat="44.27382" lon="4.21066">
        <ele>286.61</ele>
        <time>2020-05-21T12:34:55Z</time>
      </trkpt>
      <trkpt lat="44.27384" lon="4.21066">
        <ele>285.17</ele>
        <time>2020-05-21T12:34:58Z</time>
      </trkpt>
      <trkpt lat="44.27386" lon="4.21068">
        <ele>289.49</ele>
        <time>2020-05-21T12:35:01Z</time>
      </trkpt>
      <trkpt lat="44.27387" lon="4.21069">
        <ele>286.13</ele>
        <time>2020-05-21T12:35:02Z</time>
      </trkpt>
      <trkpt lat="44.27395" lon="4.21073">
        <ele>288.05</ele>
        <time>2020-05-21T12:35:13Z</time>
      </trkpt>
      <trkpt lat="44.27408" lon="4.21082">
        <ele>291.9</ele>
        <time>2020-05-21T12:35:36Z</time>
      </trkpt>
      <trkpt lat="44.27411" lon="4.21084">
        <ele>289.01</ele>
        <time>2020-05-21T12:35:40Z</time>
      </trkpt>
      <trkpt lat="44.27413" lon="4.21087">
        <ele>292.38</ele>
        <time>2020-05-21T12:35:51Z</time>
      </trkpt>
      <trkpt lat="44.27414" lon="4.21087">
        <ele>289.49</ele>
        <time>2020-05-21T12:35:53Z</time>
      </trkpt>
      <trkpt lat="44.27415" lon="4.21087">
        <ele>292.86</ele>
        <time>2020-05-21T12:35:54Z</time>
      </trkpt>
      <trkpt lat="44.27415" lon="4.21088">
        <ele>287.57</ele>
        <time>2020-05-21T12:35:56Z</time>
      </trkpt>
      <trkpt lat="44.27416" lon="4.21088">
        <ele>294.78</ele>
        <time>2020-05-21T12:35:57Z</time>
      </trkpt>
      <trkpt lat="44.27417" lon="4.21089">
        <ele>289.01</ele>
        <time>2020-05-21T12:35:59Z</time>
      </trkpt>
      <trkpt lat="44.27418" lon="4.21089">
        <ele>293.82</ele>
        <time>2020-05-21T12:36:00Z</time>
      </trkpt>
      <trkpt lat="44.2742" lon="4.21089">
        <ele>290.94</ele>
        <time>2020-05-21T12:36:02Z</time>
      </trkpt>
      <trkpt lat="44.27422" lon="4.2109">
        <ele>294.3</ele>
        <time>2020-05-21T12:36:05Z</time>
      </trkpt>
      <trkpt lat="44.27426" lon="4.2109">
        <ele>293.34</ele>
        <time>2020-05-21T12:36:09Z</time>
      </trkpt>
      <trkpt lat="44.2743" lon="4.21093">
        <ele>296.7</ele>
        <time>2020-05-21T12:36:17Z</time>
      </trkpt>
      <trkpt lat="44.27431" lon="4.21093">
        <ele>292.86</ele>
        <time>2020-05-21T12:36:18Z</time>
      </trkpt>
      <trkpt lat="44.27436" lon="4.21095">
        <ele>296.22</ele>
        <time>2020-05-21T12:36:26Z</time>
      </trkpt>
      <trkpt lat="44.27437" lon="4.21095">
        <ele>293.34</ele>
        <time>2020-05-21T12:36:28Z</time>
      </trkpt>
      <trkpt lat="44.27438" lon="4.21095">
        <ele>297.67</ele>
        <time>2020-05-21T12:36:29Z</time>
      </trkpt>
      <trkpt lat="44.2744" lon="4.21096">
        <ele>294.78</ele>
        <time>2020-05-21T12:36:33Z</time>
      </trkpt>
      <trkpt lat="44.27444" lon="4.21098">
        <ele>296.7</ele>
        <time>2020-05-21T12:36:41Z</time>
      </trkpt>
      <trkpt lat="44.27449" lon="4.21103">
        <ele>296.7</ele>
        <time>2020-05-21T12:36:53Z</time>
      </trkpt>
      <trkpt lat="44.27451" lon="4.21103">
        <ele>300.07</ele>
        <time>2020-05-21T12:36:55Z</time>
      </trkpt>
      <trkpt lat="44.27459" lon="4.21105">
        <ele>299.59</ele>
        <time>2020-05-21T12:37:07Z</time>
      </trkpt>
      <trkpt lat="44.27459" lon="4.21106">
        <ele>296.22</ele>
        <time>2020-05-21T12:37:08Z</time>
      </trkpt>
      <trkpt lat="44.27461" lon="4.21106">
        <ele>302.47</ele>
        <time>2020-05-21T12:37:09Z</time>
      </trkpt>
      <trkpt lat="44.27463" lon="4.21107">
        <ele>299.11</ele>
        <time>2020-05-21T12:37:13Z</time>
      </trkpt>
      <trkpt lat="44.27463" lon="4.21108">
        <ele>302.47</ele>
        <time>2020-05-21T12:37:14Z</time>
      </trkpt>
      <trkpt lat="44.27475" lon="4.21114">
        <ele>297.67</ele>
        <time>2020-05-21T12:37:35Z</time>
      </trkpt>
      <trkpt lat="44.27475" lon="4.21115">
        <ele>307.76</ele>
        <time>2020-05-21T12:37:36Z</time>
      </trkpt>
      <trkpt lat="44.27476" lon="4.21116">
        <ele>302.95</ele>
        <time>2020-05-21T12:37:37Z</time>
      </trkpt>
      <trkpt lat="44.27478" lon="4.21118">
        <ele>306.32</ele>
        <time>2020-05-21T12:37:41Z</time>
      </trkpt>
      <trkpt lat="44.27481" lon="4.2112">
        <ele>302.95</ele>
        <time>2020-05-21T12:37:44Z</time>
      </trkpt>
      <trkpt lat="44.27482" lon="4.21122">
        <ele>305.36</ele>
        <time>2020-05-21T12:37:47Z</time>
      </trkpt>
      <trkpt lat="44.27492" lon="4.21131">
        <ele>308.24</ele>
        <time>2020-05-21T12:38:03Z</time>
      </trkpt>
      <trkpt lat="44.27493" lon="4.21131">
        <ele>305.36</ele>
        <time>2020-05-21T12:38:04Z</time>
      </trkpt>
      <trkpt lat="44.27499" lon="4.21139">
        <ele>310.16</ele>
        <time>2020-05-21T12:38:16Z</time>
      </trkpt>
      <trkpt lat="44.27499" lon="4.2114">
        <ele>305.84</ele>
        <time>2020-05-21T12:38:18Z</time>
      </trkpt>
      <trkpt lat="44.27502" lon="4.21143">
        <ele>308.72</ele>
        <time>2020-05-21T12:38:22Z</time>
      </trkpt>
      <trkpt lat="44.27504" lon="4.21146">
        <ele>306.8</ele>
        <time>2020-05-21T12:38:27Z</time>
      </trkpt>
      <trkpt lat="44.27504" lon="4.21148">
        <ele>309.2</ele>
        <time>2020-05-21T12:38:29Z</time>
      </trkpt>
      <trkpt lat="44.27509" lon="4.21153">
        <ele>309.2</ele>
        <time>2020-05-21T12:38:38Z</time>
      </trkpt>
      <trkpt lat="44.27511" lon="4.21159">
        <ele>305.84</ele>
        <time>2020-05-21T12:38:43Z</time>
      </trkpt>
      <trkpt lat="44.27511" lon="4.2116">
        <ele>312.09</ele>
        <time>2020-05-21T12:38:44Z</time>
      </trkpt>
      <trkpt lat="44.27511" lon="4.21161">
        <ele>308.24</ele>
        <time>2020-05-21T12:38:45Z</time>
      </trkpt>
      <trkpt lat="44.27513" lon="4.21163">
        <ele>311.12</ele>
        <time>2020-05-21T12:38:50Z</time>
      </trkpt>
      <trkpt lat="44.27514" lon="4.21165">
        <ele>308.24</ele>
        <time>2020-05-21T12:38:52Z</time>
      </trkpt>
      <trkpt lat="44.27515" lon="4.21166">
        <ele>312.09</ele>
        <time>2020-05-21T12:38:53Z</time>
      </trkpt>
      <trkpt lat="44.27517" lon="4.21169">
        <ele>309.2</ele>
        <time>2020-05-21T12:38:57Z</time>
      </trkpt>
      <trkpt lat="44.27518" lon="4.2117">
        <ele>312.57</ele>
        <time>2020-05-21T12:38:59Z</time>
      </trkpt>
      <trkpt lat="44.27519" lon="4.21172">
        <ele>309.2</ele>
        <time>2020-05-21T12:39:03Z</time>
      </trkpt>
      <trkpt lat="44.27523" lon="4.21176">
        <ele>312.57</ele>
        <time>2020-05-21T12:39:08Z</time>
      </trkpt>
      <trkpt lat="44.27525" lon="4.21177">
        <ele>310.16</ele>
        <time>2020-05-21T12:39:10Z</time>
      </trkpt>
      <trkpt lat="44.27526" lon="4.21178">
        <ele>313.05</ele>
        <time>2020-05-21T12:39:12Z</time>
      </trkpt>
      <trkpt lat="44.27528" lon="4.2118">
        <ele>312.09</ele>
        <time>2020-05-21T12:39:16Z</time>
      </trkpt>
      <trkpt lat="44.27534" lon="4.21185">
        <ele>313.05</ele>
        <time>2020-05-21T12:39:24Z</time>
      </trkpt>
      <trkpt lat="44.27536" lon="4.21186">
        <ele>313.05</ele>
        <time>2020-05-21T12:39:37Z</time>
      </trkpt>
      <trkpt lat="44.27538" lon="4.21192">
        <ele>311.6</ele>
        <time>2020-05-21T12:39:59Z</time>
      </trkpt>
      <trkpt lat="44.2754" lon="4.21192">
        <ele>312.57</ele>
        <time>2020-05-21T12:40:01Z</time>
      </trkpt>
      <trkpt lat="44.27551" lon="4.212">
        <ele>310.64</ele>
        <time>2020-05-21T12:40:20Z</time>
      </trkpt>
      <trkpt lat="44.27564" lon="4.2121">
        <ele>311.12</ele>
        <time>2020-05-21T12:40:41Z</time>
      </trkpt>
      <trkpt lat="44.27571" lon="4.2121">
        <ele>309.68</ele>
        <time>2020-05-21T12:40:50Z</time>
      </trkpt>
      <trkpt lat="44.27582" lon="4.21206">
        <ele>310.16</ele>
        <time>2020-05-21T12:41:05Z</time>
      </trkpt>
      <trkpt lat="44.27585" lon="4.21206">
        <ele>309.2</ele>
        <time>2020-05-21T12:41:10Z</time>
      </trkpt>
      <trkpt lat="44.27588" lon="4.21205">
        <ele>307.76</ele>
        <time>2020-05-21T12:41:13Z</time>
      </trkpt>
      <trkpt lat="44.2759" lon="4.21205">
        <ele>309.2</ele>
        <time>2020-05-21T12:41:15Z</time>
      </trkpt>
      <trkpt lat="44.27599" lon="4.21205">
        <ele>307.76</ele>
        <time>2020-05-21T12:41:26Z</time>
      </trkpt>
      <trkpt lat="44.27613" lon="4.21205">
        <ele>306.32</ele>
        <time>2020-05-21T12:41:43Z</time>
      </trkpt>
      <trkpt lat="44.27621" lon="4.21207">
        <ele>305.36</ele>
        <time>2020-05-21T12:42:01Z</time>
      </trkpt>
      <trkpt lat="44.27622" lon="4.21208">
        <ele>306.32</ele>
        <time>2020-05-21T12:42:04Z</time>
      </trkpt>
      <trkpt lat="44.27623" lon="4.21209">
        <ele>304.88</ele>
        <time>2020-05-21T12:42:08Z</time>
      </trkpt>
      <trkpt lat="44.27627" lon="4.21211">
        <ele>306.32</ele>
        <time>2020-05-21T12:42:30Z</time>
      </trkpt>
      <trkpt lat="44.27627" lon="4.21212">
        <ele>306.32</ele>
        <time>2020-05-21T12:42:31Z</time>
      </trkpt>
      <trkpt lat="44.27627" lon="4.21212">
        <ele>302.47</ele>
        <time>2020-05-21T12:42:32Z</time>
      </trkpt>
      <trkpt lat="44.27628" lon="4.21212">
        <ele>306.32</ele>
        <time>2020-05-21T12:42:33Z</time>
      </trkpt>
      <trkpt lat="44.27633" lon="4.21208">
        <ele>304.39</ele>
        <time>2020-05-21T12:42:53Z</time>
      </trkpt>
      <trkpt lat="44.27632" lon="4.2121">
        <ele>303.91</ele>
        <time>2020-05-21T12:43:25Z</time>
      </trkpt>
      <trkpt lat="44.27639" lon="4.21209">
        <ele>303.91</ele>
        <time>2020-05-21T12:43:50Z</time>
      </trkpt>
      <trkpt lat="44.27648" lon="4.21207">
        <ele>303.43</ele>
        <time>2020-05-21T12:44:07Z</time>
      </trkpt>
      <trkpt lat="44.27663" lon="4.21208">
        <ele>302.95</ele>
        <time>2020-05-21T12:44:22Z</time>
      </trkpt>
      <trkpt lat="44.27665" lon="4.21206">
        <ele>301.51</ele>
        <time>2020-05-21T12:44:24Z</time>
      </trkpt>
      <trkpt lat="44.27671" lon="4.21203">
        <ele>302.95</ele>
        <time>2020-05-21T12:44:31Z</time>
      </trkpt>
      <trkpt lat="44.27674" lon="4.21204">
        <ele>301.51</ele>
        <time>2020-05-21T12:44:35Z</time>
      </trkpt>
      <trkpt lat="44.27691" lon="4.21206">
        <ele>300.55</ele>
        <time>2020-05-21T12:44:52Z</time>
      </trkpt>
      <trkpt lat="44.27701" lon="4.21211">
        <ele>300.07</ele>
        <time>2020-05-21T12:45:03Z</time>
      </trkpt>
      <trkpt lat="44.27718" lon="4.21224">
        <ele>300.55</ele>
        <time>2020-05-21T12:45:20Z</time>
      </trkpt>
      <trkpt lat="44.27719" lon="4.21226">
        <ele>300.07</ele>
        <time>2020-05-21T12:45:25Z</time>
      </trkpt>
      <trkpt lat="44.27719" lon="4.21227">
        <ele>298.63</ele>
        <time>2020-05-21T12:45:31Z</time>
      </trkpt>
      <trkpt lat="44.2772" lon="4.21229">
        <ele>300.07</ele>
        <time>2020-05-21T12:45:33Z</time>
      </trkpt>
      <trkpt lat="44.27726" lon="4.21241">
        <ele>298.63</ele>
        <time>2020-05-21T12:45:43Z</time>
      </trkpt>
      <trkpt lat="44.27725" lon="4.21242">
        <ele>298.15</ele>
        <time>2020-05-21T12:46:05Z</time>
      </trkpt>
      <trkpt lat="44.27726" lon="4.2124">
        <ele>298.15</ele>
        <time>2020-05-21T12:46:26Z</time>
      </trkpt>
      <trkpt lat="44.27731" lon="4.21242">
        <ele>298.15</ele>
        <time>2020-05-21T12:46:55Z</time>
      </trkpt>
      <trkpt lat="44.27731" lon="4.21249">
        <ele>298.15</ele>
        <time>2020-05-21T12:47:14Z</time>
      </trkpt>
      <trkpt lat="44.2773" lon="4.21252">
        <ele>298.63</ele>
        <time>2020-05-21T12:47:46Z</time>
      </trkpt>
      <trkpt lat="44.27731" lon="4.21253">
        <ele>298.63</ele>
        <time>2020-05-21T12:47:47Z</time>
      </trkpt>
      <trkpt lat="44.27733" lon="4.21253">
        <ele>297.67</ele>
        <time>2020-05-21T12:47:57Z</time>
      </trkpt>
      <trkpt lat="44.27736" lon="4.21256">
        <ele>297.67</ele>
        <time>2020-05-21T12:48:01Z</time>
      </trkpt>
      <trkpt lat="44.27741" lon="4.21261">
        <ele>299.11</ele>
        <time>2020-05-21T12:48:06Z</time>
      </trkpt>
      <trkpt lat="44.2775" lon="4.21277">
        <ele>298.63</ele>
        <time>2020-05-21T12:48:21Z</time>
      </trkpt>
      <trkpt lat="44.27753" lon="4.21284">
        <ele>297.67</ele>
        <time>2020-05-21T12:48:39Z</time>
      </trkpt>
      <trkpt lat="44.27755" lon="4.21289">
        <ele>299.59</ele>
        <time>2020-05-21T12:48:44Z</time>
      </trkpt>
      <trkpt lat="44.27756" lon="4.2129">
        <ele>297.67</ele>
        <time>2020-05-21T12:48:46Z</time>
      </trkpt>
      <trkpt lat="44.27757" lon="4.21292">
        <ele>299.59</ele>
        <time>2020-05-21T12:48:48Z</time>
      </trkpt>
      <trkpt lat="44.27756" lon="4.21297">
        <ele>287.57</ele>
        <time>2020-05-21T12:49:06Z</time>
      </trkpt>
      <trkpt lat="44.27756" lon="4.21297">
        <ele>287.57</ele>
        <time>2020-05-21T12:49:07Z</time>
      </trkpt>
      <trkpt lat="44.27756" lon="4.21297">
        <ele>298.63</ele>
        <time>2020-05-21T12:49:08Z</time>
      </trkpt>
      <trkpt lat="44.27756" lon="4.21297">
        <ele>298.63</ele>
        <time>2020-05-21T12:49:09Z</time>
      </trkpt>
      <trkpt lat="44.27755" lon="4.21297">
        <ele>307.28</ele>
        <time>2020-05-21T12:49:11Z</time>
      </trkpt>
      <trkpt lat="44.27755" lon="4.21296">
        <ele>311.6</ele>
        <time>2020-05-21T12:49:12Z</time>
      </trkpt>
      <trkpt lat="44.27755" lon="4.21296">
        <ele>301.99</ele>
        <time>2020-05-21T12:49:13Z</time>
      </trkpt>
      <trkpt lat="44.27754" lon="4.21296">
        <ele>299.59</ele>
        <time>2020-05-21T12:49:15Z</time>
      </trkpt>
      <trkpt lat="44.27759" lon="4.21301">
        <ele>300.55</ele>
        <time>2020-05-21T12:49:23Z</time>
      </trkpt>
      <trkpt lat="44.27763" lon="4.21311">
        <ele>300.07</ele>
        <time>2020-05-21T12:49:29Z</time>
      </trkpt>
      <trkpt lat="44.27765" lon="4.21316">
        <ele>298.63</ele>
        <time>2020-05-21T12:49:33Z</time>
      </trkpt>
      <trkpt lat="44.2777" lon="4.21329">
        <ele>301.51</ele>
        <time>2020-05-21T12:49:44Z</time>
      </trkpt>
      <trkpt lat="44.2777" lon="4.21331">
        <ele>299.59</ele>
        <time>2020-05-21T12:49:46Z</time>
      </trkpt>
      <trkpt lat="44.27771" lon="4.21333">
        <ele>301.03</ele>
        <time>2020-05-21T12:49:48Z</time>
      </trkpt>
      <trkpt lat="44.27774" lon="4.2135">
        <ele>302.95</ele>
        <time>2020-05-21T12:50:03Z</time>
      </trkpt>
      <trkpt lat="44.27774" lon="4.21352">
        <ele>301.51</ele>
        <time>2020-05-21T12:50:05Z</time>
      </trkpt>
      <trkpt lat="44.27775" lon="4.21354">
        <ele>302.95</ele>
        <time>2020-05-21T12:50:07Z</time>
      </trkpt>
      <trkpt lat="44.27773" lon="4.21374">
        <ele>305.36</ele>
        <time>2020-05-21T12:50:22Z</time>
      </trkpt>
      <trkpt lat="44.27774" lon="4.2138">
        <ele>306.32</ele>
        <time>2020-05-21T12:50:28Z</time>
      </trkpt>
      <trkpt lat="44.27774" lon="4.21382">
        <ele>304.39</ele>
        <time>2020-05-21T12:50:30Z</time>
      </trkpt>
      <trkpt lat="44.27779" lon="4.21392">
        <ele>306.8</ele>
        <time>2020-05-21T12:50:42Z</time>
      </trkpt>
      <trkpt lat="44.27784" lon="4.21402">
        <ele>309.68</ele>
        <time>2020-05-21T12:50:53Z</time>
      </trkpt>
      <trkpt lat="44.27784" lon="4.21403">
        <ele>307.76</ele>
        <time>2020-05-21T12:50:54Z</time>
      </trkpt>
      <trkpt lat="44.27785" lon="4.21404">
        <ele>311.6</ele>
        <time>2020-05-21T12:50:56Z</time>
      </trkpt>
      <trkpt lat="44.27785" lon="4.21405">
        <ele>307.28</ele>
        <time>2020-05-21T12:50:58Z</time>
      </trkpt>
      <trkpt lat="44.27786" lon="4.21407">
        <ele>310.64</ele>
        <time>2020-05-21T12:51:02Z</time>
      </trkpt>
      <trkpt lat="44.27792" lon="4.21419">
        <ele>314.01</ele>
        <time>2020-05-21T12:51:17Z</time>
      </trkpt>
      <trkpt lat="44.27793" lon="4.21423">
        <ele>310.16</ele>
        <time>2020-05-21T12:51:21Z</time>
      </trkpt>
      <trkpt lat="44.27795" lon="4.21426">
        <ele>314.01</ele>
        <time>2020-05-21T12:51:25Z</time>
      </trkpt>
      <trkpt lat="44.278" lon="4.21438">
        <ele>315.93</ele>
        <time>2020-05-21T12:51:41Z</time>
      </trkpt>
      <trkpt lat="44.27802" lon="4.21442">
        <ele>311.12</ele>
        <time>2020-05-21T12:51:47Z</time>
      </trkpt>
      <trkpt lat="44.27803" lon="4.21443">
        <ele>319.3</ele>
        <time>2020-05-21T12:51:48Z</time>
      </trkpt>
      <trkpt lat="44.27803" lon="4.21443">
        <ele>315.45</ele>
        <time>2020-05-21T12:51:49Z</time>
      </trkpt>
      <trkpt lat="44.27804" lon="4.21448">
        <ele>318.81</ele>
        <time>2020-05-21T12:51:55Z</time>
      </trkpt>
      <trkpt lat="44.27805" lon="4.21449">
        <ele>315.45</ele>
        <time>2020-05-21T12:51:56Z</time>
      </trkpt>
      <trkpt lat="44.27805" lon="4.21451">
        <ele>318.33</ele>
        <time>2020-05-21T12:51:58Z</time>
      </trkpt>
      <trkpt lat="44.27808" lon="4.21472">
        <ele>322.18</ele>
        <time>2020-05-21T12:52:20Z</time>
      </trkpt>
      <trkpt lat="44.27808" lon="4.21473">
        <ele>318.81</ele>
        <time>2020-05-21T12:52:22Z</time>
      </trkpt>
      <trkpt lat="44.27809" lon="4.21474">
        <ele>323.14</ele>
        <time>2020-05-21T12:52:23Z</time>
      </trkpt>
      <trkpt lat="44.27809" lon="4.21476">
        <ele>319.78</ele>
        <time>2020-05-21T12:52:28Z</time>
      </trkpt>
      <trkpt lat="44.2781" lon="4.21477">
        <ele>323.62</ele>
        <time>2020-05-21T12:52:29Z</time>
      </trkpt>
      <trkpt lat="44.27808" lon="4.21491">
        <ele>324.1</ele>
        <time>2020-05-21T12:52:44Z</time>
      </trkpt>
      <trkpt lat="44.27808" lon="4.21492">
        <ele>324.1</ele>
        <time>2020-05-21T12:52:45Z</time>
      </trkpt>
      <trkpt lat="44.27807" lon="4.21494">
        <ele>322.66</ele>
        <time>2020-05-21T12:52:47Z</time>
      </trkpt>
      <trkpt lat="44.27807" lon="4.21497">
        <ele>324.1</ele>
        <time>2020-05-21T12:52:49Z</time>
      </trkpt>
      <trkpt lat="44.27806" lon="4.21499">
        <ele>323.62</ele>
        <time>2020-05-21T12:52:51Z</time>
      </trkpt>
      <trkpt lat="44.27801" lon="4.21516">
        <ele>322.18</ele>
        <time>2020-05-21T12:53:06Z</time>
      </trkpt>
      <trkpt lat="44.27793" lon="4.21532">
        <ele>320.74</ele>
        <time>2020-05-21T12:53:25Z</time>
      </trkpt>
      <trkpt lat="44.27787" lon="4.21548">
        <ele>320.26</ele>
        <time>2020-05-21T12:53:44Z</time>
      </trkpt>
      <trkpt lat="44.27782" lon="4.21563">
        <ele>318.81</ele>
        <time>2020-05-21T12:54:01Z</time>
      </trkpt>
      <trkpt lat="44.27782" lon="4.21569">
        <ele>315.45</ele>
        <time>2020-05-21T12:54:09Z</time>
      </trkpt>
      <trkpt lat="44.27782" lon="4.21569">
        <ele>315.45</ele>
        <time>2020-05-21T12:54:10Z</time>
      </trkpt>
      <trkpt lat="44.27781" lon="4.21569">
        <ele>320.26</ele>
        <time>2020-05-21T12:54:12Z</time>
      </trkpt>
      <trkpt lat="44.27781" lon="4.2157">
        <ele>320.26</ele>
        <time>2020-05-21T12:54:13Z</time>
      </trkpt>
      <trkpt lat="44.27782" lon="4.21572">
        <ele>317.37</ele>
        <time>2020-05-21T12:54:15Z</time>
      </trkpt>
      <trkpt lat="44.27781" lon="4.21573">
        <ele>317.37</ele>
        <time>2020-05-21T12:54:16Z</time>
      </trkpt>
      <trkpt lat="44.27782" lon="4.21578">
        <ele>316.41</ele>
        <time>2020-05-21T12:54:36Z</time>
      </trkpt>
      <trkpt lat="44.27782" lon="4.21586">
        <ele>315.93</ele>
        <time>2020-05-21T12:54:58Z</time>
      </trkpt>
      <trkpt lat="44.2778" lon="4.21592">
        <ele>314.01</ele>
        <time>2020-05-21T12:55:21Z</time>
      </trkpt>
      <trkpt lat="44.2778" lon="4.21593">
        <ele>315.93</ele>
        <time>2020-05-21T12:55:24Z</time>
      </trkpt>
      <trkpt lat="44.27777" lon="4.21611">
        <ele>313.53</ele>
        <time>2020-05-21T12:55:42Z</time>
      </trkpt>
      <trkpt lat="44.27776" lon="4.21621">
        <ele>312.09</ele>
        <time>2020-05-21T12:55:52Z</time>
      </trkpt>
      <trkpt lat="44.27776" lon="4.21636">
        <ele>311.12</ele>
        <time>2020-05-21T12:56:05Z</time>
      </trkpt>
      <trkpt lat="44.27776" lon="4.21654">
        <ele>310.16</ele>
        <time>2020-05-21T12:56:23Z</time>
      </trkpt>
      <trkpt lat="44.27776" lon="4.21661">
        <ele>310.16</ele>
        <time>2020-05-21T12:56:30Z</time>
      </trkpt>
      <trkpt lat="44.27776" lon="4.21663">
        <ele>311.12</ele>
        <time>2020-05-21T12:56:32Z</time>
      </trkpt>
      <trkpt lat="44.27776" lon="4.2168">
        <ele>308.72</ele>
        <time>2020-05-21T12:56:47Z</time>
      </trkpt>
      <trkpt lat="44.27779" lon="4.21684">
        <ele>308.72</ele>
        <time>2020-05-21T12:56:51Z</time>
      </trkpt>
      <trkpt lat="44.2778" lon="4.21701">
        <ele>308.24</ele>
        <time>2020-05-21T12:57:07Z</time>
      </trkpt>
      <trkpt lat="44.27781" lon="4.21705">
        <ele>309.68</ele>
        <time>2020-05-21T12:57:11Z</time>
      </trkpt>
      <trkpt lat="44.27781" lon="4.21708">
        <ele>308.24</ele>
        <time>2020-05-21T12:57:13Z</time>
      </trkpt>
      <trkpt lat="44.27782" lon="4.21717">
        <ele>308.72</ele>
        <time>2020-05-21T12:57:21Z</time>
      </trkpt>
      <trkpt lat="44.27785" lon="4.21733">
        <ele>308.24</ele>
        <time>2020-05-21T12:57:35Z</time>
      </trkpt>
      <trkpt lat="44.27786" lon="4.21735">
        <ele>306.8</ele>
        <time>2020-05-21T12:57:37Z</time>
      </trkpt>
      <trkpt lat="44.2779" lon="4.21743">
        <ele>310.16</ele>
        <time>2020-05-21T12:57:49Z</time>
      </trkpt>
      <trkpt lat="44.2779" lon="4.21743">
        <ele>308.24</ele>
        <time>2020-05-21T12:57:50Z</time>
      </trkpt>
      <trkpt lat="44.27791" lon="4.21744">
        <ele>306.8</ele>
        <time>2020-05-21T12:57:52Z</time>
      </trkpt>
      <trkpt lat="44.27796" lon="4.21767">
        <ele>307.28</ele>
        <time>2020-05-21T12:58:11Z</time>
      </trkpt>
      <trkpt lat="44.27799" lon="4.21785">
        <ele>305.36</ele>
        <time>2020-05-21T12:58:26Z</time>
      </trkpt>
      <trkpt lat="44.27804" lon="4.21806">
        <ele>304.39</ele>
        <time>2020-05-21T12:58:45Z</time>
      </trkpt>
      <trkpt lat="44.27811" lon="4.21821">
        <ele>302.95</ele>
        <time>2020-05-21T12:59:02Z</time>
      </trkpt>
      <trkpt lat="44.27816" lon="4.21837">
        <ele>301.99</ele>
        <time>2020-05-21T12:59:20Z</time>
      </trkpt>
      <trkpt lat="44.27827" lon="4.21849">
        <ele>301.03</ele>
        <time>2020-05-21T12:59:37Z</time>
      </trkpt>
      <trkpt lat="44.27837" lon="4.21862">
        <ele>301.51</ele>
        <time>2020-05-21T12:59:53Z</time>
      </trkpt>
      <trkpt lat="44.27839" lon="4.21866">
        <ele>300.07</ele>
        <time>2020-05-21T12:59:56Z</time>
      </trkpt>
      <trkpt lat="44.2784" lon="4.21868">
        <ele>301.03</ele>
        <time>2020-05-21T12:59:58Z</time>
      </trkpt>
      <trkpt lat="44.27841" lon="4.21871">
        <ele>299.59</ele>
        <time>2020-05-21T13:00:00Z</time>
      </trkpt>
      <trkpt lat="44.27854" lon="4.21873">
        <ele>298.63</ele>
        <time>2020-05-21T13:00:19Z</time>
      </trkpt>
      <trkpt lat="44.27859" lon="4.21862">
        <ele>297.18</ele>
        <time>2020-05-21T13:00:34Z</time>
      </trkpt>
      <trkpt lat="44.27862" lon="4.21847">
        <ele>295.26</ele>
        <time>2020-05-21T13:00:49Z</time>
      </trkpt>
      <trkpt lat="44.27859" lon="4.21839">
        <ele>294.3</ele>
        <time>2020-05-21T13:01:07Z</time>
      </trkpt>
      <trkpt lat="44.27861" lon="4.21831">
        <ele>294.3</ele>
        <time>2020-05-21T13:01:31Z</time>
      </trkpt>
      <trkpt lat="44.27865" lon="4.21814">
        <ele>292.38</ele>
        <time>2020-05-21T13:01:49Z</time>
      </trkpt>
      <trkpt lat="44.27864" lon="4.21801">
        <ele>290.94</ele>
        <time>2020-05-21T13:02:03Z</time>
      </trkpt>
      <trkpt lat="44.27863" lon="4.21789">
        <ele>289.49</ele>
        <time>2020-05-21T13:02:19Z</time>
      </trkpt>
      <trkpt lat="44.27864" lon="4.21768">
        <ele>287.57</ele>
        <time>2020-05-21T13:02:39Z</time>
      </trkpt>
      <trkpt lat="44.27864" lon="4.21756">
        <ele>285.17</ele>
        <time>2020-05-21T13:02:52Z</time>
      </trkpt>
      <trkpt lat="44.27859" lon="4.21741">
        <ele>283.73</ele>
        <time>2020-05-21T13:03:09Z</time>
      </trkpt>
      <trkpt lat="44.27857" lon="4.21733">
        <ele>282.77</ele>
        <time>2020-05-21T13:03:29Z</time>
      </trkpt>
      <trkpt lat="44.27855" lon="4.21723">
        <ele>281.8</ele>
        <time>2020-05-21T13:03:39Z</time>
      </trkpt>
      <trkpt lat="44.27849" lon="4.21705">
        <ele>278.92</ele>
        <time>2020-05-21T13:03:57Z</time>
      </trkpt>
      <trkpt lat="44.27853" lon="4.21692">
        <ele>277</ele>
        <time>2020-05-21T13:04:13Z</time>
      </trkpt>
      <trkpt lat="44.27857" lon="4.21678">
        <ele>276.04</ele>
        <time>2020-05-21T13:04:31Z</time>
      </trkpt>
      <trkpt lat="44.27855" lon="4.21664">
        <ele>273.63</ele>
        <time>2020-05-21T13:04:46Z</time>
      </trkpt>
      <trkpt lat="44.27855" lon="4.21662">
        <ele>275.07</ele>
        <time>2020-05-21T13:04:48Z</time>
      </trkpt>
      <trkpt lat="44.27861" lon="4.21659">
        <ele>273.63</ele>
        <time>2020-05-21T13:04:57Z</time>
      </trkpt>
      <trkpt lat="44.27873" lon="4.21666">
        <ele>274.59</ele>
        <time>2020-05-21T13:05:09Z</time>
      </trkpt>
      <trkpt lat="44.27876" lon="4.21667">
        <ele>272.67</ele>
        <time>2020-05-21T13:05:12Z</time>
      </trkpt>
      <trkpt lat="44.27878" lon="4.21667">
        <ele>274.59</ele>
        <time>2020-05-21T13:05:14Z</time>
      </trkpt>
      <trkpt lat="44.2788" lon="4.21668">
        <ele>273.15</ele>
        <time>2020-05-21T13:05:16Z</time>
      </trkpt>
      <trkpt lat="44.27894" lon="4.21662">
        <ele>272.19</ele>
        <time>2020-05-21T13:05:33Z</time>
      </trkpt>
      <trkpt lat="44.27905" lon="4.2166">
        <ele>271.71</ele>
        <time>2020-05-21T13:05:53Z</time>
      </trkpt>
      <trkpt lat="44.27904" lon="4.2166">
        <ele>272.67</ele>
        <time>2020-05-21T13:06:00Z</time>
      </trkpt>
      <trkpt lat="44.27912" lon="4.21655">
        <ele>270.75</ele>
        <time>2020-05-21T13:06:22Z</time>
      </trkpt>
      <trkpt lat="44.27913" lon="4.21655">
        <ele>272.19</ele>
        <time>2020-05-21T13:06:23Z</time>
      </trkpt>
      <trkpt lat="44.27921" lon="4.21649">
        <ele>270.75</ele>
        <time>2020-05-21T13:06:31Z</time>
      </trkpt>
      <trkpt lat="44.27933" lon="4.21637">
        <ele>270.75</ele>
        <time>2020-05-21T13:06:47Z</time>
      </trkpt>
      <trkpt lat="44.27937" lon="4.21632">
        <ele>271.23</ele>
        <time>2020-05-21T13:06:52Z</time>
      </trkpt>
      <trkpt lat="44.27943" lon="4.21621">
        <ele>270.75</ele>
        <time>2020-05-21T13:07:02Z</time>
      </trkpt>
      <trkpt lat="44.2795" lon="4.21605">
        <ele>268.83</ele>
        <time>2020-05-21T13:07:17Z</time>
      </trkpt>
      <trkpt lat="44.27954" lon="4.21594">
        <ele>266.9</ele>
        <time>2020-05-21T13:07:32Z</time>
      </trkpt>
      <trkpt lat="44.27958" lon="4.21589">
        <ele>266.9</ele>
        <time>2020-05-21T13:07:38Z</time>
      </trkpt>
      <trkpt lat="44.27962" lon="4.21584">
        <ele>267.86</ele>
        <time>2020-05-21T13:07:44Z</time>
      </trkpt>
      <trkpt lat="44.27965" lon="4.21582">
        <ele>265.94</ele>
        <time>2020-05-21T13:07:50Z</time>
      </trkpt>
      <trkpt lat="44.27967" lon="4.21573">
        <ele>265.94</ele>
        <time>2020-05-21T13:07:59Z</time>
      </trkpt>
      <trkpt lat="44.27971" lon="4.21568">
        <ele>266.42</ele>
        <time>2020-05-21T13:08:04Z</time>
      </trkpt>
      <trkpt lat="44.27973" lon="4.21565">
        <ele>264.5</ele>
        <time>2020-05-21T13:08:07Z</time>
      </trkpt>
      <trkpt lat="44.27982" lon="4.21557">
        <ele>264.5</ele>
        <time>2020-05-21T13:08:23Z</time>
      </trkpt>
      <trkpt lat="44.27985" lon="4.21555">
        <ele>263.06</ele>
        <time>2020-05-21T13:08:27Z</time>
      </trkpt>
      <trkpt lat="44.27982" lon="4.2154">
        <ele>262.58</ele>
        <time>2020-05-21T13:08:40Z</time>
      </trkpt>
      <trkpt lat="44.27977" lon="4.2152">
        <ele>261.62</ele>
        <time>2020-05-21T13:08:57Z</time>
      </trkpt>
      <trkpt lat="44.27976" lon="4.21506">
        <ele>260.65</ele>
        <time>2020-05-21T13:09:09Z</time>
      </trkpt>
      <trkpt lat="44.27973" lon="4.21493">
        <ele>261.14</ele>
        <time>2020-05-21T13:09:19Z</time>
      </trkpt>
      <trkpt lat="44.27971" lon="4.21472">
        <ele>260.17</ele>
        <time>2020-05-21T13:09:36Z</time>
      </trkpt>
      <trkpt lat="44.27966" lon="4.21454">
        <ele>258.73</ele>
        <time>2020-05-21T13:09:53Z</time>
      </trkpt>
      <trkpt lat="44.27961" lon="4.21432">
        <ele>257.29</ele>
        <time>2020-05-21T13:10:12Z</time>
      </trkpt>
      <trkpt lat="44.27957" lon="4.21415">
        <ele>255.37</ele>
        <time>2020-05-21T13:10:29Z</time>
      </trkpt>
      <trkpt lat="44.27953" lon="4.21399">
        <ele>253.93</ele>
        <time>2020-05-21T13:10:44Z</time>
      </trkpt>
      <trkpt lat="44.27948" lon="4.21375">
        <ele>251.52</ele>
        <time>2020-05-21T13:11:04Z</time>
      </trkpt>
      <trkpt lat="44.27945" lon="4.21367">
        <ele>250.56</ele>
        <time>2020-05-21T13:11:11Z</time>
      </trkpt>
      <trkpt lat="44.27944" lon="4.21363">
        <ele>250.56</ele>
        <time>2020-05-21T13:11:15Z</time>
      </trkpt>
      <trkpt lat="44.27937" lon="4.21344">
        <ele>249.12</ele>
        <time>2020-05-21T13:11:31Z</time>
      </trkpt>
      <trkpt lat="44.27932" lon="4.21325">
        <ele>247.2</ele>
        <time>2020-05-21T13:11:47Z</time>
      </trkpt>
      <trkpt lat="44.27926" lon="4.21303">
        <ele>245.75</ele>
        <time>2020-05-21T13:12:04Z</time>
      </trkpt>
      <trkpt lat="44.27925" lon="4.21281">
        <ele>244.31</ele>
        <time>2020-05-21T13:12:21Z</time>
      </trkpt>
      <trkpt lat="44.27928" lon="4.21266">
        <ele>244.79</ele>
        <time>2020-05-21T13:12:31Z</time>
      </trkpt>
      <trkpt lat="44.27928" lon="4.21248">
        <ele>243.35</ele>
        <time>2020-05-21T13:12:48Z</time>
      </trkpt>
      <trkpt lat="44.27928" lon="4.21242">
        <ele>242.87</ele>
        <time>2020-05-21T13:13:13Z</time>
      </trkpt>
      <trkpt lat="44.27924" lon="4.2122">
        <ele>241.43</ele>
        <time>2020-05-21T13:13:29Z</time>
      </trkpt>
      <trkpt lat="44.27919" lon="4.21198">
        <ele>240.47</ele>
        <time>2020-05-21T13:13:47Z</time>
      </trkpt>
      <trkpt lat="44.27918" lon="4.21192">
        <ele>240.47</ele>
        <time>2020-05-21T13:13:51Z</time>
      </trkpt>
      <trkpt lat="44.27917" lon="4.21183">
        <ele>240.47</ele>
        <time>2020-05-21T13:13:57Z</time>
      </trkpt>
      <trkpt lat="44.2792" lon="4.21161">
        <ele>239.51</ele>
        <time>2020-05-21T13:14:13Z</time>
      </trkpt>
      <trkpt lat="44.2792" lon="4.21142">
        <ele>238.06</ele>
        <time>2020-05-21T13:14:27Z</time>
      </trkpt>
      <trkpt lat="44.2791" lon="4.21125">
        <ele>238.06</ele>
        <time>2020-05-21T13:14:42Z</time>
      </trkpt>
      <trkpt lat="44.27907" lon="4.21121">
        <ele>236.62</ele>
        <time>2020-05-21T13:14:46Z</time>
      </trkpt>
      <trkpt lat="44.27896" lon="4.21106">
        <ele>235.66</ele>
        <time>2020-05-21T13:15:04Z</time>
      </trkpt>
      <trkpt lat="44.27881" lon="4.21092">
        <ele>232.78</ele>
        <time>2020-05-21T13:15:21Z</time>
      </trkpt>
      <trkpt lat="44.27868" lon="4.21091">
        <ele>231.33</ele>
        <time>2020-05-21T13:15:34Z</time>
      </trkpt>
      <trkpt lat="44.27854" lon="4.21083">
        <ele>229.41</ele>
        <time>2020-05-21T13:15:51Z</time>
      </trkpt>
      <trkpt lat="44.27848" lon="4.21062">
        <ele>227.49</ele>
        <time>2020-05-21T13:16:11Z</time>
      </trkpt>
      <trkpt lat="44.27842" lon="4.2104">
        <ele>225.57</ele>
        <time>2020-05-21T13:16:30Z</time>
      </trkpt>
      <trkpt lat="44.27839" lon="4.21019">
        <ele>223.64</ele>
        <time>2020-05-21T13:16:47Z</time>
      </trkpt>
      <trkpt lat="44.27837" lon="4.21007">
        <ele>222.2</ele>
        <time>2020-05-21T13:16:57Z</time>
      </trkpt>
      <trkpt lat="44.27835" lon="4.20997">
        <ele>221.72</ele>
        <time>2020-05-21T13:17:04Z</time>
      </trkpt>
      <trkpt lat="44.27825" lon="4.20978">
        <ele>219.8</ele>
        <time>2020-05-21T13:17:21Z</time>
      </trkpt>
      <trkpt lat="44.27818" lon="4.20962">
        <ele>218.36</ele>
        <time>2020-05-21T13:17:37Z</time>
      </trkpt>
      <trkpt lat="44.2781" lon="4.20944">
        <ele>216.43</ele>
        <time>2020-05-21T13:17:53Z</time>
      </trkpt>
      <trkpt lat="44.27802" lon="4.20926">
        <ele>215.47</ele>
        <time>2020-05-21T13:18:10Z</time>
      </trkpt>
      <trkpt lat="44.27793" lon="4.20909">
        <ele>214.51</ele>
        <time>2020-05-21T13:18:26Z</time>
      </trkpt>
      <trkpt lat="44.27781" lon="4.2089">
        <ele>212.11</ele>
        <time>2020-05-21T13:18:44Z</time>
      </trkpt>
      <trkpt lat="44.27773" lon="4.20879">
        <ele>211.15</ele>
        <time>2020-05-21T13:18:57Z</time>
      </trkpt>
      <trkpt lat="44.27759" lon="4.20863">
        <ele>209.7</ele>
        <time>2020-05-21T13:19:15Z</time>
      </trkpt>
      <trkpt lat="44.27748" lon="4.20846">
        <ele>208.26</ele>
        <time>2020-05-21T13:19:32Z</time>
      </trkpt>
      <trkpt lat="44.27738" lon="4.20829">
        <ele>206.82</ele>
        <time>2020-05-21T13:19:51Z</time>
      </trkpt>
      <trkpt lat="44.27731" lon="4.2082">
        <ele>204.9</ele>
        <time>2020-05-21T13:20:09Z</time>
      </trkpt>
      <trkpt lat="44.2772" lon="4.20806">
        <ele>202.98</ele>
        <time>2020-05-21T13:20:27Z</time>
      </trkpt>
      <trkpt lat="44.27706" lon="4.20784">
        <ele>202.49</ele>
        <time>2020-05-21T13:20:46Z</time>
      </trkpt>
      <trkpt lat="44.27697" lon="4.20763">
        <ele>200.57</ele>
        <time>2020-05-21T13:21:05Z</time>
      </trkpt>
      <trkpt lat="44.27693" lon="4.20741">
        <ele>198.65</ele>
        <time>2020-05-21T13:21:24Z</time>
      </trkpt>
      <trkpt lat="44.27692" lon="4.20732">
        <ele>197.69</ele>
        <time>2020-05-21T13:21:30Z</time>
      </trkpt>
      <trkpt lat="44.2769" lon="4.20714">
        <ele>196.73</ele>
        <time>2020-05-21T13:21:46Z</time>
      </trkpt>
      <trkpt lat="44.27684" lon="4.20692">
        <ele>195.77</ele>
        <time>2020-05-21T13:22:05Z</time>
      </trkpt>
      <trkpt lat="44.27676" lon="4.20671">
        <ele>193.36</ele>
        <time>2020-05-21T13:22:24Z</time>
      </trkpt>
      <trkpt lat="44.27669" lon="4.20651">
        <ele>191.92</ele>
        <time>2020-05-21T13:22:42Z</time>
      </trkpt>
      <trkpt lat="44.2766" lon="4.20638">
        <ele>190.96</ele>
        <time>2020-05-21T13:22:57Z</time>
      </trkpt>
      <trkpt lat="44.27652" lon="4.20624">
        <ele>189.04</ele>
        <time>2020-05-21T13:23:13Z</time>
      </trkpt>
      <trkpt lat="44.27647" lon="4.20604">
        <ele>189.04</ele>
        <time>2020-05-21T13:23:30Z</time>
      </trkpt>
      <trkpt lat="44.27643" lon="4.20593">
        <ele>180.38</ele>
        <time>2020-05-21T13:23:41Z</time>
      </trkpt>
      <trkpt lat="44.27642" lon="4.20592">
        <ele>193.36</ele>
        <time>2020-05-21T13:23:42Z</time>
      </trkpt>
      <trkpt lat="44.27642" lon="4.20591">
        <ele>189.52</ele>
        <time>2020-05-21T13:23:43Z</time>
      </trkpt>
      <trkpt lat="44.27643" lon="4.20582">
        <ele>186.15</ele>
        <time>2020-05-21T13:23:51Z</time>
      </trkpt>
      <trkpt lat="44.2765" lon="4.20563">
        <ele>184.71</ele>
        <time>2020-05-21T13:24:08Z</time>
      </trkpt>
      <trkpt lat="44.27656" lon="4.20556">
        <ele>185.19</ele>
        <time>2020-05-21T13:24:16Z</time>
      </trkpt>
      <trkpt lat="44.27657" lon="4.20554">
        <ele>183.75</ele>
        <time>2020-05-21T13:24:18Z</time>
      </trkpt>
      <trkpt lat="44.27668" lon="4.20543">
        <ele>182.31</ele>
        <time>2020-05-21T13:24:35Z</time>
      </trkpt>
      <trkpt lat="44.27675" lon="4.2053">
        <ele>180.38</ele>
        <time>2020-05-21T13:24:50Z</time>
      </trkpt>
      <trkpt lat="44.27679" lon="4.20521">
        <ele>178.94</ele>
        <time>2020-05-21T13:25:07Z</time>
      </trkpt>
      <trkpt lat="44.2768" lon="4.20513">
        <ele>178.46</ele>
        <time>2020-05-21T13:25:37Z</time>
      </trkpt>
      <trkpt lat="44.27682" lon="4.20499">
        <ele>177.5</ele>
        <time>2020-05-21T13:25:50Z</time>
      </trkpt>
      <trkpt lat="44.2768" lon="4.20474">
        <ele>175.58</ele>
        <time>2020-05-21T13:26:09Z</time>
      </trkpt>
      <trkpt lat="44.27679" lon="4.20464">
        <ele>174.14</ele>
        <time>2020-05-21T13:26:18Z</time>
      </trkpt>
      <trkpt lat="44.27678" lon="4.20441">
        <ele>173.17</ele>
        <time>2020-05-21T13:26:35Z</time>
      </trkpt>
      <trkpt lat="44.27678" lon="4.20436">
        <ele>174.14</ele>
        <time>2020-05-21T13:26:39Z</time>
      </trkpt>
      <trkpt lat="44.27679" lon="4.20414">
        <ele>174.14</ele>
        <time>2020-05-21T13:26:52Z</time>
      </trkpt>
      <trkpt lat="44.27679" lon="4.2041">
        <ele>172.69</ele>
        <time>2020-05-21T13:26:56Z</time>
      </trkpt>
      <trkpt lat="44.27679" lon="4.20406">
        <ele>173.66</ele>
        <time>2020-05-21T13:27:02Z</time>
      </trkpt>
      <trkpt lat="44.2768" lon="4.20381">
        <ele>171.73</ele>
        <time>2020-05-21T13:27:18Z</time>
      </trkpt>
      <trkpt lat="44.27684" lon="4.20359">
        <ele>173.17</ele>
        <time>2020-05-21T13:27:34Z</time>
      </trkpt>
      <trkpt lat="44.27684" lon="4.20358">
        <ele>173.17</ele>
        <time>2020-05-21T13:27:35Z</time>
      </trkpt>
      <trkpt lat="44.27683" lon="4.2035">
        <ele>171.73</ele>
        <time>2020-05-21T13:27:39Z</time>
      </trkpt>
      <trkpt lat="44.27684" lon="4.20328">
        <ele>170.29</ele>
        <time>2020-05-21T13:27:54Z</time>
      </trkpt>
      <trkpt lat="44.27684" lon="4.20318">
        <ele>170.29</ele>
        <time>2020-05-21T13:28:00Z</time>
      </trkpt>
      <trkpt lat="44.27685" lon="4.20297">
        <ele>169.81</ele>
        <time>2020-05-21T13:28:16Z</time>
      </trkpt>
      <trkpt lat="44.27685" lon="4.20294">
        <ele>169.81</ele>
        <time>2020-05-21T13:28:18Z</time>
      </trkpt>
      <trkpt lat="44.27689" lon="4.20273">
        <ele>169.81</ele>
        <time>2020-05-21T13:28:34Z</time>
      </trkpt>
      <trkpt lat="44.27689" lon="4.20258">
        <ele>168.85</ele>
        <time>2020-05-21T13:28:45Z</time>
      </trkpt>
      <trkpt lat="44.27688" lon="4.20227">
        <ele>168.37</ele>
        <time>2020-05-21T13:29:03Z</time>
      </trkpt>
      <trkpt lat="44.27689" lon="4.20207">
        <ele>167.89</ele>
        <time>2020-05-21T13:29:17Z</time>
      </trkpt>
      <trkpt lat="44.2769" lon="4.20189">
        <ele>168.85</ele>
        <time>2020-05-21T13:29:30Z</time>
      </trkpt>
      <trkpt lat="44.2769" lon="4.20185">
        <ele>167.89</ele>
        <time>2020-05-21T13:29:32Z</time>
      </trkpt>
      <trkpt lat="44.2769" lon="4.2018">
        <ele>167.89</ele>
        <time>2020-05-21T13:29:36Z</time>
      </trkpt>
      <trkpt lat="44.27695" lon="4.20158">
        <ele>168.85</ele>
        <time>2020-05-21T13:29:52Z</time>
      </trkpt>
      <trkpt lat="44.27697" lon="4.20147">
        <ele>165.96</ele>
        <time>2020-05-21T13:30:02Z</time>
      </trkpt>
      <trkpt lat="44.27697" lon="4.20146">
        <ele>169.33</ele>
        <time>2020-05-21T13:30:03Z</time>
      </trkpt>
      <trkpt lat="44.27705" lon="4.20125">
        <ele>167.41</ele>
        <time>2020-05-21T13:30:21Z</time>
      </trkpt>
      <trkpt lat="44.27708" lon="4.20118">
        <ele>166.45</ele>
        <time>2020-05-21T13:30:27Z</time>
      </trkpt>
      <trkpt lat="44.27717" lon="4.201">
        <ele>166.45</ele>
        <time>2020-05-21T13:30:46Z</time>
      </trkpt>
      <trkpt lat="44.27723" lon="4.20076">
        <ele>165</ele>
        <time>2020-05-21T13:31:03Z</time>
      </trkpt>
      <trkpt lat="44.27723" lon="4.2007">
        <ele>165.48</ele>
        <time>2020-05-21T13:31:07Z</time>
      </trkpt>
      <trkpt lat="44.27725" lon="4.20053">
        <ele>163.08</ele>
        <time>2020-05-21T13:31:25Z</time>
      </trkpt>
      <trkpt lat="44.27724" lon="4.2005">
        <ele>164.52</ele>
        <time>2020-05-21T13:31:32Z</time>
      </trkpt>
      <trkpt lat="44.27724" lon="4.20046">
        <ele>163.08</ele>
        <time>2020-05-21T13:31:36Z</time>
      </trkpt>
      <trkpt lat="44.2773" lon="4.20018">
        <ele>162.6</ele>
        <time>2020-05-21T13:31:56Z</time>
      </trkpt>
      <trkpt lat="44.27733" lon="4.20005">
        <ele>161.16</ele>
        <time>2020-05-21T13:32:12Z</time>
      </trkpt>
      <trkpt lat="44.27737" lon="4.20002">
        <ele>161.16</ele>
        <time>2020-05-21T13:32:29Z</time>
      </trkpt>
      <trkpt lat="44.27735" lon="4.19994">
        <ele>160.68</ele>
        <time>2020-05-21T13:32:42Z</time>
      </trkpt>
      <trkpt lat="44.27728" lon="4.19989">
        <ele>157.79</ele>
        <time>2020-05-21T13:32:55Z</time>
      </trkpt>
      <trkpt lat="44.27729" lon="4.19991">
        <ele>162.6</ele>
        <time>2020-05-21T13:32:56Z</time>
      </trkpt>
      <trkpt lat="44.27729" lon="4.19993">
        <ele>158.75</ele>
        <time>2020-05-21T13:32:57Z</time>
      </trkpt>
      <trkpt lat="44.27729" lon="4.19992">
        <ele>162.12</ele>
        <time>2020-05-21T13:33:00Z</time>
      </trkpt>
      <trkpt lat="44.27729" lon="4.19992">
        <ele>162.12</ele>
        <time>2020-05-21T13:33:01Z</time>
      </trkpt>
      <trkpt lat="44.2773" lon="4.19991">
        <ele>160.2</ele>
        <time>2020-05-21T13:33:04Z</time>
      </trkpt>
      <trkpt lat="44.27735" lon="4.19989">
        <ele>162.12</ele>
        <time>2020-05-21T13:33:14Z</time>
      </trkpt>
      <trkpt lat="44.27735" lon="4.19988">
        <ele>159.72</ele>
        <time>2020-05-21T13:33:18Z</time>
      </trkpt>
      <trkpt lat="44.27746" lon="4.19983">
        <ele>161.16</ele>
        <time>2020-05-21T13:33:33Z</time>
      </trkpt>
      <trkpt lat="44.27752" lon="4.19977">
        <ele>161.64</ele>
        <time>2020-05-21T13:33:42Z</time>
      </trkpt>
      <trkpt lat="44.27754" lon="4.19965">
        <ele>161.64</ele>
        <time>2020-05-21T13:34:00Z</time>
      </trkpt>
      <trkpt lat="44.27755" lon="4.19965">
        <ele>158.27</ele>
        <time>2020-05-21T13:34:04Z</time>
      </trkpt>
      <trkpt lat="44.27754" lon="4.19963">
        <ele>162.12</ele>
        <time>2020-05-21T13:34:05Z</time>
      </trkpt>
      <trkpt lat="44.27752" lon="4.19956">
        <ele>160.68</ele>
        <time>2020-05-21T13:34:09Z</time>
      </trkpt>
      <trkpt lat="44.27751" lon="4.1995">
        <ele>162.12</ele>
        <time>2020-05-21T13:34:12Z</time>
      </trkpt>
      <trkpt lat="44.2775" lon="4.19949">
        <ele>162.12</ele>
        <time>2020-05-21T13:34:13Z</time>
      </trkpt>
      <trkpt lat="44.27751" lon="4.19946">
        <ele>160.68</ele>
        <time>2020-05-21T13:34:17Z</time>
      </trkpt>
      <trkpt lat="44.27751" lon="4.19945">
        <ele>162.6</ele>
        <time>2020-05-21T13:34:19Z</time>
      </trkpt>
      <trkpt lat="44.27752" lon="4.19945">
        <ele>161.16</ele>
        <time>2020-05-21T13:34:21Z</time>
      </trkpt>
      <trkpt lat="44.27749" lon="4.19933">
        <ele>161.64</ele>
        <time>2020-05-21T13:34:32Z</time>
      </trkpt>
      <trkpt lat="44.27748" lon="4.19926">
        <ele>163.08</ele>
        <time>2020-05-21T13:34:37Z</time>
      </trkpt>
      <trkpt lat="44.27744" lon="4.19909">
        <ele>163.56</ele>
        <time>2020-05-21T13:34:49Z</time>
      </trkpt>
      <trkpt lat="44.27744" lon="4.19902">
        <ele>165</ele>
        <time>2020-05-21T13:34:53Z</time>
      </trkpt>
      <trkpt lat="44.27745" lon="4.19899">
        <ele>162.6</ele>
        <time>2020-05-21T13:34:55Z</time>
      </trkpt>
      <trkpt lat="44.27746" lon="4.19894">
        <ele>163.08</ele>
        <time>2020-05-21T13:34:59Z</time>
      </trkpt>
      <trkpt lat="44.27746" lon="4.19888">
        <ele>165.96</ele>
        <time>2020-05-21T13:35:05Z</time>
      </trkpt>
      <trkpt lat="44.27746" lon="4.19884">
        <ele>164.52</ele>
        <time>2020-05-21T13:35:07Z</time>
      </trkpt>
      <trkpt lat="44.27746" lon="4.19882">
        <ele>165.48</ele>
        <time>2020-05-21T13:35:09Z</time>
      </trkpt>
      <trkpt lat="44.27748" lon="4.19866">
        <ele>164.04</ele>
        <time>2020-05-21T13:35:21Z</time>
      </trkpt>
      <trkpt lat="44.27755" lon="4.19858">
        <ele>165.48</ele>
        <time>2020-05-21T13:35:33Z</time>
      </trkpt>
      <trkpt lat="44.27758" lon="4.19859">
        <ele>162.12</ele>
        <time>2020-05-21T13:35:43Z</time>
      </trkpt>
      <trkpt lat="44.27758" lon="4.19859">
        <ele>168.85</ele>
        <time>2020-05-21T13:35:44Z</time>
      </trkpt>
      <trkpt lat="44.27758" lon="4.19859">
        <ele>166.45</ele>
        <time>2020-05-21T13:35:45Z</time>
      </trkpt>
      <trkpt lat="44.27754" lon="4.19859">
        <ele>169.81</ele>
        <time>2020-05-21T13:35:54Z</time>
      </trkpt>
      <trkpt lat="44.27751" lon="4.19856">
        <ele>165.96</ele>
        <time>2020-05-21T13:35:59Z</time>
      </trkpt>
      <trkpt lat="44.2775" lon="4.19853">
        <ele>169.33</ele>
        <time>2020-05-21T13:36:01Z</time>
      </trkpt>
      <trkpt lat="44.2775" lon="4.19847">
        <ele>169.33</ele>
        <time>2020-05-21T13:36:05Z</time>
      </trkpt>
      <trkpt lat="44.27752" lon="4.1984">
        <ele>167.89</ele>
        <time>2020-05-21T13:36:11Z</time>
      </trkpt>
      <trkpt lat="44.27752" lon="4.19839">
        <ele>171.73</ele>
        <time>2020-05-21T13:36:12Z</time>
      </trkpt>
      <trkpt lat="44.27752" lon="4.19837">
        <ele>169.33</ele>
        <time>2020-05-21T13:36:13Z</time>
      </trkpt>
      <trkpt lat="44.2775" lon="4.1983">
        <ele>173.17</ele>
        <time>2020-05-21T13:36:19Z</time>
      </trkpt>
      <trkpt lat="44.2775" lon="4.19827">
        <ele>169.81</ele>
        <time>2020-05-21T13:36:21Z</time>
      </trkpt>
      <trkpt lat="44.2775" lon="4.19824">
        <ele>173.66</ele>
        <time>2020-05-21T13:36:23Z</time>
      </trkpt>
      <trkpt lat="44.2775" lon="4.19823">
        <ele>170.77</ele>
        <time>2020-05-21T13:36:24Z</time>
      </trkpt>
      <trkpt lat="44.2775" lon="4.19814">
        <ele>172.21</ele>
        <time>2020-05-21T13:36:31Z</time>
      </trkpt>
      <trkpt lat="44.2775" lon="4.19814">
        <ele>169.33</ele>
        <time>2020-05-21T13:36:32Z</time>
      </trkpt>
      <trkpt lat="44.27751" lon="4.19814">
        <ele>175.58</ele>
        <time>2020-05-21T13:36:33Z</time>
      </trkpt>
      <trkpt lat="44.27751" lon="4.19813">
        <ele>172.69</ele>
        <time>2020-05-21T13:36:35Z</time>
      </trkpt>
      <trkpt lat="44.27751" lon="4.19808">
        <ele>177.02</ele>
        <time>2020-05-21T13:36:40Z</time>
      </trkpt>
      <trkpt lat="44.27751" lon="4.19807">
        <ele>173.17</ele>
        <time>2020-05-21T13:36:41Z</time>
      </trkpt>
      <trkpt lat="44.27751" lon="4.19806">
        <ele>173.17</ele>
        <time>2020-05-21T13:37:02Z</time>
      </trkpt>
      <trkpt lat="44.27753" lon="4.19802">
        <ele>175.58</ele>
        <time>2020-05-21T13:37:05Z</time>
      </trkpt>
      <trkpt lat="44.27761" lon="4.19797">
        <ele>175.58</ele>
        <time>2020-05-21T13:37:19Z</time>
      </trkpt>
      <trkpt lat="44.27763" lon="4.19794">
        <ele>177.02</ele>
        <time>2020-05-21T13:37:35Z</time>
      </trkpt>
      <trkpt lat="44.27763" lon="4.19795">
        <ele>172.69</ele>
        <time>2020-05-21T13:37:37Z</time>
      </trkpt>
      <trkpt lat="44.27763" lon="4.19795">
        <ele>177.02</ele>
        <time>2020-05-21T13:37:38Z</time>
      </trkpt>
      <trkpt lat="44.27763" lon="4.19795">
        <ele>181.35</ele>
        <time>2020-05-21T13:37:41Z</time>
      </trkpt>
      <trkpt lat="44.27764" lon="4.19795">
        <ele>179.9</ele>
        <time>2020-05-21T13:37:42Z</time>
      </trkpt>
      <trkpt lat="44.27764" lon="4.19795">
        <ele>174.14</ele>
        <time>2020-05-21T13:37:43Z</time>
      </trkpt>
      <trkpt lat="44.27765" lon="4.19794">
        <ele>179.42</ele>
        <time>2020-05-21T13:37:44Z</time>
      </trkpt>
      <trkpt lat="44.27765" lon="4.19794">
        <ele>176.06</ele>
        <time>2020-05-21T13:37:45Z</time>
      </trkpt>
      <trkpt lat="44.27765" lon="4.19793">
        <ele>180.87</ele>
        <time>2020-05-21T13:37:47Z</time>
      </trkpt>
      <trkpt lat="44.27766" lon="4.19792">
        <ele>177.5</ele>
        <time>2020-05-21T13:37:48Z</time>
      </trkpt>
      <trkpt lat="44.27767" lon="4.19789">
        <ele>179.42</ele>
        <time>2020-05-21T13:37:51Z</time>
      </trkpt>
      <trkpt lat="44.27762" lon="4.19782">
        <ele>178.46</ele>
        <time>2020-05-21T13:38:00Z</time>
      </trkpt>
      <trkpt lat="44.2776" lon="4.19781">
        <ele>183.75</ele>
        <time>2020-05-21T13:38:03Z</time>
      </trkpt>
      <trkpt lat="44.27759" lon="4.19781">
        <ele>179.9</ele>
        <time>2020-05-21T13:38:04Z</time>
      </trkpt>
      <trkpt lat="44.27766" lon="4.19772">
        <ele>183.27</ele>
        <time>2020-05-21T13:38:25Z</time>
      </trkpt>
      <trkpt lat="44.27767" lon="4.1977">
        <ele>180.38</ele>
        <time>2020-05-21T13:38:30Z</time>
      </trkpt>
      <trkpt lat="44.27766" lon="4.1977">
        <ele>184.23</ele>
        <time>2020-05-21T13:38:31Z</time>
      </trkpt>
      <trkpt lat="44.27761" lon="4.19765">
        <ele>181.83</ele>
        <time>2020-05-21T13:38:37Z</time>
      </trkpt>
      <trkpt lat="44.2776" lon="4.19764">
        <ele>185.67</ele>
        <time>2020-05-21T13:38:38Z</time>
      </trkpt>
      <trkpt lat="44.27754" lon="4.19755">
        <ele>181.83</ele>
        <time>2020-05-21T13:38:59Z</time>
      </trkpt>
      <trkpt lat="44.27755" lon="4.19754">
        <ele>186.15</ele>
        <time>2020-05-21T13:39:00Z</time>
      </trkpt>
      <trkpt lat="44.27755" lon="4.19754">
        <ele>186.15</ele>
        <time>2020-05-21T13:39:01Z</time>
      </trkpt>
      <trkpt lat="44.27757" lon="4.19753">
        <ele>183.75</ele>
        <time>2020-05-21T13:39:03Z</time>
      </trkpt>
      <trkpt lat="44.27757" lon="4.19753">
        <ele>187.59</ele>
        <time>2020-05-21T13:39:04Z</time>
      </trkpt>
      <trkpt lat="44.2776" lon="4.1975">
        <ele>184.23</ele>
        <time>2020-05-21T13:39:09Z</time>
      </trkpt>
      <trkpt lat="44.27762" lon="4.19749">
        <ele>188.08</ele>
        <time>2020-05-21T13:39:14Z</time>
      </trkpt>
      <trkpt lat="44.27763" lon="4.19744">
        <ele>188.08</ele>
        <time>2020-05-21T13:39:21Z</time>
      </trkpt>
      <trkpt lat="44.27763" lon="4.19743">
        <ele>183.75</ele>
        <time>2020-05-21T13:39:22Z</time>
      </trkpt>
      <trkpt lat="44.27763" lon="4.19742">
        <ele>191.44</ele>
        <time>2020-05-21T13:39:23Z</time>
      </trkpt>
      <trkpt lat="44.27763" lon="4.19741">
        <ele>185.19</ele>
        <time>2020-05-21T13:39:24Z</time>
      </trkpt>
      <trkpt lat="44.27763" lon="4.1974">
        <ele>190.48</ele>
        <time>2020-05-21T13:39:25Z</time>
      </trkpt>
      <trkpt lat="44.27762" lon="4.19737">
        <ele>186.63</ele>
        <time>2020-05-21T13:39:27Z</time>
      </trkpt>
      <trkpt lat="44.27763" lon="4.19736">
        <ele>190</ele>
        <time>2020-05-21T13:39:28Z</time>
      </trkpt>
      <trkpt lat="44.27766" lon="4.19729">
        <ele>190</ele>
        <time>2020-05-21T13:39:34Z</time>
      </trkpt>
      <trkpt lat="44.27779" lon="4.19722">
        <ele>193.36</ele>
        <time>2020-05-21T13:39:51Z</time>
      </trkpt>
      <trkpt lat="44.27791" lon="4.19712">
        <ele>194.8</ele>
        <time>2020-05-21T13:40:07Z</time>
      </trkpt>
      <trkpt lat="44.27799" lon="4.197">
        <ele>194.32</ele>
        <time>2020-05-21T13:40:23Z</time>
      </trkpt>
      <trkpt lat="44.27801" lon="4.19698">
        <ele>195.77</ele>
        <time>2020-05-21T13:40:27Z</time>
      </trkpt>
      <trkpt lat="44.27803" lon="4.19696">
        <ele>194.32</ele>
        <time>2020-05-21T13:40:29Z</time>
      </trkpt>
      <trkpt lat="44.27804" lon="4.19695">
        <ele>196.25</ele>
        <time>2020-05-21T13:40:31Z</time>
      </trkpt>
      <trkpt lat="44.27805" lon="4.19695">
        <ele>194.8</ele>
        <time>2020-05-21T13:40:33Z</time>
      </trkpt>
      <trkpt lat="44.27817" lon="4.19688">
        <ele>196.25</ele>
        <time>2020-05-21T13:40:56Z</time>
      </trkpt>
      <trkpt lat="44.27821" lon="4.19682">
        <ele>195.28</ele>
        <time>2020-05-21T13:41:03Z</time>
      </trkpt>
      <trkpt lat="44.27822" lon="4.19679">
        <ele>196.73</ele>
        <time>2020-05-21T13:41:05Z</time>
      </trkpt>
      <trkpt lat="44.27832" lon="4.19666">
        <ele>196.73</ele>
        <time>2020-05-21T13:41:21Z</time>
      </trkpt>
      <trkpt lat="44.27842" lon="4.19653">
        <ele>198.17</ele>
        <time>2020-05-21T13:41:37Z</time>
      </trkpt>
      <trkpt lat="44.27845" lon="4.19651">
        <ele>196.73</ele>
        <time>2020-05-21T13:41:39Z</time>
      </trkpt>
      <trkpt lat="44.27846" lon="4.1965">
        <ele>198.65</ele>
        <time>2020-05-21T13:41:41Z</time>
      </trkpt>
      <trkpt lat="44.27858" lon="4.19637">
        <ele>199.13</ele>
        <time>2020-05-21T13:41:56Z</time>
      </trkpt>
      <trkpt lat="44.27864" lon="4.19632">
        <ele>199.61</ele>
        <time>2020-05-21T13:42:02Z</time>
      </trkpt>
      <trkpt lat="44.27877" lon="4.19614">
        <ele>198.17</ele>
        <time>2020-05-21T13:42:19Z</time>
      </trkpt>
      <trkpt lat="44.27885" lon="4.19601">
        <ele>198.65</ele>
        <time>2020-05-21T13:42:31Z</time>
      </trkpt>
      <trkpt lat="44.27886" lon="4.19596">
        <ele>200.09</ele>
        <time>2020-05-21T13:42:35Z</time>
      </trkpt>
      <trkpt lat="44.27891" lon="4.19574">
        <ele>198.65</ele>
        <time>2020-05-21T13:42:51Z</time>
      </trkpt>
      <trkpt lat="44.27891" lon="4.19566">
        <ele>202.01</ele>
        <time>2020-05-21T13:42:57Z</time>
      </trkpt>
      <trkpt lat="44.27892" lon="4.19562">
        <ele>202.01</ele>
        <time>2020-05-21T13:43:01Z</time>
      </trkpt>
      <trkpt lat="44.27893" lon="4.19549">
        <ele>200.57</ele>
        <time>2020-05-21T13:43:11Z</time>
      </trkpt>
      <trkpt lat="44.27893" lon="4.19541">
        <ele>203.46</ele>
        <time>2020-05-21T13:43:17Z</time>
      </trkpt>
      <trkpt lat="44.27894" lon="4.19536">
        <ele>203.46</ele>
        <time>2020-05-21T13:43:21Z</time>
      </trkpt>
      <trkpt lat="44.27896" lon="4.19533">
        <ele>203.94</ele>
        <time>2020-05-21T13:43:24Z</time>
      </trkpt>
      <trkpt lat="44.27898" lon="4.19528">
        <ele>202.49</ele>
        <time>2020-05-21T13:43:27Z</time>
      </trkpt>
      <trkpt lat="44.27901" lon="4.19522">
        <ele>202.98</ele>
        <time>2020-05-21T13:43:32Z</time>
      </trkpt>
      <trkpt lat="44.27901" lon="4.19514">
        <ele>205.38</ele>
        <time>2020-05-21T13:43:38Z</time>
      </trkpt>
      <trkpt lat="44.27903" lon="4.19509">
        <ele>205.38</ele>
        <time>2020-05-21T13:43:42Z</time>
      </trkpt>
      <trkpt lat="44.27905" lon="4.19491">
        <ele>206.34</ele>
        <time>2020-05-21T13:43:57Z</time>
      </trkpt>
      <trkpt lat="44.27905" lon="4.1949">
        <ele>205.38</ele>
        <time>2020-05-21T13:43:58Z</time>
      </trkpt>
      <trkpt lat="44.27904" lon="4.19488">
        <ele>208.74</ele>
        <time>2020-05-21T13:44:00Z</time>
      </trkpt>
      <trkpt lat="44.27904" lon="4.19487">
        <ele>206.82</ele>
        <time>2020-05-21T13:44:01Z</time>
      </trkpt>
      <trkpt lat="44.27899" lon="4.19475">
        <ele>209.22</ele>
        <time>2020-05-21T13:44:12Z</time>
      </trkpt>
      <trkpt lat="44.27895" lon="4.19468">
        <ele>208.74</ele>
        <time>2020-05-21T13:44:17Z</time>
      </trkpt>
      <trkpt lat="44.27888" lon="4.1946">
        <ele>209.22</ele>
        <time>2020-05-21T13:44:26Z</time>
      </trkpt>
      <trkpt lat="44.27886" lon="4.19457">
        <ele>207.78</ele>
        <time>2020-05-21T13:44:29Z</time>
      </trkpt>
      <trkpt lat="44.27883" lon="4.19448">
        <ele>210.67</ele>
        <time>2020-05-21T13:44:38Z</time>
      </trkpt>
      <trkpt lat="44.27883" lon="4.19443">
        <ele>211.63</ele>
        <time>2020-05-21T13:44:42Z</time>
      </trkpt>
      <trkpt lat="44.27882" lon="4.19433">
        <ele>211.15</ele>
        <time>2020-05-21T13:44:49Z</time>
      </trkpt>
      <trkpt lat="44.27886" lon="4.19416">
        <ele>214.03</ele>
        <time>2020-05-21T13:45:04Z</time>
      </trkpt>
      <trkpt lat="44.27888" lon="4.19413">
        <ele>212.11</ele>
        <time>2020-05-21T13:45:06Z</time>
      </trkpt>
      <trkpt lat="44.27888" lon="4.19411">
        <ele>214.03</ele>
        <time>2020-05-21T13:45:08Z</time>
      </trkpt>
      <trkpt lat="44.27886" lon="4.19399">
        <ele>213.55</ele>
        <time>2020-05-21T13:45:17Z</time>
      </trkpt>
      <trkpt lat="44.27886" lon="4.1939">
        <ele>216.43</ele>
        <time>2020-05-21T13:45:24Z</time>
      </trkpt>
      <trkpt lat="44.27886" lon="4.19385">
        <ele>216.43</ele>
        <time>2020-05-21T13:45:28Z</time>
      </trkpt>
      <trkpt lat="44.27884" lon="4.19381">
        <ele>214.51</ele>
        <time>2020-05-21T13:45:31Z</time>
      </trkpt>
      <trkpt lat="44.27882" lon="4.19371">
        <ele>218.36</ele>
        <time>2020-05-21T13:45:40Z</time>
      </trkpt>
      <trkpt lat="44.27878" lon="4.19364">
        <ele>217.88</ele>
        <time>2020-05-21T13:45:45Z</time>
      </trkpt>
      <trkpt lat="44.27876" lon="4.19361">
        <ele>216.43</ele>
        <time>2020-05-21T13:45:47Z</time>
      </trkpt>
      <trkpt lat="44.27874" lon="4.19352">
        <ele>217.88</ele>
        <time>2020-05-21T13:45:54Z</time>
      </trkpt>
      <trkpt lat="44.27873" lon="4.19348">
        <ele>216.43</ele>
        <time>2020-05-21T13:45:56Z</time>
      </trkpt>
      <trkpt lat="44.27872" lon="4.19344">
        <ele>217.88</ele>
        <time>2020-05-21T13:45:59Z</time>
      </trkpt>
      <trkpt lat="44.2787" lon="4.19321">
        <ele>218.36</ele>
        <time>2020-05-21T13:46:15Z</time>
      </trkpt>
      <trkpt lat="44.2787" lon="4.19318">
        <ele>216.91</ele>
        <time>2020-05-21T13:46:17Z</time>
      </trkpt>
      <trkpt lat="44.2787" lon="4.19317">
        <ele>216.91</ele>
        <time>2020-05-21T13:46:18Z</time>
      </trkpt>
      <trkpt lat="44.27872" lon="4.19302">
        <ele>218.36</ele>
        <time>2020-05-21T13:46:29Z</time>
      </trkpt>
      <trkpt lat="44.27875" lon="4.1929">
        <ele>218.84</ele>
        <time>2020-05-21T13:46:37Z</time>
      </trkpt>
      <trkpt lat="44.2788" lon="4.19279">
        <ele>217.88</ele>
        <time>2020-05-21T13:46:53Z</time>
      </trkpt>
      <trkpt lat="44.27877" lon="4.19276">
        <ele>217.4</ele>
        <time>2020-05-21T13:47:25Z</time>
      </trkpt>
      <trkpt lat="44.27876" lon="4.19277">
        <ele>218.36</ele>
        <time>2020-05-21T13:47:28Z</time>
      </trkpt>
      <trkpt lat="44.27877" lon="4.19278">
        <ele>217.4</ele>
        <time>2020-05-21T13:47:49Z</time>
      </trkpt>
      <trkpt lat="44.27878" lon="4.19278">
        <ele>218.36</ele>
        <time>2020-05-21T13:47:52Z</time>
      </trkpt>
      <trkpt lat="44.2788" lon="4.19279">
        <ele>219.32</ele>
        <time>2020-05-21T13:48:09Z</time>
      </trkpt>
      <trkpt lat="44.2788" lon="4.19279">
        <ele>217.88</ele>
        <time>2020-05-21T13:48:15Z</time>
      </trkpt>
      <trkpt lat="44.27885" lon="4.19276">
        <ele>219.8</ele>
        <time>2020-05-21T13:48:34Z</time>
      </trkpt>
      <trkpt lat="44.27884" lon="4.19278">
        <ele>218.36</ele>
        <time>2020-05-21T13:48:38Z</time>
      </trkpt>
      <trkpt lat="44.27882" lon="4.19278">
        <ele>219.32</ele>
        <time>2020-05-21T13:48:57Z</time>
      </trkpt>
      <trkpt lat="44.27884" lon="4.19279">
        <ele>219.32</ele>
        <time>2020-05-21T13:49:16Z</time>
      </trkpt>
      <trkpt lat="44.27885" lon="4.19276">
        <ele>219.8</ele>
        <time>2020-05-21T13:49:27Z</time>
      </trkpt>
      <trkpt lat="44.27884" lon="4.19276">
        <ele>218.84</ele>
        <time>2020-05-21T13:49:35Z</time>
      </trkpt>
      <trkpt lat="44.27892" lon="4.19263">
        <ele>220.76</ele>
        <time>2020-05-21T13:49:48Z</time>
      </trkpt>
      <trkpt lat="44.27895" lon="4.1926">
        <ele>219.32</ele>
        <time>2020-05-21T13:49:51Z</time>
      </trkpt>
      <trkpt lat="44.27897" lon="4.19258">
        <ele>220.76</ele>
        <time>2020-05-21T13:49:53Z</time>
      </trkpt>
      <trkpt lat="44.27897" lon="4.19257">
        <ele>220.76</ele>
        <time>2020-05-21T13:49:54Z</time>
      </trkpt>
      <trkpt lat="44.27902" lon="4.19251">
        <ele>220.76</ele>
        <time>2020-05-21T13:50:00Z</time>
      </trkpt>
      <trkpt lat="44.27911" lon="4.1924">
        <ele>224.12</ele>
        <time>2020-05-21T13:50:14Z</time>
      </trkpt>
      <trkpt lat="44.27919" lon="4.19232">
        <ele>223.16</ele>
        <time>2020-05-21T13:50:25Z</time>
      </trkpt>
      <trkpt lat="44.2792" lon="4.19229">
        <ele>221.72</ele>
        <time>2020-05-21T13:50:27Z</time>
      </trkpt>
      <trkpt lat="44.27923" lon="4.19226">
        <ele>223.64</ele>
        <time>2020-05-21T13:50:30Z</time>
      </trkpt>
      <trkpt lat="44.27925" lon="4.19222">
        <ele>223.64</ele>
        <time>2020-05-21T13:50:34Z</time>
      </trkpt>
      <trkpt lat="44.27934" lon="4.192">
        <ele>227.01</ele>
        <time>2020-05-21T13:50:52Z</time>
      </trkpt>
      <trkpt lat="44.27934" lon="4.19198">
        <ele>225.09</ele>
        <time>2020-05-21T13:50:53Z</time>
      </trkpt>
      <trkpt lat="44.27936" lon="4.19184">
        <ele>225.09</ele>
        <time>2020-05-21T13:51:03Z</time>
      </trkpt>
      <trkpt lat="44.27942" lon="4.19183">
        <ele>226.53</ele>
        <time>2020-05-21T13:51:12Z</time>
      </trkpt>
      <trkpt lat="44.27931" lon="4.1917">
        <ele>226.53</ele>
        <time>2020-05-21T13:51:31Z</time>
      </trkpt>
      <trkpt lat="44.2793" lon="4.19166">
        <ele>226.53</ele>
        <time>2020-05-21T13:51:35Z</time>
      </trkpt>
      <trkpt lat="44.27929" lon="4.19163">
        <ele>225.57</ele>
        <time>2020-05-21T13:51:37Z</time>
      </trkpt>
      <trkpt lat="44.27931" lon="4.19151">
        <ele>227.49</ele>
        <time>2020-05-21T13:51:48Z</time>
      </trkpt>
      <trkpt lat="44.27946" lon="4.19145">
        <ele>227.01</ele>
        <time>2020-05-21T13:52:06Z</time>
      </trkpt>
      <trkpt lat="44.27945" lon="4.19152">
        <ele>227.01</ele>
        <time>2020-05-21T13:52:31Z</time>
      </trkpt>
      <trkpt lat="44.27926" lon="4.19133">
        <ele>226.05</ele>
        <time>2020-05-21T13:52:58Z</time>
      </trkpt>
      <trkpt lat="44.27916" lon="4.19116">
        <ele>226.53</ele>
        <time>2020-05-21T13:53:15Z</time>
      </trkpt>
      <trkpt lat="44.27918" lon="4.19114">
        <ele>224.61</ele>
        <time>2020-05-21T13:53:19Z</time>
      </trkpt>
      <trkpt lat="44.27917" lon="4.19108">
        <ele>223.64</ele>
        <time>2020-05-21T13:53:38Z</time>
      </trkpt>
      <trkpt lat="44.27918" lon="4.19095">
        <ele>224.12</ele>
        <time>2020-05-21T13:53:55Z</time>
      </trkpt>
      <trkpt lat="44.27918" lon="4.19091">
        <ele>222.68</ele>
        <time>2020-05-21T13:53:58Z</time>
      </trkpt>
      <trkpt lat="44.27918" lon="4.1909">
        <ele>224.12</ele>
        <time>2020-05-21T13:53:59Z</time>
      </trkpt>
      <trkpt lat="44.27914" lon="4.19076">
        <ele>225.57</ele>
        <time>2020-05-21T13:54:16Z</time>
      </trkpt>
      <trkpt lat="44.27913" lon="4.19073">
        <ele>225.57</ele>
        <time>2020-05-21T13:54:24Z</time>
      </trkpt>
      <trkpt lat="44.2791" lon="4.19066">
        <ele>224.61</ele>
        <time>2020-05-21T13:54:30Z</time>
      </trkpt>
      <trkpt lat="44.2791" lon="4.19064">
        <ele>226.53</ele>
        <time>2020-05-21T13:54:32Z</time>
      </trkpt>
      <trkpt lat="44.27907" lon="4.19055">
        <ele>225.09</ele>
        <time>2020-05-21T13:54:38Z</time>
      </trkpt>
      <trkpt lat="44.27906" lon="4.19053">
        <ele>226.53</ele>
        <time>2020-05-21T13:54:41Z</time>
      </trkpt>
      <trkpt lat="44.27906" lon="4.19043">
        <ele>211.63</ele>
        <time>2020-05-21T13:54:52Z</time>
      </trkpt>
      <trkpt lat="44.27906" lon="4.19042">
        <ele>225.09</ele>
        <time>2020-05-21T13:54:53Z</time>
      </trkpt>
      <trkpt lat="44.27906" lon="4.19041">
        <ele>228.45</ele>
        <time>2020-05-21T13:54:54Z</time>
      </trkpt>
      <trkpt lat="44.27906" lon="4.1904">
        <ele>228.45</ele>
        <time>2020-05-21T13:54:55Z</time>
      </trkpt>
      <trkpt lat="44.27905" lon="4.1904">
        <ele>235.18</ele>
        <time>2020-05-21T13:54:56Z</time>
      </trkpt>
      <trkpt lat="44.27905" lon="4.19039">
        <ele>228.93</ele>
        <time>2020-05-21T13:54:57Z</time>
      </trkpt>
      <trkpt lat="44.27905" lon="4.19039">
        <ele>226.53</ele>
        <time>2020-05-21T13:54:59Z</time>
      </trkpt>
      <trkpt lat="44.27902" lon="4.19032">
        <ele>228.45</ele>
        <time>2020-05-21T13:55:13Z</time>
      </trkpt>
      <trkpt lat="44.279" lon="4.1903">
        <ele>225.57</ele>
        <time>2020-05-21T13:55:15Z</time>
      </trkpt>
      <trkpt lat="44.27891" lon="4.19025">
        <ele>229.89</ele>
        <time>2020-05-21T13:55:24Z</time>
      </trkpt>
      <trkpt lat="44.2789" lon="4.19023">
        <ele>226.53</ele>
        <time>2020-05-21T13:55:26Z</time>
      </trkpt>
      <trkpt lat="44.27889" lon="4.19022">
        <ele>230.37</ele>
        <time>2020-05-21T13:55:27Z</time>
      </trkpt>
      <trkpt lat="44.27887" lon="4.19016">
        <ele>226.53</ele>
        <time>2020-05-21T13:55:33Z</time>
      </trkpt>
      <trkpt lat="44.27888" lon="4.19015">
        <ele>230.85</ele>
        <time>2020-05-21T13:55:34Z</time>
      </trkpt>
      <trkpt lat="44.27887" lon="4.1901">
        <ele>229.89</ele>
        <time>2020-05-21T13:55:38Z</time>
      </trkpt>
      <trkpt lat="44.27886" lon="4.19005">
        <ele>229.89</ele>
        <time>2020-05-21T13:55:42Z</time>
      </trkpt>
      <trkpt lat="44.27886" lon="4.19003">
        <ele>228.45</ele>
        <time>2020-05-21T13:55:44Z</time>
      </trkpt>
      <trkpt lat="44.27885" lon="4.19002">
        <ele>231.81</ele>
        <time>2020-05-21T13:55:45Z</time>
      </trkpt>
      <trkpt lat="44.27881" lon="4.18986">
        <ele>232.78</ele>
        <time>2020-05-21T13:56:02Z</time>
      </trkpt>
      <trkpt lat="44.27881" lon="4.18985">
        <ele>231.81</ele>
        <time>2020-05-21T13:56:04Z</time>
      </trkpt>
      <trkpt lat="44.2788" lon="4.18983">
        <ele>225.09</ele>
        <time>2020-05-21T13:56:08Z</time>
      </trkpt>
      <trkpt lat="44.2788" lon="4.18982">
        <ele>236.62</ele>
        <time>2020-05-21T13:56:09Z</time>
      </trkpt>
      <trkpt lat="44.27879" lon="4.18981">
        <ele>230.85</ele>
        <time>2020-05-21T13:56:10Z</time>
      </trkpt>
      <trkpt lat="44.27876" lon="4.18977">
        <ele>234.22</ele>
        <time>2020-05-21T13:56:22Z</time>
      </trkpt>
      <trkpt lat="44.27875" lon="4.18977">
        <ele>230.37</ele>
        <time>2020-05-21T13:56:23Z</time>
      </trkpt>
      <trkpt lat="44.27874" lon="4.18972">
        <ele>234.22</ele>
        <time>2020-05-21T13:56:29Z</time>
      </trkpt>
      <trkpt lat="44.27872" lon="4.1897">
        <ele>232.3</ele>
        <time>2020-05-21T13:56:32Z</time>
      </trkpt>
      <trkpt lat="44.27861" lon="4.18957">
        <ele>234.7</ele>
        <time>2020-05-21T13:56:45Z</time>
      </trkpt>
      <trkpt lat="44.27847" lon="4.18935">
        <ele>235.66</ele>
        <time>2020-05-21T13:57:06Z</time>
      </trkpt>
      <trkpt lat="44.27846" lon="4.18935">
        <ele>235.66</ele>
        <time>2020-05-21T13:57:07Z</time>
      </trkpt>
      <trkpt lat="44.27845" lon="4.18934">
        <ele>234.22</ele>
        <time>2020-05-21T13:57:09Z</time>
      </trkpt>
      <trkpt lat="44.27845" lon="4.18932">
        <ele>235.66</ele>
        <time>2020-05-21T13:57:11Z</time>
      </trkpt>
      <trkpt lat="44.27827" lon="4.18912">
        <ele>234.22</ele>
        <time>2020-05-21T13:57:29Z</time>
      </trkpt>
      <trkpt lat="44.27822" lon="4.18907">
        <ele>235.66</ele>
        <time>2020-05-21T13:57:35Z</time>
      </trkpt>
      <trkpt lat="44.27809" lon="4.18891">
        <ele>235.66</ele>
        <time>2020-05-21T13:57:52Z</time>
      </trkpt>
      <trkpt lat="44.27796" lon="4.18877">
        <ele>235.66</ele>
        <time>2020-05-21T13:58:09Z</time>
      </trkpt>
      <trkpt lat="44.27793" lon="4.18874">
        <ele>234.22</ele>
        <time>2020-05-21T13:58:13Z</time>
      </trkpt>
      <trkpt lat="44.27791" lon="4.18874">
        <ele>236.14</ele>
        <time>2020-05-21T13:58:15Z</time>
      </trkpt>
      <trkpt lat="44.27788" lon="4.18872">
        <ele>234.7</ele>
        <time>2020-05-21T13:58:17Z</time>
      </trkpt>
      <trkpt lat="44.27784" lon="4.18872">
        <ele>234.7</ele>
        <time>2020-05-21T13:58:21Z</time>
      </trkpt>
      <trkpt lat="44.27782" lon="4.1887">
        <ele>236.62</ele>
        <time>2020-05-21T13:58:23Z</time>
      </trkpt>
      <trkpt lat="44.2778" lon="4.18871">
        <ele>235.18</ele>
        <time>2020-05-21T13:58:25Z</time>
      </trkpt>
      <trkpt lat="44.27779" lon="4.18871">
        <ele>237.1</ele>
        <time>2020-05-21T13:58:27Z</time>
      </trkpt>
      <trkpt lat="44.27768" lon="4.18855">
        <ele>236.14</ele>
        <time>2020-05-21T13:58:45Z</time>
      </trkpt>
      <trkpt lat="44.27765" lon="4.18848">
        <ele>239.51</ele>
        <time>2020-05-21T13:58:53Z</time>
      </trkpt>
      <trkpt lat="44.27753" lon="4.18833">
        <ele>239.99</ele>
        <time>2020-05-21T13:59:10Z</time>
      </trkpt>
      <trkpt lat="44.27743" lon="4.18815">
        <ele>239.99</ele>
        <time>2020-05-21T13:59:31Z</time>
      </trkpt>
      <trkpt lat="44.27742" lon="4.18813">
        <ele>238.06</ele>
        <time>2020-05-21T13:59:33Z</time>
      </trkpt>
      <trkpt lat="44.27741" lon="4.18812">
        <ele>239.99</ele>
        <time>2020-05-21T13:59:35Z</time>
      </trkpt>
      <trkpt lat="44.27727" lon="4.18797">
        <ele>239.99</ele>
        <time>2020-05-21T13:59:55Z</time>
      </trkpt>
      <trkpt lat="44.27719" lon="4.18794">
        <ele>239.51</ele>
        <time>2020-05-21T14:00:12Z</time>
      </trkpt>
      <trkpt lat="44.27718" lon="4.18793">
        <ele>240.95</ele>
        <time>2020-05-21T14:00:14Z</time>
      </trkpt>
      <trkpt lat="44.27703" lon="4.18783">
        <ele>242.39</ele>
        <time>2020-05-21T14:00:31Z</time>
      </trkpt>
      <trkpt lat="44.27697" lon="4.1878">
        <ele>245.27</ele>
        <time>2020-05-21T14:00:37Z</time>
      </trkpt>
      <trkpt lat="44.27696" lon="4.1878">
        <ele>242.39</ele>
        <time>2020-05-21T14:00:38Z</time>
      </trkpt>
      <trkpt lat="44.27692" lon="4.18779">
        <ele>240.47</ele>
        <time>2020-05-21T14:00:43Z</time>
      </trkpt>
      <trkpt lat="44.27691" lon="4.18778">
        <ele>245.75</ele>
        <time>2020-05-21T14:00:44Z</time>
      </trkpt>
      <trkpt lat="44.27691" lon="4.18778">
        <ele>242.87</ele>
        <time>2020-05-21T14:00:45Z</time>
      </trkpt>
      <trkpt lat="44.27685" lon="4.18778">
        <ele>242.87</ele>
        <time>2020-05-21T14:00:53Z</time>
      </trkpt>
      <trkpt lat="44.27682" lon="4.18778">
        <ele>246.23</ele>
        <time>2020-05-21T14:00:57Z</time>
      </trkpt>
      <trkpt lat="44.27674" lon="4.18781">
        <ele>245.75</ele>
        <time>2020-05-21T14:01:10Z</time>
      </trkpt>
      <trkpt lat="44.2767" lon="4.1878">
        <ele>242.87</ele>
        <time>2020-05-21T14:01:18Z</time>
      </trkpt>
      <trkpt lat="44.2767" lon="4.1878">
        <ele>249.12</ele>
        <time>2020-05-21T14:01:19Z</time>
      </trkpt>
      <trkpt lat="44.27669" lon="4.1878">
        <ele>246.23</ele>
        <time>2020-05-21T14:01:20Z</time>
      </trkpt>
      <trkpt lat="44.27665" lon="4.18781">
        <ele>247.68</ele>
        <time>2020-05-21T14:01:26Z</time>
      </trkpt>
      <trkpt lat="44.27663" lon="4.18781">
        <ele>246.72</ele>
        <time>2020-05-21T14:01:28Z</time>
      </trkpt>
      <trkpt lat="44.27655" lon="4.18783">
        <ele>249.6</ele>
        <time>2020-05-21T14:01:38Z</time>
      </trkpt>
      <trkpt lat="44.27649" lon="4.18779">
        <ele>249.12</ele>
        <time>2020-05-21T14:01:45Z</time>
      </trkpt>
      <trkpt lat="44.27639" lon="4.18778">
        <ele>248.64</ele>
        <time>2020-05-21T14:01:57Z</time>
      </trkpt>
      <trkpt lat="44.27637" lon="4.18778">
        <ele>250.08</ele>
        <time>2020-05-21T14:01:59Z</time>
      </trkpt>
      <trkpt lat="44.27626" lon="4.18777">
        <ele>251.04</ele>
        <time>2020-05-21T14:02:08Z</time>
      </trkpt>
      <trkpt lat="44.2762" lon="4.18778">
        <ele>250.08</ele>
        <time>2020-05-21T14:02:17Z</time>
      </trkpt>
      <trkpt lat="44.27618" lon="4.18778">
        <ele>252</ele>
        <time>2020-05-21T14:02:19Z</time>
      </trkpt>
      <trkpt lat="44.27613" lon="4.18778">
        <ele>252</ele>
        <time>2020-05-21T14:02:25Z</time>
      </trkpt>
      <trkpt lat="44.276" lon="4.18782">
        <ele>255.37</ele>
        <time>2020-05-21T14:02:43Z</time>
      </trkpt>
      <trkpt lat="44.27599" lon="4.18782">
        <ele>252.48</ele>
        <time>2020-05-21T14:02:44Z</time>
      </trkpt>
      <trkpt lat="44.27599" lon="4.18783">
        <ele>255.85</ele>
        <time>2020-05-21T14:02:45Z</time>
      </trkpt>
      <trkpt lat="44.27593" lon="4.18791">
        <ele>252.48</ele>
        <time>2020-05-21T14:02:56Z</time>
      </trkpt>
      <trkpt lat="44.27593" lon="4.18791">
        <ele>258.73</ele>
        <time>2020-05-21T14:02:57Z</time>
      </trkpt>
      <trkpt lat="44.27592" lon="4.18792">
        <ele>254.89</ele>
        <time>2020-05-21T14:02:59Z</time>
      </trkpt>
      <trkpt lat="44.27592" lon="4.18793">
        <ele>258.25</ele>
        <time>2020-05-21T14:03:00Z</time>
      </trkpt>
      <trkpt lat="44.2759" lon="4.18795">
        <ele>253.93</ele>
        <time>2020-05-21T14:03:02Z</time>
      </trkpt>
      <trkpt lat="44.2759" lon="4.18795">
        <ele>259.69</ele>
        <time>2020-05-21T14:03:03Z</time>
      </trkpt>
      <trkpt lat="44.2759" lon="4.18794">
        <ele>255.85</ele>
        <time>2020-05-21T14:03:04Z</time>
      </trkpt>
      <trkpt lat="44.27584" lon="4.18796">
        <ele>261.14</ele>
        <time>2020-05-21T14:03:15Z</time>
      </trkpt>
      <trkpt lat="44.27583" lon="4.18796">
        <ele>257.77</ele>
        <time>2020-05-21T14:03:16Z</time>
      </trkpt>
      <trkpt lat="44.27579" lon="4.18795">
        <ele>260.65</ele>
        <time>2020-05-21T14:03:22Z</time>
      </trkpt>
      <trkpt lat="44.27577" lon="4.18795">
        <ele>257.77</ele>
        <time>2020-05-21T14:03:24Z</time>
      </trkpt>
      <trkpt lat="44.27577" lon="4.18795">
        <ele>261.14</ele>
        <time>2020-05-21T14:03:25Z</time>
      </trkpt>
      <trkpt lat="44.27565" lon="4.18802">
        <ele>263.06</ele>
        <time>2020-05-21T14:03:45Z</time>
      </trkpt>
      <trkpt lat="44.27562" lon="4.18802">
        <ele>259.69</ele>
        <time>2020-05-21T14:03:49Z</time>
      </trkpt>
      <trkpt lat="44.27562" lon="4.18803">
        <ele>263.06</ele>
        <time>2020-05-21T14:03:50Z</time>
      </trkpt>
      <trkpt lat="44.27546" lon="4.18813">
        <ele>263.06</ele>
        <time>2020-05-21T14:04:11Z</time>
      </trkpt>
      <trkpt lat="44.27539" lon="4.18816">
        <ele>263.54</ele>
        <time>2020-05-21T14:04:21Z</time>
      </trkpt>
      <trkpt lat="44.27534" lon="4.1882">
        <ele>266.42</ele>
        <time>2020-05-21T14:04:28Z</time>
      </trkpt>
      <trkpt lat="44.2753" lon="4.18825">
        <ele>265.46</ele>
        <time>2020-05-21T14:04:35Z</time>
      </trkpt>
      <trkpt lat="44.27525" lon="4.1883">
        <ele>266.42</ele>
        <time>2020-05-21T14:04:44Z</time>
      </trkpt>
      <trkpt lat="44.27523" lon="4.18834">
        <ele>264.98</ele>
        <time>2020-05-21T14:04:49Z</time>
      </trkpt>
      <trkpt lat="44.27521" lon="4.18836">
        <ele>267.86</ele>
        <time>2020-05-21T14:04:53Z</time>
      </trkpt>
      <trkpt lat="44.27519" lon="4.18841">
        <ele>264.98</ele>
        <time>2020-05-21T14:05:00Z</time>
      </trkpt>
      <trkpt lat="44.27518" lon="4.18845">
        <ele>267.86</ele>
        <time>2020-05-21T14:05:04Z</time>
      </trkpt>
      <trkpt lat="44.27517" lon="4.18848">
        <ele>264.98</ele>
        <time>2020-05-21T14:05:08Z</time>
      </trkpt>
      <trkpt lat="44.27516" lon="4.18849">
        <ele>268.35</ele>
        <time>2020-05-21T14:05:09Z</time>
      </trkpt>
      <trkpt lat="44.27514" lon="4.18854">
        <ele>267.86</ele>
        <time>2020-05-21T14:05:14Z</time>
      </trkpt>
      <trkpt lat="44.27512" lon="4.18856">
        <ele>266.42</ele>
        <time>2020-05-21T14:05:16Z</time>
      </trkpt>
      <trkpt lat="44.27504" lon="4.18866">
        <ele>264.98</ele>
        <time>2020-05-21T14:05:32Z</time>
      </trkpt>
      <trkpt lat="44.27494" lon="4.18878">
        <ele>264.5</ele>
        <time>2020-05-21T14:05:50Z</time>
      </trkpt>
      <trkpt lat="44.27493" lon="4.18882">
        <ele>264.98</ele>
        <time>2020-05-21T14:05:56Z</time>
      </trkpt>
      <trkpt lat="44.27491" lon="4.18896">
        <ele>263.54</ele>
        <time>2020-05-21T14:06:13Z</time>
      </trkpt>
      <trkpt lat="44.27487" lon="4.18911">
        <ele>262.58</ele>
        <time>2020-05-21T14:06:26Z</time>
      </trkpt>
      <trkpt lat="44.27484" lon="4.18927">
        <ele>264.02</ele>
        <time>2020-05-21T14:06:44Z</time>
      </trkpt>
      <trkpt lat="44.27484" lon="4.18928">
        <ele>264.02</ele>
        <time>2020-05-21T14:06:45Z</time>
      </trkpt>
      <trkpt lat="44.27478" lon="4.18943">
        <ele>261.14</ele>
        <time>2020-05-21T14:07:03Z</time>
      </trkpt>
      <trkpt lat="44.27474" lon="4.18948">
        <ele>262.1</ele>
        <time>2020-05-21T14:07:11Z</time>
      </trkpt>
      <trkpt lat="44.27474" lon="4.18954">
        <ele>258.73</ele>
        <time>2020-05-21T14:07:17Z</time>
      </trkpt>
      <trkpt lat="44.27475" lon="4.18955">
        <ele>262.58</ele>
        <time>2020-05-21T14:07:19Z</time>
      </trkpt>
      <trkpt lat="44.27476" lon="4.18956">
        <ele>258.73</ele>
        <time>2020-05-21T14:07:20Z</time>
      </trkpt>
      <trkpt lat="44.27476" lon="4.18957">
        <ele>262.58</ele>
        <time>2020-05-21T14:07:21Z</time>
      </trkpt>
      <trkpt lat="44.27476" lon="4.1896">
        <ele>260.65</ele>
        <time>2020-05-21T14:07:24Z</time>
      </trkpt>
      <trkpt lat="44.27472" lon="4.18976">
        <ele>259.69</ele>
        <time>2020-05-21T14:07:41Z</time>
      </trkpt>
      <trkpt lat="44.2747" lon="4.18989">
        <ele>259.21</ele>
        <time>2020-05-21T14:07:59Z</time>
      </trkpt>
      <trkpt lat="44.27469" lon="4.18994">
        <ele>260.17</ele>
        <time>2020-05-21T14:08:04Z</time>
      </trkpt>
      <trkpt lat="44.27466" lon="4.19005">
        <ele>258.25</ele>
        <time>2020-05-21T14:08:18Z</time>
      </trkpt>
      <trkpt lat="44.27466" lon="4.19007">
        <ele>259.69</ele>
        <time>2020-05-21T14:08:20Z</time>
      </trkpt>
      <trkpt lat="44.27464" lon="4.19021">
        <ele>256.33</ele>
        <time>2020-05-21T14:08:31Z</time>
      </trkpt>
      <trkpt lat="44.27464" lon="4.19022">
        <ele>260.17</ele>
        <time>2020-05-21T14:08:32Z</time>
      </trkpt>
      <trkpt lat="44.27463" lon="4.19024">
        <ele>258.25</ele>
        <time>2020-05-21T14:08:35Z</time>
      </trkpt>
      <trkpt lat="44.27464" lon="4.19041">
        <ele>258.73</ele>
        <time>2020-05-21T14:08:50Z</time>
      </trkpt>
      <trkpt lat="44.27463" lon="4.19042">
        <ele>258.73</ele>
        <time>2020-05-21T14:08:51Z</time>
      </trkpt>
      <trkpt lat="44.27462" lon="4.19055">
        <ele>258.73</ele>
        <time>2020-05-21T14:09:02Z</time>
      </trkpt>
      <trkpt lat="44.27458" lon="4.19066">
        <ele>256.81</ele>
        <time>2020-05-21T14:09:15Z</time>
      </trkpt>
      <trkpt lat="44.27459" lon="4.19076">
        <ele>256.33</ele>
        <time>2020-05-21T14:09:25Z</time>
      </trkpt>
      <trkpt lat="44.27458" lon="4.19084">
        <ele>256.81</ele>
        <time>2020-05-21T14:09:32Z</time>
      </trkpt>
      <trkpt lat="44.27458" lon="4.19094">
        <ele>257.29</ele>
        <time>2020-05-21T14:09:42Z</time>
      </trkpt>
      <trkpt lat="44.27458" lon="4.19097">
        <ele>256.33</ele>
        <time>2020-05-21T14:09:45Z</time>
      </trkpt>
      <trkpt lat="44.27463" lon="4.1911">
        <ele>255.37</ele>
        <time>2020-05-21T14:10:02Z</time>
      </trkpt>
      <trkpt lat="44.27465" lon="4.19111">
        <ele>257.29</ele>
        <time>2020-05-21T14:10:05Z</time>
      </trkpt>
      <trkpt lat="44.27467" lon="4.19112">
        <ele>255.37</ele>
        <time>2020-05-21T14:10:07Z</time>
      </trkpt>
      <trkpt lat="44.27477" lon="4.19114">
        <ele>254.89</ele>
        <time>2020-05-21T14:10:23Z</time>
      </trkpt>
      <trkpt lat="44.27481" lon="4.19132">
        <ele>253.44</ele>
        <time>2020-05-21T14:10:41Z</time>
      </trkpt>
      <trkpt lat="44.27481" lon="4.19149">
        <ele>252</ele>
        <time>2020-05-21T14:10:59Z</time>
      </trkpt>
      <trkpt lat="44.27481" lon="4.19157">
        <ele>252.96</ele>
        <time>2020-05-21T14:11:08Z</time>
      </trkpt>
      <trkpt lat="44.27481" lon="4.19159">
        <ele>251.04</ele>
        <time>2020-05-21T14:11:10Z</time>
      </trkpt>
      <trkpt lat="44.27482" lon="4.19163">
        <ele>252.48</ele>
        <time>2020-05-21T14:11:14Z</time>
      </trkpt>
      <trkpt lat="44.27482" lon="4.19166">
        <ele>251.04</ele>
        <time>2020-05-21T14:11:17Z</time>
      </trkpt>
      <trkpt lat="44.2748" lon="4.19183">
        <ele>249.6</ele>
        <time>2020-05-21T14:11:35Z</time>
      </trkpt>
      <trkpt lat="44.27477" lon="4.19204">
        <ele>248.64</ele>
        <time>2020-05-21T14:11:53Z</time>
      </trkpt>
      <trkpt lat="44.27478" lon="4.19212">
        <ele>250.08</ele>
        <time>2020-05-21T14:12:00Z</time>
      </trkpt>
      <trkpt lat="44.27477" lon="4.19233">
        <ele>248.16</ele>
        <time>2020-05-21T14:12:19Z</time>
      </trkpt>
      <trkpt lat="44.2748" lon="4.19247">
        <ele>247.2</ele>
        <time>2020-05-21T14:12:36Z</time>
      </trkpt>
      <trkpt lat="44.27476" lon="4.19248">
        <ele>241.91</ele>
        <time>2020-05-21T14:12:54Z</time>
      </trkpt>
      <trkpt lat="44.27475" lon="4.19248">
        <ele>250.56</ele>
        <time>2020-05-21T14:12:55Z</time>
      </trkpt>
      <trkpt lat="44.27475" lon="4.19247">
        <ele>246.72</ele>
        <time>2020-05-21T14:12:57Z</time>
      </trkpt>
      <trkpt lat="44.27471" lon="4.19252">
        <ele>248.16</ele>
        <time>2020-05-21T14:13:10Z</time>
      </trkpt>
      <trkpt lat="44.2747" lon="4.19253">
        <ele>246.72</ele>
        <time>2020-05-21T14:13:12Z</time>
      </trkpt>
      <trkpt lat="44.27465" lon="4.19255">
        <ele>246.23</ele>
        <time>2020-05-21T14:13:22Z</time>
      </trkpt>
      <trkpt lat="44.27464" lon="4.19264">
        <ele>246.72</ele>
        <time>2020-05-21T14:13:32Z</time>
      </trkpt>
      <trkpt lat="44.27463" lon="4.19272">
        <ele>245.27</ele>
        <time>2020-05-21T14:13:38Z</time>
      </trkpt>
      <trkpt lat="44.2746" lon="4.19287">
        <ele>244.79</ele>
        <time>2020-05-21T14:13:50Z</time>
      </trkpt>
      <trkpt lat="44.2746" lon="4.19305">
        <ele>243.83</ele>
        <time>2020-05-21T14:14:08Z</time>
      </trkpt>
      <trkpt lat="44.27454" lon="4.19322">
        <ele>242.87</ele>
        <time>2020-05-21T14:14:26Z</time>
      </trkpt>
      <trkpt lat="44.27447" lon="4.19334">
        <ele>240.95</ele>
        <time>2020-05-21T14:14:42Z</time>
      </trkpt>
      <trkpt lat="44.27441" lon="4.1935">
        <ele>239.02</ele>
        <time>2020-05-21T14:14:56Z</time>
      </trkpt>
      <trkpt lat="44.27438" lon="4.19366">
        <ele>238.54</ele>
        <time>2020-05-21T14:15:15Z</time>
      </trkpt>
      <trkpt lat="44.27431" lon="4.19379">
        <ele>237.1</ele>
        <time>2020-05-21T14:15:33Z</time>
      </trkpt>
      <trkpt lat="44.2742" lon="4.19386">
        <ele>235.18</ele>
        <time>2020-05-21T14:15:51Z</time>
      </trkpt>
      <trkpt lat="44.27407" lon="4.19395">
        <ele>232.78</ele>
        <time>2020-05-21T14:16:10Z</time>
      </trkpt>
      <trkpt lat="44.27402" lon="4.19393">
        <ele>230.85</ele>
        <time>2020-05-21T14:16:22Z</time>
      </trkpt>
      <trkpt lat="44.27399" lon="4.19391">
        <ele>231.33</ele>
        <time>2020-05-21T14:16:40Z</time>
      </trkpt>
      <trkpt lat="44.274" lon="4.1939">
        <ele>229.89</ele>
        <time>2020-05-21T14:16:56Z</time>
      </trkpt>
      <trkpt lat="44.27392" lon="4.19384">
        <ele>227.49</ele>
        <time>2020-05-21T14:17:18Z</time>
      </trkpt>
      <trkpt lat="44.27385" lon="4.19377">
        <ele>224.61</ele>
        <time>2020-05-21T14:17:36Z</time>
      </trkpt>
      <trkpt lat="44.27372" lon="4.19379">
        <ele>222.68</ele>
        <time>2020-05-21T14:17:54Z</time>
      </trkpt>
      <trkpt lat="44.27361" lon="4.19379">
        <ele>222.2</ele>
        <time>2020-05-21T14:18:07Z</time>
      </trkpt>
      <trkpt lat="44.27357" lon="4.19379">
        <ele>221.24</ele>
        <time>2020-05-21T14:18:12Z</time>
      </trkpt>
      <trkpt lat="44.27345" lon="4.19383">
        <ele>219.8</ele>
        <time>2020-05-21T14:18:30Z</time>
      </trkpt>
      <trkpt lat="44.27336" lon="4.19387">
        <ele>219.32</ele>
        <time>2020-05-21T14:18:48Z</time>
      </trkpt>
      <trkpt lat="44.27322" lon="4.19384">
        <ele>220.28</ele>
        <time>2020-05-21T14:19:04Z</time>
      </trkpt>
      <trkpt lat="44.27311" lon="4.19382">
        <ele>217.88</ele>
        <time>2020-05-21T14:19:19Z</time>
      </trkpt>
      <trkpt lat="44.2731" lon="4.19382">
        <ele>217.88</ele>
        <time>2020-05-21T14:19:20Z</time>
      </trkpt>
      <trkpt lat="44.27308" lon="4.19382">
        <ele>218.84</ele>
        <time>2020-05-21T14:19:23Z</time>
      </trkpt>
      <trkpt lat="44.27301" lon="4.19383">
        <ele>217.88</ele>
        <time>2020-05-21T14:19:43Z</time>
      </trkpt>
      <trkpt lat="44.27296" lon="4.19381">
        <ele>217.88</ele>
        <time>2020-05-21T14:19:53Z</time>
      </trkpt>
      <trkpt lat="44.27284" lon="4.1938">
        <ele>218.84</ele>
        <time>2020-05-21T14:20:07Z</time>
      </trkpt>
      <trkpt lat="44.27279" lon="4.19384">
        <ele>217.4</ele>
        <time>2020-05-21T14:20:22Z</time>
      </trkpt>
      <trkpt lat="44.27271" lon="4.19389">
        <ele>216.43</ele>
        <time>2020-05-21T14:20:40Z</time>
      </trkpt>
      <trkpt lat="44.27268" lon="4.19392">
        <ele>214.03</ele>
        <time>2020-05-21T14:20:51Z</time>
      </trkpt>
      <trkpt lat="44.27268" lon="4.19392">
        <ele>218.36</ele>
        <time>2020-05-21T14:20:52Z</time>
      </trkpt>
      <trkpt lat="44.27269" lon="4.19392">
        <ele>215.95</ele>
        <time>2020-05-21T14:20:53Z</time>
      </trkpt>
      <trkpt lat="44.27269" lon="4.19392">
        <ele>217.88</ele>
        <time>2020-05-21T14:20:54Z</time>
      </trkpt>
      <trkpt lat="44.27269" lon="4.19392">
        <ele>215.95</ele>
        <time>2020-05-21T14:20:58Z</time>
      </trkpt>
      <trkpt lat="44.27268" lon="4.1939">
        <ele>209.22</ele>
        <time>2020-05-21T14:21:13Z</time>
      </trkpt>
      <trkpt lat="44.27267" lon="4.1939">
        <ele>223.64</ele>
        <time>2020-05-21T14:21:14Z</time>
      </trkpt>
      <trkpt lat="44.27266" lon="4.19389">
        <ele>217.88</ele>
        <time>2020-05-21T14:21:15Z</time>
      </trkpt>
      <trkpt lat="44.27265" lon="4.19388">
        <ele>216.91</ele>
        <time>2020-05-21T14:21:32Z</time>
      </trkpt>
      <trkpt lat="44.27269" lon="4.19392">
        <ele>216.91</ele>
        <time>2020-05-21T14:22:02Z</time>
      </trkpt>
      <trkpt lat="44.27267" lon="4.19392">
        <ele>215.95</ele>
        <time>2020-05-21T14:22:34Z</time>
      </trkpt>
      <trkpt lat="44.2726" lon="4.19397">
        <ele>215.47</ele>
        <time>2020-05-21T14:22:53Z</time>
      </trkpt>
      <trkpt lat="44.27249" lon="4.19402">
        <ele>214.03</ele>
        <time>2020-05-21T14:23:09Z</time>
      </trkpt>
      <trkpt lat="44.2724" lon="4.19409">
        <ele>212.59</ele>
        <time>2020-05-21T14:23:24Z</time>
      </trkpt>
      <trkpt lat="44.27237" lon="4.19411">
        <ele>211.63</ele>
        <time>2020-05-21T14:23:28Z</time>
      </trkpt>
      <trkpt lat="44.2723" lon="4.19415">
        <ele>212.11</ele>
        <time>2020-05-21T14:23:42Z</time>
      </trkpt>
      <trkpt lat="44.27221" lon="4.1942">
        <ele>210.19</ele>
        <time>2020-05-21T14:23:56Z</time>
      </trkpt>
      <trkpt lat="44.27211" lon="4.19424">
        <ele>206.82</ele>
        <time>2020-05-21T14:24:09Z</time>
      </trkpt>
      <trkpt lat="44.27208" lon="4.19423">
        <ele>208.26</ele>
        <time>2020-05-21T14:24:13Z</time>
      </trkpt>
      <trkpt lat="44.27197" lon="4.1942">
        <ele>206.82</ele>
        <time>2020-05-21T14:24:29Z</time>
      </trkpt>
      <trkpt lat="44.27191" lon="4.19408">
        <ele>205.86</ele>
        <time>2020-05-21T14:24:45Z</time>
      </trkpt>
      <trkpt lat="44.27187" lon="4.194">
        <ele>205.38</ele>
        <time>2020-05-21T14:25:00Z</time>
      </trkpt>
      <trkpt lat="44.27178" lon="4.19378">
        <ele>202.49</ele>
        <time>2020-05-21T14:25:20Z</time>
      </trkpt>
      <trkpt lat="44.27169" lon="4.19355">
        <ele>201.53</ele>
        <time>2020-05-21T14:25:42Z</time>
      </trkpt>
      <trkpt lat="44.2716" lon="4.19346">
        <ele>201.05</ele>
        <time>2020-05-21T14:25:52Z</time>
      </trkpt>
      <trkpt lat="44.27151" lon="4.1934">
        <ele>199.13</ele>
        <time>2020-05-21T14:26:08Z</time>
      </trkpt>
      <trkpt lat="44.27141" lon="4.19334">
        <ele>197.69</ele>
        <time>2020-05-21T14:26:23Z</time>
      </trkpt>
      <trkpt lat="44.27132" lon="4.19329">
        <ele>195.77</ele>
        <time>2020-05-21T14:26:40Z</time>
      </trkpt>
      <trkpt lat="44.27132" lon="4.19331">
        <ele>195.28</ele>
        <time>2020-05-21T14:26:57Z</time>
      </trkpt>
      <trkpt lat="44.2713" lon="4.19333">
        <ele>194.32</ele>
        <time>2020-05-21T14:27:15Z</time>
      </trkpt>
      <trkpt lat="44.27123" lon="4.1934">
        <ele>192.4</ele>
        <time>2020-05-21T14:27:32Z</time>
      </trkpt>
      <trkpt lat="44.2712" lon="4.19339">
        <ele>188.56</ele>
        <time>2020-05-21T14:27:41Z</time>
      </trkpt>
      <trkpt lat="44.27119" lon="4.19339">
        <ele>192.88</ele>
        <time>2020-05-21T14:27:42Z</time>
      </trkpt>
      <trkpt lat="44.27117" lon="4.19344">
        <ele>189.52</ele>
        <time>2020-05-21T14:27:52Z</time>
      </trkpt>
      <trkpt lat="44.27105" lon="4.19344">
        <ele>187.59</ele>
        <time>2020-05-21T14:28:13Z</time>
      </trkpt>
      <trkpt lat="44.271" lon="4.19349">
        <ele>186.15</ele>
        <time>2020-05-21T14:28:31Z</time>
      </trkpt>
      <trkpt lat="44.27098" lon="4.19357">
        <ele>184.71</ele>
        <time>2020-05-21T14:28:51Z</time>
      </trkpt>
      <trkpt lat="44.27096" lon="4.1936">
        <ele>181.83</ele>
        <time>2020-05-21T14:29:08Z</time>
      </trkpt>
      <trkpt lat="44.27085" lon="4.19356">
        <ele>180.38</ele>
        <time>2020-05-21T14:29:21Z</time>
      </trkpt>
      <trkpt lat="44.27075" lon="4.19354">
        <ele>177.5</ele>
        <time>2020-05-21T14:29:36Z</time>
      </trkpt>
      <trkpt lat="44.27074" lon="4.19353">
        <ele>177.5</ele>
        <time>2020-05-21T14:29:38Z</time>
      </trkpt>
      <trkpt lat="44.27062" lon="4.19351">
        <ele>174.62</ele>
        <time>2020-05-21T14:29:54Z</time>
      </trkpt>
      <trkpt lat="44.27052" lon="4.19354">
        <ele>171.25</ele>
        <time>2020-05-21T14:30:10Z</time>
      </trkpt>
      <trkpt lat="44.2704" lon="4.19359">
        <ele>169.33</ele>
        <time>2020-05-21T14:30:26Z</time>
      </trkpt>
      <trkpt lat="44.27025" lon="4.19368">
        <ele>166.45</ele>
        <time>2020-05-21T14:30:42Z</time>
      </trkpt>
      <trkpt lat="44.27013" lon="4.19375">
        <ele>163.56</ele>
        <time>2020-05-21T14:30:58Z</time>
      </trkpt>
      <trkpt lat="44.26999" lon="4.1938">
        <ele>161.64</ele>
        <time>2020-05-21T14:31:14Z</time>
      </trkpt>
      <trkpt lat="44.26985" lon="4.19388">
        <ele>159.24</ele>
        <time>2020-05-21T14:31:30Z</time>
      </trkpt>
      <trkpt lat="44.2697" lon="4.19394">
        <ele>155.87</ele>
        <time>2020-05-21T14:31:47Z</time>
      </trkpt>
      <trkpt lat="44.26954" lon="4.19404">
        <ele>153.47</ele>
        <time>2020-05-21T14:32:06Z</time>
      </trkpt>
      <trkpt lat="44.26941" lon="4.19411">
        <ele>151.06</ele>
        <time>2020-05-21T14:32:22Z</time>
      </trkpt>
      <trkpt lat="44.26932" lon="4.19416">
        <ele>150.1</ele>
        <time>2020-05-21T14:32:33Z</time>
      </trkpt>
      <trkpt lat="44.26925" lon="4.19431">
        <ele>149.14</ele>
        <time>2020-05-21T14:32:44Z</time>
      </trkpt>
      <trkpt lat="44.26924" lon="4.19444">
        <ele>148.18</ele>
        <time>2020-05-21T14:32:53Z</time>
      </trkpt>
      <trkpt lat="44.26924" lon="4.19468">
        <ele>146.26</ele>
        <time>2020-05-21T14:33:09Z</time>
      </trkpt>
      <trkpt lat="44.26918" lon="4.19487">
        <ele>145.3</ele>
        <time>2020-05-21T14:33:24Z</time>
      </trkpt>
      <trkpt lat="44.26919" lon="4.19487">
        <ele>144.34</ele>
        <time>2020-05-21T14:33:38Z</time>
      </trkpt>
      <trkpt lat="44.26916" lon="4.19489">
        <ele>145.78</ele>
        <time>2020-05-21T14:33:55Z</time>
      </trkpt>
      <trkpt lat="44.26913" lon="4.19509">
        <ele>143.85</ele>
        <time>2020-05-21T14:34:09Z</time>
      </trkpt>
      <trkpt lat="44.26919" lon="4.19537">
        <ele>144.82</ele>
        <time>2020-05-21T14:34:27Z</time>
      </trkpt>
      <trkpt lat="44.26921" lon="4.19544">
        <ele>143.37</ele>
        <time>2020-05-21T14:34:32Z</time>
      </trkpt>
      <trkpt lat="44.26916" lon="4.19558">
        <ele>144.34</ele>
        <time>2020-05-21T14:34:45Z</time>
      </trkpt>
      <trkpt lat="44.26909" lon="4.19559">
        <ele>142.89</ele>
        <time>2020-05-21T14:34:50Z</time>
      </trkpt>
      <trkpt lat="44.26892" lon="4.19562">
        <ele>142.89</ele>
        <time>2020-05-21T14:35:06Z</time>
      </trkpt>
      <trkpt lat="44.26873" lon="4.19565">
        <ele>142.89</ele>
        <time>2020-05-21T14:35:21Z</time>
      </trkpt>
      <trkpt lat="44.26864" lon="4.19566">
        <ele>143.85</ele>
        <time>2020-05-21T14:35:29Z</time>
      </trkpt>
      <trkpt lat="44.26861" lon="4.19566">
        <ele>142.89</ele>
        <time>2020-05-21T14:35:31Z</time>
      </trkpt>
      <trkpt lat="44.26855" lon="4.19567">
        <ele>143.85</ele>
        <time>2020-05-21T14:35:37Z</time>
      </trkpt>
      <trkpt lat="44.26839" lon="4.19566">
        <ele>143.37</ele>
        <time>2020-05-21T14:35:51Z</time>
      </trkpt>
      <trkpt lat="44.26829" lon="4.19568">
        <ele>141.93</ele>
        <time>2020-05-21T14:36:00Z</time>
      </trkpt>
      <trkpt lat="44.26823" lon="4.1957">
        <ele>143.37</ele>
        <time>2020-05-21T14:36:05Z</time>
      </trkpt>
      <trkpt lat="44.26817" lon="4.19569">
        <ele>143.85</ele>
        <time>2020-05-21T14:36:12Z</time>
      </trkpt>
      <trkpt lat="44.26814" lon="4.19568">
        <ele>142.41</ele>
        <time>2020-05-21T14:36:15Z</time>
      </trkpt>
      <trkpt lat="44.26809" lon="4.19571">
        <ele>143.85</ele>
        <time>2020-05-21T14:36:20Z</time>
      </trkpt>
      <trkpt lat="44.26808" lon="4.19571">
        <ele>143.85</ele>
        <time>2020-05-21T14:36:21Z</time>
      </trkpt>
      <trkpt lat="44.26805" lon="4.19571">
        <ele>142.41</ele>
        <time>2020-05-21T14:36:23Z</time>
      </trkpt>
      <trkpt lat="44.26799" lon="4.19571">
        <ele>142.41</ele>
        <time>2020-05-21T14:36:29Z</time>
      </trkpt>
      <trkpt lat="44.2679" lon="4.19567">
        <ele>142.41</ele>
        <time>2020-05-21T14:36:37Z</time>
      </trkpt>
      <trkpt lat="44.26776" lon="4.19568">
        <ele>143.37</ele>
        <time>2020-05-21T14:36:48Z</time>
      </trkpt>
      <trkpt lat="44.26767" lon="4.19571">
        <ele>143.37</ele>
        <time>2020-05-21T14:36:55Z</time>
      </trkpt>
      <trkpt lat="44.26759" lon="4.1957">
        <ele>141.93</ele>
        <time>2020-05-21T14:37:10Z</time>
      </trkpt>
      <trkpt lat="44.26756" lon="4.1957">
        <ele>142.89</ele>
        <time>2020-05-21T14:37:21Z</time>
      </trkpt>
      <trkpt lat="44.2675" lon="4.19567">
        <ele>142.89</ele>
        <time>2020-05-21T14:37:28Z</time>
      </trkpt>
      <trkpt lat="44.26745" lon="4.19566">
        <ele>141.45</ele>
        <time>2020-05-21T14:37:31Z</time>
      </trkpt>
      <trkpt lat="44.2673" lon="4.19565">
        <ele>140.49</ele>
        <time>2020-05-21T14:37:45Z</time>
      </trkpt>
      <trkpt lat="44.26722" lon="4.19563">
        <ele>139.53</ele>
        <time>2020-05-21T14:37:53Z</time>
      </trkpt>
      <trkpt lat="44.2671" lon="4.19562">
        <ele>140.97</ele>
        <time>2020-05-21T14:38:05Z</time>
      </trkpt>
      <trkpt lat="44.26694" lon="4.19559">
        <ele>139.53</ele>
        <time>2020-05-21T14:38:19Z</time>
      </trkpt>
      <trkpt lat="44.26682" lon="4.19559">
        <ele>139.53</ele>
        <time>2020-05-21T14:38:30Z</time>
      </trkpt>
      <trkpt lat="44.26671" lon="4.19562">
        <ele>140.49</ele>
        <time>2020-05-21T14:38:41Z</time>
      </trkpt>
      <trkpt lat="44.26654" lon="4.19564">
        <ele>140.01</ele>
        <time>2020-05-21T14:38:57Z</time>
      </trkpt>
      <trkpt lat="44.26646" lon="4.19568">
        <ele>139.05</ele>
        <time>2020-05-21T14:39:14Z</time>
      </trkpt>
      <trkpt lat="44.26641" lon="4.19569">
        <ele>138.09</ele>
        <time>2020-05-21T14:39:29Z</time>
      </trkpt>
      <trkpt lat="44.26627" lon="4.19562">
        <ele>139.53</ele>
        <time>2020-05-21T14:39:46Z</time>
      </trkpt>
      <trkpt lat="44.26626" lon="4.19559">
        <ele>140.97</ele>
        <time>2020-05-21T14:39:50Z</time>
      </trkpt>
      <trkpt lat="44.26626" lon="4.19557">
        <ele>139.05</ele>
        <time>2020-05-21T14:39:52Z</time>
      </trkpt>
      <trkpt lat="44.26624" lon="4.1955">
        <ele>139.53</ele>
        <time>2020-05-21T14:39:57Z</time>
      </trkpt>
      <trkpt lat="44.26609" lon="4.19542">
        <ele>140.49</ele>
        <time>2020-05-21T14:40:11Z</time>
      </trkpt>
      <trkpt lat="44.26606" lon="4.19547">
        <ele>139.05</ele>
        <time>2020-05-21T14:40:32Z</time>
      </trkpt>
      <trkpt lat="44.26609" lon="4.19549">
        <ele>140.01</ele>
        <time>2020-05-21T14:40:53Z</time>
      </trkpt>
      <trkpt lat="44.26604" lon="4.19551">
        <ele>139.05</ele>
        <time>2020-05-21T14:40:58Z</time>
      </trkpt>
      <trkpt lat="44.26598" lon="4.19555">
        <ele>140.49</ele>
        <time>2020-05-21T14:41:04Z</time>
      </trkpt>
      <trkpt lat="44.26597" lon="4.19556">
        <ele>139.05</ele>
        <time>2020-05-21T14:41:06Z</time>
      </trkpt>
      <trkpt lat="44.26595" lon="4.19558">
        <ele>139.05</ele>
        <time>2020-05-21T14:41:09Z</time>
      </trkpt>
      <trkpt lat="44.26593" lon="4.19559">
        <ele>140.01</ele>
        <time>2020-05-21T14:41:12Z</time>
      </trkpt>
      <trkpt lat="44.26591" lon="4.19561">
        <ele>139.05</ele>
        <time>2020-05-21T14:41:14Z</time>
      </trkpt>
      <trkpt lat="44.26582" lon="4.19571">
        <ele>139.05</ele>
        <time>2020-05-21T14:41:27Z</time>
      </trkpt>
      <trkpt lat="44.26578" lon="4.19574">
        <ele>139.53</ele>
        <time>2020-05-21T14:41:32Z</time>
      </trkpt>
      <trkpt lat="44.26576" lon="4.19576">
        <ele>138.57</ele>
        <time>2020-05-21T14:41:35Z</time>
      </trkpt>
      <trkpt lat="44.26563" lon="4.19587">
        <ele>138.57</ele>
        <time>2020-05-21T14:41:53Z</time>
      </trkpt>
      <trkpt lat="44.26562" lon="4.19588">
        <ele>138.57</ele>
        <time>2020-05-21T14:41:54Z</time>
      </trkpt>
      <trkpt lat="44.26557" lon="4.19592">
        <ele>139.53</ele>
        <time>2020-05-21T14:42:00Z</time>
      </trkpt>
      <trkpt lat="44.26555" lon="4.19594">
        <ele>138.57</ele>
        <time>2020-05-21T14:42:02Z</time>
      </trkpt>
      <trkpt lat="44.26552" lon="4.19596">
        <ele>138.57</ele>
        <time>2020-05-21T14:42:06Z</time>
      </trkpt>
      <trkpt lat="44.2655" lon="4.19597">
        <ele>140.01</ele>
        <time>2020-05-21T14:42:08Z</time>
      </trkpt>
      <trkpt lat="44.26546" lon="4.19601">
        <ele>138.57</ele>
        <time>2020-05-21T14:42:13Z</time>
      </trkpt>
      <trkpt lat="44.26532" lon="4.19614">
        <ele>139.53</ele>
        <time>2020-05-21T14:42:29Z</time>
      </trkpt>
      <trkpt lat="44.2653" lon="4.19615">
        <ele>139.53</ele>
        <time>2020-05-21T14:42:31Z</time>
      </trkpt>
      <trkpt lat="44.26516" lon="4.19626">
        <ele>138.09</ele>
        <time>2020-05-21T14:42:46Z</time>
      </trkpt>
      <trkpt lat="44.26515" lon="4.19627">
        <ele>139.53</ele>
        <time>2020-05-21T14:42:47Z</time>
      </trkpt>
      <trkpt lat="44.26502" lon="4.19637">
        <ele>139.05</ele>
        <time>2020-05-21T14:43:03Z</time>
      </trkpt>
      <trkpt lat="44.26487" lon="4.19646">
        <ele>139.05</ele>
        <time>2020-05-21T14:43:19Z</time>
      </trkpt>
      <trkpt lat="44.26486" lon="4.19647">
        <ele>139.05</ele>
        <time>2020-05-21T14:43:21Z</time>
      </trkpt>
      <trkpt lat="44.26482" lon="4.19653">
        <ele>138.09</ele>
        <time>2020-05-21T14:43:31Z</time>
      </trkpt>
      <trkpt lat="44.2647" lon="4.19666">
        <ele>138.09</ele>
        <time>2020-05-21T14:43:47Z</time>
      </trkpt>
      <trkpt lat="44.26457" lon="4.19674">
        <ele>137.61</ele>
        <time>2020-05-21T14:43:59Z</time>
      </trkpt>
      <trkpt lat="44.26455" lon="4.19675">
        <ele>139.53</ele>
        <time>2020-05-21T14:44:01Z</time>
      </trkpt>
      <trkpt lat="44.26445" lon="4.19688">
        <ele>138.09</ele>
        <time>2020-05-21T14:44:15Z</time>
      </trkpt>
      <trkpt lat="44.26431" lon="4.19702">
        <ele>139.05</ele>
        <time>2020-05-21T14:44:32Z</time>
      </trkpt>
      <trkpt lat="44.26425" lon="4.19713">
        <ele>138.09</ele>
        <time>2020-05-21T14:44:42Z</time>
      </trkpt>
      <trkpt lat="44.26415" lon="4.19731">
        <ele>139.05</ele>
        <time>2020-05-21T14:44:57Z</time>
      </trkpt>
      <trkpt lat="44.26405" lon="4.19749">
        <ele>137.61</ele>
        <time>2020-05-21T14:45:11Z</time>
      </trkpt>
      <trkpt lat="44.26397" lon="4.19758">
        <ele>137.61</ele>
        <time>2020-05-21T14:45:21Z</time>
      </trkpt>
      <trkpt lat="44.26392" lon="4.19771">
        <ele>139.05</ele>
        <time>2020-05-21T14:45:33Z</time>
      </trkpt>
      <trkpt lat="44.26388" lon="4.19779">
        <ele>138.57</ele>
        <time>2020-05-21T14:45:41Z</time>
      </trkpt>
      <trkpt lat="44.26381" lon="4.19798">
        <ele>138.57</ele>
        <time>2020-05-21T14:45:53Z</time>
      </trkpt>
      <trkpt lat="44.26372" lon="4.19816">
        <ele>138.57</ele>
        <time>2020-05-21T14:46:09Z</time>
      </trkpt>
      <trkpt lat="44.26373" lon="4.19819">
        <ele>135.2</ele>
        <time>2020-05-21T14:46:18Z</time>
      </trkpt>
      <trkpt lat="44.26374" lon="4.19818">
        <ele>139.05</ele>
        <time>2020-05-21T14:46:19Z</time>
      </trkpt>
      <trkpt lat="44.26376" lon="4.19814">
        <ele>137.61</ele>
        <time>2020-05-21T14:46:22Z</time>
      </trkpt>
      <trkpt lat="44.26384" lon="4.19806">
        <ele>138.09</ele>
        <time>2020-05-21T14:46:35Z</time>
      </trkpt>
      <trkpt lat="44.2638" lon="4.19812">
        <ele>138.57</ele>
        <time>2020-05-21T14:46:45Z</time>
      </trkpt>
      <trkpt lat="44.26379" lon="4.19815">
        <ele>137.13</ele>
        <time>2020-05-21T14:46:47Z</time>
      </trkpt>
      <trkpt lat="44.26368" lon="4.19837">
        <ele>137.13</ele>
        <time>2020-05-21T14:47:04Z</time>
      </trkpt>
      <trkpt lat="44.26365" lon="4.19845">
        <ele>137.13</ele>
        <time>2020-05-21T14:47:11Z</time>
      </trkpt>
      <trkpt lat="44.26357" lon="4.19862">
        <ele>137.13</ele>
        <time>2020-05-21T14:47:25Z</time>
      </trkpt>
      <trkpt lat="44.26354" lon="4.1987">
        <ele>138.57</ele>
        <time>2020-05-21T14:47:30Z</time>
      </trkpt>
      <trkpt lat="44.26352" lon="4.19876">
        <ele>138.09</ele>
        <time>2020-05-21T14:47:47Z</time>
      </trkpt>
      <trkpt lat="44.26346" lon="4.19881">
        <ele>136.64</ele>
        <time>2020-05-21T14:47:55Z</time>
      </trkpt>
      <trkpt lat="44.26344" lon="4.19886">
        <ele>138.09</ele>
        <time>2020-05-21T14:47:58Z</time>
      </trkpt>
      <trkpt lat="44.26342" lon="4.19888">
        <ele>136.16</ele>
        <time>2020-05-21T14:48:03Z</time>
      </trkpt>
      <trkpt lat="44.26343" lon="4.19892">
        <ele>137.61</ele>
        <time>2020-05-21T14:48:07Z</time>
      </trkpt>
      <trkpt lat="44.26344" lon="4.19896">
        <ele>136.16</ele>
        <time>2020-05-21T14:48:10Z</time>
      </trkpt>
      <trkpt lat="44.2636" lon="4.19901">
        <ele>135.2</ele>
        <time>2020-05-21T14:48:26Z</time>
      </trkpt>
      <trkpt lat="44.26364" lon="4.19902">
        <ele>136.64</ele>
        <time>2020-05-21T14:48:29Z</time>
      </trkpt>
      <trkpt lat="44.26365" lon="4.19904">
        <ele>135.2</ele>
        <time>2020-05-21T14:48:32Z</time>
      </trkpt>
      <trkpt lat="44.26366" lon="4.19904">
        <ele>138.57</ele>
        <time>2020-05-21T14:48:33Z</time>
      </trkpt>
      <trkpt lat="44.26367" lon="4.19905">
        <ele>137.13</ele>
        <time>2020-05-21T14:48:34Z</time>
      </trkpt>
      <trkpt lat="44.26362" lon="4.19925">
        <ele>137.61</ele>
        <time>2020-05-21T14:48:50Z</time>
      </trkpt>
      <trkpt lat="44.26355" lon="4.19949">
        <ele>137.61</ele>
        <time>2020-05-21T14:49:07Z</time>
      </trkpt>
      <trkpt lat="44.26357" lon="4.19958">
        <ele>137.61</ele>
        <time>2020-05-21T14:49:25Z</time>
      </trkpt>
      <trkpt lat="44.26351" lon="4.19979">
        <ele>137.61</ele>
        <time>2020-05-21T14:49:40Z</time>
      </trkpt>
      <trkpt lat="44.26347" lon="4.19999">
        <ele>136.16</ele>
        <time>2020-05-21T14:49:54Z</time>
      </trkpt>
      <trkpt lat="44.26346" lon="4.20013">
        <ele>138.09</ele>
        <time>2020-05-21T14:50:07Z</time>
      </trkpt>
      <trkpt lat="44.26346" lon="4.20013">
        <ele>136.16</ele>
        <time>2020-05-21T14:50:09Z</time>
      </trkpt>
      <trkpt lat="44.26345" lon="4.20013">
        <ele>140.01</ele>
        <time>2020-05-21T14:50:13Z</time>
      </trkpt>
      <trkpt lat="44.26346" lon="4.20013">
        <ele>138.09</ele>
        <time>2020-05-21T14:50:14Z</time>
      </trkpt>
      <trkpt lat="44.26348" lon="4.20017">
        <ele>140.49</ele>
        <time>2020-05-21T14:50:21Z</time>
      </trkpt>
      <trkpt lat="44.26349" lon="4.20017">
        <ele>137.13</ele>
        <time>2020-05-21T14:50:23Z</time>
      </trkpt>
      <trkpt lat="44.2635" lon="4.20018">
        <ele>143.37</ele>
        <time>2020-05-21T14:50:24Z</time>
      </trkpt>
      <trkpt lat="44.26351" lon="4.20018">
        <ele>139.53</ele>
        <time>2020-05-21T14:50:25Z</time>
      </trkpt>
      <trkpt lat="44.26341" lon="4.20017">
        <ele>141.93</ele>
        <time>2020-05-21T14:50:42Z</time>
      </trkpt>
      <trkpt lat="44.26339" lon="4.20015">
        <ele>140.97</ele>
        <time>2020-05-21T14:50:44Z</time>
      </trkpt>
      <trkpt lat="44.26336" lon="4.20014">
        <ele>142.41</ele>
        <time>2020-05-21T14:50:47Z</time>
      </trkpt>
      <trkpt lat="44.26336" lon="4.20013">
        <ele>142.41</ele>
        <time>2020-05-21T14:50:48Z</time>
      </trkpt>
      <trkpt lat="44.26333" lon="4.20013">
        <ele>140.97</ele>
        <time>2020-05-21T14:50:50Z</time>
      </trkpt>
      <trkpt lat="44.26331" lon="4.20013">
        <ele>142.41</ele>
        <time>2020-05-21T14:50:52Z</time>
      </trkpt>
      <trkpt lat="44.26329" lon="4.20017">
        <ele>141.45</ele>
        <time>2020-05-21T14:50:55Z</time>
      </trkpt>
      <trkpt lat="44.2632" lon="4.20011">
        <ele>142.89</ele>
        <time>2020-05-21T14:51:03Z</time>
      </trkpt>
      <trkpt lat="44.26314" lon="4.20008">
        <ele>143.85</ele>
        <time>2020-05-21T14:51:11Z</time>
      </trkpt>
      <trkpt lat="44.26307" lon="4.20005">
        <ele>142.89</ele>
        <time>2020-05-21T14:51:18Z</time>
      </trkpt>
      <trkpt lat="44.26301" lon="4.20004">
        <ele>142.89</ele>
        <time>2020-05-21T14:51:24Z</time>
      </trkpt>
      <trkpt lat="44.26284" lon="4.19996">
        <ele>143.37</ele>
        <time>2020-05-21T14:51:39Z</time>
      </trkpt>
      <trkpt lat="44.26274" lon="4.19994">
        <ele>143.85</ele>
        <time>2020-05-21T14:51:50Z</time>
      </trkpt>
      <trkpt lat="44.26264" lon="4.19997">
        <ele>143.85</ele>
        <time>2020-05-21T14:52:07Z</time>
      </trkpt>
      <trkpt lat="44.26253" lon="4.19997">
        <ele>143.37</ele>
        <time>2020-05-21T14:52:24Z</time>
      </trkpt>
      <trkpt lat="44.26258" lon="4.19993">
        <ele>142.89</ele>
        <time>2020-05-21T14:52:48Z</time>
      </trkpt>
      <trkpt lat="44.26244" lon="4.19993">
        <ele>141.93</ele>
        <time>2020-05-21T14:52:59Z</time>
      </trkpt>
      <trkpt lat="44.26243" lon="4.19988">
        <ele>141.93</ele>
        <time>2020-05-21T14:53:04Z</time>
      </trkpt>
      <trkpt lat="44.26228" lon="4.19981">
        <ele>141.45</ele>
        <time>2020-05-21T14:53:20Z</time>
      </trkpt>
      <trkpt lat="44.26227" lon="4.19973">
        <ele>140.01</ele>
        <time>2020-05-21T14:53:27Z</time>
      </trkpt>
      <trkpt lat="44.26225" lon="4.19962">
        <ele>137.61</ele>
        <time>2020-05-21T14:53:48Z</time>
      </trkpt>
      <trkpt lat="44.26211" lon="4.19932">
        <ele>136.64</ele>
        <time>2020-05-21T14:54:09Z</time>
      </trkpt>
      <trkpt lat="44.26208" lon="4.19921">
        <ele>137.13</ele>
        <time>2020-05-21T14:54:17Z</time>
      </trkpt>
      <trkpt lat="44.26206" lon="4.19894">
        <ele>136.64</ele>
        <time>2020-05-21T14:54:35Z</time>
      </trkpt>
      <trkpt lat="44.2621" lon="4.19889">
        <ele>135.2</ele>
        <time>2020-05-21T14:54:40Z</time>
      </trkpt>
      <trkpt lat="44.26212" lon="4.19887">
        <ele>135.2</ele>
        <time>2020-05-21T14:54:42Z</time>
      </trkpt>
      <trkpt lat="44.26215" lon="4.19884">
        <ele>135.2</ele>
        <time>2020-05-21T14:54:46Z</time>
      </trkpt>
      <trkpt lat="44.2623" lon="4.19879">
        <ele>133.76</ele>
        <time>2020-05-21T14:55:05Z</time>
      </trkpt>
      <trkpt lat="44.2624" lon="4.19889">
        <ele>133.28</ele>
        <time>2020-05-21T14:55:20Z</time>
      </trkpt>
      <trkpt lat="44.26258" lon="4.1989">
        <ele>131.84</ele>
        <time>2020-05-21T14:55:44Z</time>
      </trkpt>
      <trkpt lat="44.26255" lon="4.19888">
        <ele>133.28</ele>
        <time>2020-05-21T14:55:49Z</time>
      </trkpt>
      <trkpt lat="44.26253" lon="4.19887">
        <ele>129.43</ele>
        <time>2020-05-21T14:55:53Z</time>
      </trkpt>
      <trkpt lat="44.26252" lon="4.19888">
        <ele>135.2</ele>
        <time>2020-05-21T14:55:54Z</time>
      </trkpt>
      <trkpt lat="44.26254" lon="4.19892">
        <ele>132.32</ele>
        <time>2020-05-21T14:56:14Z</time>
      </trkpt>
      <trkpt lat="44.26258" lon="4.19883">
        <ele>131.84</ele>
        <time>2020-05-21T14:56:31Z</time>
      </trkpt>
      <trkpt lat="44.26261" lon="4.19864">
        <ele>131.84</ele>
        <time>2020-05-21T14:56:50Z</time>
      </trkpt>
      <trkpt lat="44.26263" lon="4.19845">
        <ele>132.32</ele>
        <time>2020-05-21T14:57:11Z</time>
      </trkpt>
      <trkpt lat="44.26265" lon="4.19841">
        <ele>133.76</ele>
        <time>2020-05-21T14:57:14Z</time>
      </trkpt>
      <trkpt lat="44.26271" lon="4.19822">
        <ele>133.76</ele>
        <time>2020-05-21T14:57:30Z</time>
      </trkpt>
      <trkpt lat="44.2627" lon="4.1982">
        <ele>133.76</ele>
        <time>2020-05-21T14:57:34Z</time>
      </trkpt>
      <trkpt lat="44.26271" lon="4.19818">
        <ele>132.32</ele>
        <time>2020-05-21T14:57:36Z</time>
      </trkpt>
      <trkpt lat="44.26273" lon="4.1981">
        <ele>133.28</ele>
        <time>2020-05-21T14:57:42Z</time>
      </trkpt>
      <trkpt lat="44.26264" lon="4.19802">
        <ele>132.8</ele>
        <time>2020-05-21T14:57:51Z</time>
      </trkpt>
      <trkpt lat="44.26258" lon="4.19799">
        <ele>134.24</ele>
        <time>2020-05-21T14:57:56Z</time>
      </trkpt>
      <trkpt lat="44.26247" lon="4.19807">
        <ele>135.68</ele>
        <time>2020-05-21T14:58:10Z</time>
      </trkpt>
      <trkpt lat="44.26244" lon="4.19809">
        <ele>135.2</ele>
        <time>2020-05-21T14:58:14Z</time>
      </trkpt>
      <trkpt lat="44.2624" lon="4.19813">
        <ele>135.68</ele>
        <time>2020-05-21T14:58:21Z</time>
      </trkpt>
      <trkpt lat="44.26236" lon="4.19815">
        <ele>138.09</ele>
        <time>2020-05-21T14:58:26Z</time>
      </trkpt>
      <trkpt lat="44.26231" lon="4.1982">
        <ele>137.61</ele>
        <time>2020-05-21T14:58:31Z</time>
      </trkpt>
      <trkpt lat="44.26229" lon="4.19823">
        <ele>137.61</ele>
        <time>2020-05-21T14:58:35Z</time>
      </trkpt>
      <trkpt lat="44.26225" lon="4.19824">
        <ele>138.57</ele>
        <time>2020-05-21T14:58:42Z</time>
      </trkpt>
      <trkpt lat="44.26224" lon="4.19815">
        <ele>137.13</ele>
        <time>2020-05-21T14:58:49Z</time>
      </trkpt>
      <trkpt lat="44.26226" lon="4.19806">
        <ele>139.05</ele>
        <time>2020-05-21T14:58:56Z</time>
      </trkpt>
      <trkpt lat="44.26232" lon="4.19784">
        <ele>138.57</ele>
        <time>2020-05-21T14:59:14Z</time>
      </trkpt>
      <trkpt lat="44.26227" lon="4.19769">
        <ele>137.61</ele>
        <time>2020-05-21T14:59:36Z</time>
      </trkpt>
      <trkpt lat="44.26228" lon="4.19773">
        <ele>138.57</ele>
        <time>2020-05-21T15:00:02Z</time>
      </trkpt>
      <trkpt lat="44.26231" lon="4.19767">
        <ele>139.05</ele>
        <time>2020-05-21T15:00:20Z</time>
      </trkpt>
      <trkpt lat="44.26231" lon="4.19767">
        <ele>134.24</ele>
        <time>2020-05-21T15:00:22Z</time>
      </trkpt>
      <trkpt lat="44.26232" lon="4.19767">
        <ele>139.53</ele>
        <time>2020-05-21T15:00:23Z</time>
      </trkpt>
      <trkpt lat="44.2623" lon="4.19767">
        <ele>138.57</ele>
        <time>2020-05-21T15:00:29Z</time>
      </trkpt>
    </trkseg>
  </trk>
</gpx>